﻿<?xml version="1.0" encoding="utf-8"?><gpx creator="Garmin Desktop App" version="1.1" xsi:schemaLocation="http://www.topografix.com/GPX/1/1 http://www.topografix.com/GPX/1/1/gpx.xsd http://www.garmin.com/xmlschemas/WaypointExtension/v1 http://www8.garmin.com/xmlschemas/WaypointExtensionv1.xsd http://www.garmin.com/xmlschemas/TrackPointExtension/v1 http://www.garmin.com/xmlschemas/TrackPointExtensionv1.xsd http://www.garmin.com/xmlschemas/GpxExtensions/v3 http://www8.garmin.com/xmlschemas/GpxExtensionsv3.xsd http://www.garmin.com/xmlschemas/ActivityExtension/v1 http://www8.garmin.com/xmlschemas/ActivityExtensionv1.xsd http://www.garmin.com/xmlschemas/AdventuresExtensions/v1 http://www8.garmin.com/xmlschemas/AdventuresExtensionv1.xsd http://www.garmin.com/xmlschemas/PressureExtension/v1 http://www.garmin.com/xmlschemas/PressureExtensionv1.xsd http://www.garmin.com/xmlschemas/TripExtensions/v1 http://www.garmin.com/xmlschemas/TripExtensionsv1.xsd http://www.garmin.com/xmlschemas/TripMetaDataExtensions/v1 http://www.garmin.com/xmlschemas/TripMetaDataExtensionsv1.xsd http://www.garmin.com/xmlschemas/ViaPointTransportationModeExtensions/v1 http://www.garmin.com/xmlschemas/ViaPointTransportationModeExtensionsv1.xsd http://www.garmin.com/xmlschemas/CreationTimeExtension/v1 http://www.garmin.com/xmlschemas/CreationTimeExtensionsv1.xsd http://www.garmin.com/xmlschemas/AccelerationExtension/v1 http://www.garmin.com/xmlschemas/AccelerationExtensionv1.xsd http://www.garmin.com/xmlschemas/PowerExtension/v1 http://www.garmin.com/xmlschemas/PowerExtensionv1.xsd http://www.garmin.com/xmlschemas/VideoExtension/v1 http://www.garmin.com/xmlschemas/VideoExtensionv1.xsd" xmlns="http://www.topografix.com/GPX/1/1" xmlns:xsi="http://www.w3.org/2001/XMLSchema-instance" xmlns:wptx1="http://www.garmin.com/xmlschemas/WaypointExtension/v1" xmlns:gpxtrx="http://www.garmin.com/xmlschemas/GpxExtensions/v3" xmlns:gpxtpx="http://www.garmin.com/xmlschemas/TrackPointExtension/v1" xmlns:gpxx="http://www.garmin.com/xmlschemas/GpxExtensions/v3" xmlns:trp="http://www.garmin.com/xmlschemas/TripExtensions/v1" xmlns:adv="http://www.garmin.com/xmlschemas/AdventuresExtensions/v1" xmlns:prs="http://www.garmin.com/xmlschemas/PressureExtension/v1" xmlns:tmd="http://www.garmin.com/xmlschemas/TripMetaDataExtensions/v1" xmlns:vptm="http://www.garmin.com/xmlschemas/ViaPointTransportationModeExtensions/v1" xmlns:ctx="http://www.garmin.com/xmlschemas/CreationTimeExtension/v1" xmlns:gpxacc="http://www.garmin.com/xmlschemas/AccelerationExtension/v1" xmlns:gpxpx="http://www.garmin.com/xmlschemas/PowerExtension/v1" xmlns:vidx1="http://www.garmin.com/xmlschemas/VideoExtension/v1">

  <metadata>
    <link href="http://www.garmin.com">
      <text>Garmin International</text>
    </link>
    <time>2019-03-12T17:38:50Z</time>
    <bounds maxlat="46.458563217893243" maxlon="11.663401164114475" minlat="46.438301727175713" minlon="11.630831686779857" />
  </metadata>

  <trk>
    <name>rifugio-vaiolet2019-03-09</name>
    <extensions>
      <gpxx:TrackExtension>
        <gpxx:DisplayColor>Yellow</gpxx:DisplayColor>
      </gpxx:TrackExtension>
    </extensions>
    <trkseg>
      <trkpt lat="46.438907319679856" lon="11.66326361708343">
        <ele>1809.8199999999999</ele>
        <time>2019-03-09T09:02:33Z</time>
      </trkpt>
      <trkpt lat="46.438892232254148" lon="11.663278033956885">
        <ele>1808.8599999999999</ele>
        <time>2019-03-09T09:02:44Z</time>
      </trkpt>
      <trkpt lat="46.43887722864747" lon="11.663295635953546">
        <ele>1808.8599999999999</ele>
        <time>2019-03-09T09:02:56Z</time>
      </trkpt>
      <trkpt lat="46.438890639692545" lon="11.66336378082633">
        <ele>1808.3800000000001</ele>
        <time>2019-03-09T09:03:06Z</time>
      </trkpt>
      <trkpt lat="46.438928442075849" lon="11.66338725015521">
        <ele>1808.3800000000001</ele>
        <time>2019-03-09T09:03:16Z</time>
      </trkpt>
      <trkpt lat="46.438939422369003" lon="11.663367217406631">
        <ele>1809.3399999999999</ele>
        <time>2019-03-09T09:03:36Z</time>
      </trkpt>
      <trkpt lat="46.438930369913578" lon="11.663368307054043">
        <ele>1810.78</ele>
        <time>2019-03-09T09:03:46Z</time>
      </trkpt>
      <trkpt lat="46.438914444297552" lon="11.663401164114475">
        <ele>1811.26</ele>
        <time>2019-03-09T09:03:58Z</time>
      </trkpt>
      <trkpt lat="46.438914863392711" lon="11.663397056981921">
        <ele>1812.7</ele>
        <time>2019-03-09T09:04:18Z</time>
      </trkpt>
      <trkpt lat="46.43893732689321" lon="11.66337844915688">
        <ele>1812.22</ele>
        <time>2019-03-09T09:04:20Z</time>
      </trkpt>
      <trkpt lat="46.438990300521255" lon="11.663313573226333">
        <ele>1810.78</ele>
        <time>2019-03-09T09:04:25Z</time>
      </trkpt>
      <trkpt lat="46.438995664939284" lon="11.663272501900792">
        <ele>1809.3399999999999</ele>
        <time>2019-03-09T09:04:28Z</time>
      </trkpt>
      <trkpt lat="46.438998933881521" lon="11.663049878552556">
        <ele>1810.78</ele>
        <time>2019-03-09T09:04:41Z</time>
      </trkpt>
      <trkpt lat="46.438990132883191" lon="11.662837397307158">
        <ele>1807.9000000000001</ele>
        <time>2019-03-09T09:04:54Z</time>
      </trkpt>
      <trkpt lat="46.439013350754976" lon="11.662731114774942">
        <ele>1807.4200000000001</ele>
        <time>2019-03-09T09:05:04Z</time>
      </trkpt>
      <trkpt lat="46.439014859497547" lon="11.662621395662427">
        <ele>1807.9000000000001</ele>
        <time>2019-03-09T09:05:13Z</time>
      </trkpt>
      <trkpt lat="46.438990971073508" lon="11.662462390959263">
        <ele>1809.8199999999999</ele>
        <time>2019-03-09T09:05:26Z</time>
      </trkpt>
      <trkpt lat="46.438986528664827" lon="11.662423415109515">
        <ele>1811.26</ele>
        <time>2019-03-09T09:05:36Z</time>
      </trkpt>
      <trkpt lat="46.438961969688535" lon="11.662320233881474">
        <ele>1809.8199999999999</ele>
        <time>2019-03-09T09:05:45Z</time>
      </trkpt>
      <trkpt lat="46.438942439854145" lon="11.662159468978643">
        <ele>1812.22</ele>
        <time>2019-03-09T09:05:57Z</time>
      </trkpt>
      <trkpt lat="46.438914695754647" lon="11.662071626633406">
        <ele>1812.7</ele>
        <time>2019-03-09T09:06:04Z</time>
      </trkpt>
      <trkpt lat="46.438852921128273" lon="11.661987220868468">
        <ele>1811.74</ele>
        <time>2019-03-09T09:06:13Z</time>
      </trkpt>
      <trkpt lat="46.438794163987041" lon="11.661844393238425">
        <ele>1810.3</ele>
        <time>2019-03-09T09:06:26Z</time>
      </trkpt>
      <trkpt lat="46.438762061297894" lon="11.661709444597363">
        <ele>1811.26</ele>
        <time>2019-03-09T09:06:37Z</time>
      </trkpt>
      <trkpt lat="46.438751667737961" lon="11.66156368330121">
        <ele>1812.7</ele>
        <time>2019-03-09T09:06:47Z</time>
      </trkpt>
      <trkpt lat="46.438736915588379" lon="11.66141607798636">
        <ele>1815.1099999999999</ele>
        <time>2019-03-09T09:06:58Z</time>
      </trkpt>
      <trkpt lat="46.438717301934958" lon="11.661275262013078">
        <ele>1817.03</ele>
        <time>2019-03-09T09:07:08Z</time>
      </trkpt>
      <trkpt lat="46.438708920031786" lon="11.661222204566002">
        <ele>1818.95</ele>
        <time>2019-03-09T09:07:12Z</time>
      </trkpt>
      <trkpt lat="46.438683522865176" lon="11.661062948405743">
        <ele>1821.8399999999999</ele>
        <time>2019-03-09T09:07:24Z</time>
      </trkpt>
      <trkpt lat="46.438668770715594" lon="11.660916684195399">
        <ele>1822.8</ele>
        <time>2019-03-09T09:07:36Z</time>
      </trkpt>
      <trkpt lat="46.438651420176029" lon="11.660775449126959">
        <ele>1822.3199999999999</ele>
        <time>2019-03-09T09:07:48Z</time>
      </trkpt>
      <trkpt lat="46.438631471246481" lon="11.660636812448502">
        <ele>1823.28</ele>
        <time>2019-03-09T09:08:00Z</time>
      </trkpt>
      <trkpt lat="46.438621580600739" lon="11.660502031445503">
        <ele>1823.28</ele>
        <time>2019-03-09T09:08:11Z</time>
      </trkpt>
      <trkpt lat="46.438598111271858" lon="11.660384852439165">
        <ele>1825.2</ele>
        <time>2019-03-09T09:08:23Z</time>
      </trkpt>
      <trkpt lat="46.438571289181709" lon="11.660275803878903">
        <ele>1827.5999999999999</ele>
        <time>2019-03-09T09:08:37Z</time>
      </trkpt>
      <trkpt lat="46.438537677749991" lon="11.660176143050194">
        <ele>1829.05</ele>
        <time>2019-03-09T09:08:48Z</time>
      </trkpt>
      <trkpt lat="46.43850339576602" lon="11.660062735900283">
        <ele>1829.53</ele>
        <time>2019-03-09T09:09:00Z</time>
      </trkpt>
      <trkpt lat="46.438495265319943" lon="11.659966930747032">
        <ele>1832.4100000000001</ele>
        <time>2019-03-09T09:09:11Z</time>
      </trkpt>
      <trkpt lat="46.438487973064184" lon="11.659866850823164">
        <ele>1834.8099999999999</ele>
        <time>2019-03-09T09:09:24Z</time>
      </trkpt>
      <trkpt lat="46.438473723828793" lon="11.659796023741364">
        <ele>1836.26</ele>
        <time>2019-03-09T09:09:34Z</time>
      </trkpt>
      <trkpt lat="46.43845452927053" lon="11.659682365134358">
        <ele>1835.77</ele>
        <time>2019-03-09T09:09:47Z</time>
      </trkpt>
      <trkpt lat="46.43843692727387" lon="11.659603742882609">
        <ele>1835.77</ele>
        <time>2019-03-09T09:09:58Z</time>
      </trkpt>
      <trkpt lat="46.438425108790398" lon="11.659579603001475">
        <ele>1839.6199999999999</ele>
        <time>2019-03-09T09:10:06Z</time>
      </trkpt>
      <trkpt lat="46.438424019142985" lon="11.659576082602143">
        <ele>1839.6199999999999</ele>
        <time>2019-03-09T09:10:07Z</time>
      </trkpt>
      <trkpt lat="46.438398705795407" lon="11.659468542784452">
        <ele>1841.0599999999999</ele>
        <time>2019-03-09T09:10:18Z</time>
      </trkpt>
      <trkpt lat="46.438382277265191" lon="11.659372067078948">
        <ele>1843.47</ele>
        <time>2019-03-09T09:10:29Z</time>
      </trkpt>
      <trkpt lat="46.438359562307596" lon="11.659285817295313">
        <ele>1844.9100000000001</ele>
        <time>2019-03-09T09:10:38Z</time>
      </trkpt>
      <trkpt lat="46.438325447961688" lon="11.659175846725702">
        <ele>1845.3900000000001</ele>
        <time>2019-03-09T09:10:50Z</time>
      </trkpt>
      <trkpt lat="46.438301727175713" lon="11.659049447625875">
        <ele>1846.8299999999999</ele>
        <time>2019-03-09T09:11:02Z</time>
      </trkpt>
      <trkpt lat="46.438320586457849" lon="11.658897064626217">
        <ele>1849.23</ele>
        <time>2019-03-09T09:11:14Z</time>
      </trkpt>
      <trkpt lat="46.438351683318615" lon="11.658735712990165">
        <ele>1851.1600000000001</ele>
        <time>2019-03-09T09:11:25Z</time>
      </trkpt>
      <trkpt lat="46.438366938382387" lon="11.658654827624559">
        <ele>1851.6400000000001</ele>
        <time>2019-03-09T09:11:31Z</time>
      </trkpt>
      <trkpt lat="46.43839250318706" lon="11.658514346927404">
        <ele>1851.6400000000001</ele>
        <time>2019-03-09T09:11:42Z</time>
      </trkpt>
      <trkpt lat="46.438386300578713" lon="11.658391132950783">
        <ele>1854.52</ele>
        <time>2019-03-09T09:11:54Z</time>
      </trkpt>
      <trkpt lat="46.43839837051928" lon="11.65841200388968">
        <ele>1855.96</ele>
        <time>2019-03-09T09:12:09Z</time>
      </trkpt>
      <trkpt lat="46.438397699967027" lon="11.65840663947165">
        <ele>1857.4000000000001</ele>
        <time>2019-03-09T09:12:12Z</time>
      </trkpt>
      <trkpt lat="46.438394263386726" lon="11.658415943384171">
        <ele>1858.3699999999999</ele>
        <time>2019-03-09T09:12:21Z</time>
      </trkpt>
      <trkpt lat="46.438381439074874" lon="11.658374788239598">
        <ele>1860.77</ele>
        <time>2019-03-09T09:12:40Z</time>
      </trkpt>
      <trkpt lat="46.438381941989064" lon="11.658376799896359">
        <ele>1860.77</ele>
        <time>2019-03-09T09:12:41Z</time>
      </trkpt>
      <trkpt lat="46.438395939767361" lon="11.658382834866643">
        <ele>1860.77</ele>
        <time>2019-03-09T09:12:48Z</time>
      </trkpt>
      <trkpt lat="46.438381858170033" lon="11.658391552045941">
        <ele>1860.77</ele>
        <time>2019-03-09T09:12:56Z</time>
      </trkpt>
      <trkpt lat="46.438394682481885" lon="11.658413512632251">
        <ele>1860.77</ele>
        <time>2019-03-09T09:13:06Z</time>
      </trkpt>
      <trkpt lat="46.438389318063855" lon="11.65840856730938">
        <ele>1858.8499999999999</ele>
        <time>2019-03-09T09:13:22Z</time>
      </trkpt>
      <trkpt lat="46.438396023586392" lon="11.658361796289682">
        <ele>1857.4000000000001</ele>
        <time>2019-03-09T09:13:31Z</time>
      </trkpt>
      <trkpt lat="46.438437597826123" lon="11.658294657245278">
        <ele>1856.9200000000001</ele>
        <time>2019-03-09T09:13:47Z</time>
      </trkpt>
      <trkpt lat="46.43844866193831" lon="11.658244868740439">
        <ele>1859.3299999999999</ele>
        <time>2019-03-09T09:13:54Z</time>
      </trkpt>
      <trkpt lat="46.438454193994403" lon="11.658186614513397">
        <ele>1859.3299999999999</ele>
        <time>2019-03-09T09:13:58Z</time>
      </trkpt>
      <trkpt lat="46.438481686636806" lon="11.658114949241281">
        <ele>1859.3299999999999</ele>
        <time>2019-03-09T09:14:08Z</time>
      </trkpt>
      <trkpt lat="46.438489146530628" lon="11.658021742478013">
        <ele>1860.77</ele>
        <time>2019-03-09T09:14:20Z</time>
      </trkpt>
      <trkpt lat="46.438498618081212" lon="11.657899701967835">
        <ele>1860.77</ele>
        <time>2019-03-09T09:14:30Z</time>
      </trkpt>
      <trkpt lat="46.438503060489893" lon="11.657850667834282">
        <ele>1861.25</ele>
        <time>2019-03-09T09:14:33Z</time>
      </trkpt>
      <trkpt lat="46.438515800982714" lon="11.657815128564835">
        <ele>1861.25</ele>
        <time>2019-03-09T09:14:36Z</time>
      </trkpt>
      <trkpt lat="46.438541617244482" lon="11.657670037820935">
        <ele>1860.29</ele>
        <time>2019-03-09T09:14:47Z</time>
      </trkpt>
      <trkpt lat="46.438577491790056" lon="11.657513715326786">
        <ele>1857.8900000000001</ele>
        <time>2019-03-09T09:14:59Z</time>
      </trkpt>
      <trkpt lat="46.438585203140974" lon="11.657435176894069">
        <ele>1859.3299999999999</ele>
        <time>2019-03-09T09:15:07Z</time>
      </trkpt>
      <trkpt lat="46.438590651378036" lon="11.657404415309429">
        <ele>1859.3299999999999</ele>
        <time>2019-03-09T09:15:10Z</time>
      </trkpt>
      <trkpt lat="46.438600961118937" lon="11.657339371740818">
        <ele>1859.8099999999999</ele>
        <time>2019-03-09T09:15:16Z</time>
      </trkpt>
      <trkpt lat="46.438648318871856" lon="11.657229484990239">
        <ele>1859.3299999999999</ele>
        <time>2019-03-09T09:15:27Z</time>
      </trkpt>
      <trkpt lat="46.438684947788715" lon="11.657104343175888">
        <ele>1858.8499999999999</ele>
        <time>2019-03-09T09:15:38Z</time>
      </trkpt>
      <trkpt lat="46.438690228387713" lon="11.657090848311782">
        <ele>1858.8499999999999</ele>
        <time>2019-03-09T09:15:39Z</time>
      </trkpt>
      <trkpt lat="46.438743537291884" lon="11.656950954347849">
        <ele>1859.8099999999999</ele>
        <time>2019-03-09T09:15:50Z</time>
      </trkpt>
      <trkpt lat="46.438754936680198" lon="11.656919773668051">
        <ele>1860.29</ele>
        <time>2019-03-09T09:15:53Z</time>
      </trkpt>
      <trkpt lat="46.438761809840798" lon="11.656862022355199">
        <ele>1860.29</ele>
        <time>2019-03-09T09:15:57Z</time>
      </trkpt>
      <trkpt lat="46.438797432929277" lon="11.656724810600281">
        <ele>1860.29</ele>
        <time>2019-03-09T09:16:08Z</time>
      </trkpt>
      <trkpt lat="46.438816376030445" lon="11.656619617715478">
        <ele>1862.6900000000001</ele>
        <time>2019-03-09T09:16:17Z</time>
      </trkpt>
      <trkpt lat="46.438818303868175" lon="11.656579300761223">
        <ele>1864.6099999999999</ele>
        <time>2019-03-09T09:16:20Z</time>
      </trkpt>
      <trkpt lat="46.438830709084868" lon="11.656545521691442">
        <ele>1866.0599999999999</ele>
        <time>2019-03-09T09:16:23Z</time>
      </trkpt>
      <trkpt lat="46.438864404335618" lon="11.656419541686773">
        <ele>1867.5</ele>
        <time>2019-03-09T09:16:33Z</time>
      </trkpt>
      <trkpt lat="46.438881754875183" lon="11.656253160908818">
        <ele>1867.98</ele>
        <time>2019-03-09T09:16:44Z</time>
      </trkpt>
      <trkpt lat="46.438888208940625" lon="11.656123409047723">
        <ele>1870.8599999999999</ele>
        <time>2019-03-09T09:16:54Z</time>
      </trkpt>
      <trkpt lat="46.438903966918588" lon="11.655976977199316">
        <ele>1870.8599999999999</ele>
        <time>2019-03-09T09:17:04Z</time>
      </trkpt>
      <trkpt lat="46.438922826200724" lon="11.655885027721524">
        <ele>1870.3800000000001</ele>
        <time>2019-03-09T09:17:11Z</time>
      </trkpt>
      <trkpt lat="46.438932465389371" lon="11.655760388821363">
        <ele>1872.3</ele>
        <time>2019-03-09T09:17:21Z</time>
      </trkpt>
      <trkpt lat="46.438918048515916" lon="11.655677240341902">
        <ele>1875.6700000000001</ele>
        <time>2019-03-09T09:17:31Z</time>
      </trkpt>
      <trkpt lat="46.438937829807401" lon="11.655575484037399">
        <ele>1878.0699999999999</ele>
        <time>2019-03-09T09:17:40Z</time>
      </trkpt>
      <trkpt lat="46.438941769301891" lon="11.655556289479136">
        <ele>1878.55</ele>
        <time>2019-03-09T09:17:42Z</time>
      </trkpt>
      <trkpt lat="46.438940847292542" lon="11.655498538166285">
        <ele>1879.03</ele>
        <time>2019-03-09T09:17:46Z</time>
      </trkpt>
      <trkpt lat="46.438964568078518" lon="11.655419496819377">
        <ele>1878.55</ele>
        <time>2019-03-09T09:17:53Z</time>
      </trkpt>
      <trkpt lat="46.438994240015745" lon="11.655242051929235">
        <ele>1876.1500000000001</ele>
        <time>2019-03-09T09:18:05Z</time>
      </trkpt>
      <trkpt lat="46.439010081812739" lon="11.655090758576989">
        <ele>1875.6700000000001</ele>
        <time>2019-03-09T09:18:15Z</time>
      </trkpt>
      <trkpt lat="46.439031790941954" lon="11.654922366142273">
        <ele>1873.75</ele>
        <time>2019-03-09T09:18:26Z</time>
      </trkpt>
      <trkpt lat="46.439091973006725" lon="11.654805187135935">
        <ele>1874.23</ele>
        <time>2019-03-09T09:18:37Z</time>
      </trkpt>
      <trkpt lat="46.439132709056139" lon="11.654707873240113">
        <ele>1875.1900000000001</ele>
        <time>2019-03-09T09:18:46Z</time>
      </trkpt>
      <trkpt lat="46.439137486740947" lon="11.654672250151634">
        <ele>1874.71</ele>
        <time>2019-03-09T09:18:49Z</time>
      </trkpt>
      <trkpt lat="46.439187694340944" lon="11.654575103893876">
        <ele>1875.6700000000001</ele>
        <time>2019-03-09T09:19:00Z</time>
      </trkpt>
      <trkpt lat="46.439250558614731" lon="11.65447561070323">
        <ele>1877.5899999999999</ele>
        <time>2019-03-09T09:19:11Z</time>
      </trkpt>
      <trkpt lat="46.439245110377669" lon="11.654335297644138">
        <ele>1879.51</ele>
        <time>2019-03-09T09:19:22Z</time>
      </trkpt>
      <trkpt lat="46.439224407076836" lon="11.654225243255496">
        <ele>1881.9200000000001</ele>
        <time>2019-03-09T09:19:32Z</time>
      </trkpt>
      <trkpt lat="46.439219880849123" lon="11.654089707881212">
        <ele>1883.3599999999999</ele>
        <time>2019-03-09T09:19:44Z</time>
      </trkpt>
      <trkpt lat="46.439256845042109" lon="11.653944784775376">
        <ele>1882.4000000000001</ele>
        <time>2019-03-09T09:19:54Z</time>
      </trkpt>
      <trkpt lat="46.439266568049788" lon="11.653812769800425">
        <ele>1882.4000000000001</ele>
        <time>2019-03-09T09:20:06Z</time>
      </trkpt>
      <trkpt lat="46.439273692667484" lon="11.653706822544336">
        <ele>1882.8800000000001</ele>
        <time>2019-03-09T09:20:16Z</time>
      </trkpt>
      <trkpt lat="46.43931845203042" lon="11.653576232492924">
        <ele>1882.8800000000001</ele>
        <time>2019-03-09T09:20:27Z</time>
      </trkpt>
      <trkpt lat="46.439368491992354" lon="11.653456706553698">
        <ele>1883.3599999999999</ele>
        <time>2019-03-09T09:20:38Z</time>
      </trkpt>
      <trkpt lat="46.439428087323904" lon="11.653377246111631">
        <ele>1882.4000000000001</ele>
        <time>2019-03-09T09:20:47Z</time>
      </trkpt>
      <trkpt lat="46.439471840858459" lon="11.653266688808799">
        <ele>1882.8800000000001</ele>
        <time>2019-03-09T09:20:58Z</time>
      </trkpt>
      <trkpt lat="46.439500171691179" lon="11.653109444305301">
        <ele>1884.8</ele>
        <time>2019-03-09T09:21:10Z</time>
      </trkpt>
      <trkpt lat="46.43951584585011" lon="11.653070971369743">
        <ele>1885.28</ele>
        <time>2019-03-09T09:21:13Z</time>
      </trkpt>
      <trkpt lat="46.439531268551946" lon="11.653029900044203">
        <ele>1885.76</ele>
        <time>2019-03-09T09:21:17Z</time>
      </trkpt>
      <trkpt lat="46.439559599384665" lon="11.652893777936697">
        <ele>1887.21</ele>
        <time>2019-03-09T09:21:27Z</time>
      </trkpt>
      <trkpt lat="46.439592707902193" lon="11.652783388271928">
        <ele>1888.6500000000001</ele>
        <time>2019-03-09T09:21:37Z</time>
      </trkpt>
      <trkpt lat="46.439635958522558" lon="11.652674591168761">
        <ele>1890.0899999999999</ele>
        <time>2019-03-09T09:21:47Z</time>
      </trkpt>
      <trkpt lat="46.439712317660451" lon="11.652554478496313">
        <ele>1890.5699999999999</ele>
        <time>2019-03-09T09:21:57Z</time>
      </trkpt>
      <trkpt lat="46.439729165285826" lon="11.652527991682291">
        <ele>1890.5699999999999</ele>
        <time>2019-03-09T09:21:59Z</time>
      </trkpt>
      <trkpt lat="46.439775349572301" lon="11.652445178478956">
        <ele>1888.1700000000001</ele>
        <time>2019-03-09T09:22:07Z</time>
      </trkpt>
      <trkpt lat="46.43983150832355" lon="11.652356246486306">
        <ele>1887.21</ele>
        <time>2019-03-09T09:22:17Z</time>
      </trkpt>
      <trkpt lat="46.439886493608356" lon="11.652243342250586">
        <ele>1888.1700000000001</ele>
        <time>2019-03-09T09:22:28Z</time>
      </trkpt>
      <trkpt lat="46.439918428659439" lon="11.652129851281643">
        <ele>1887.6900000000001</ele>
        <time>2019-03-09T09:22:38Z</time>
      </trkpt>
      <trkpt lat="46.439925218001008" lon="11.652111662551761">
        <ele>1887.6900000000001</ele>
        <time>2019-03-09T09:22:40Z</time>
      </trkpt>
      <trkpt lat="46.43998296931386" lon="11.651974869892001">
        <ele>1889.6099999999999</ele>
        <time>2019-03-09T09:22:51Z</time>
      </trkpt>
      <trkpt lat="46.439988501369953" lon="11.651964895427227">
        <ele>1889.6099999999999</ele>
        <time>2019-03-09T09:22:52Z</time>
      </trkpt>
      <trkpt lat="46.440050192177296" lon="11.651841681450605">
        <ele>1889.6099999999999</ele>
        <time>2019-03-09T09:23:02Z</time>
      </trkpt>
      <trkpt lat="46.440109116956592" lon="11.651778146624565">
        <ele>1889.1300000000001</ele>
        <time>2019-03-09T09:23:09Z</time>
      </trkpt>
      <trkpt lat="46.440171310678124" lon="11.651674881577492">
        <ele>1889.1300000000001</ele>
        <time>2019-03-09T09:23:19Z</time>
      </trkpt>
      <trkpt lat="46.440229061990976" lon="11.651605060324073">
        <ele>1889.6099999999999</ele>
        <time>2019-03-09T09:23:28Z</time>
      </trkpt>
      <trkpt lat="46.440286645665765" lon="11.651481846347451">
        <ele>1890.0899999999999</ele>
        <time>2019-03-09T09:23:39Z</time>
      </trkpt>
      <trkpt lat="46.440299805253744" lon="11.651452928781509">
        <ele>1890.0899999999999</ele>
        <time>2019-03-09T09:23:42Z</time>
      </trkpt>
      <trkpt lat="46.440326627343893" lon="11.65133616887033">
        <ele>1891.53</ele>
        <time>2019-03-09T09:23:52Z</time>
      </trkpt>
      <trkpt lat="46.440344313159585" lon="11.651184791699052">
        <ele>1891.05</ele>
        <time>2019-03-09T09:24:03Z</time>
      </trkpt>
      <trkpt lat="46.440350264310837" lon="11.65110700763762">
        <ele>1891.05</ele>
        <time>2019-03-09T09:24:09Z</time>
      </trkpt>
      <trkpt lat="46.440337104722857" lon="11.650977423414588">
        <ele>1890.5699999999999</ele>
        <time>2019-03-09T09:24:19Z</time>
      </trkpt>
      <trkpt lat="46.440345738083124" lon="11.650830656290054">
        <ele>1890.5699999999999</ele>
        <time>2019-03-09T09:24:30Z</time>
      </trkpt>
      <trkpt lat="46.440349509939551" lon="11.650820346549153">
        <ele>1890.5699999999999</ele>
        <time>2019-03-09T09:24:31Z</time>
      </trkpt>
      <trkpt lat="46.440453194081783" lon="11.650721775367856">
        <ele>1892.97</ele>
        <time>2019-03-09T09:24:43Z</time>
      </trkpt>
      <trkpt lat="46.440538857132196" lon="11.650705263018608">
        <ele>1891.05</ele>
        <time>2019-03-09T09:24:50Z</time>
      </trkpt>
      <trkpt lat="46.440638769418001" lon="11.650640722364187">
        <ele>1890.0899999999999</ele>
        <time>2019-03-09T09:25:01Z</time>
      </trkpt>
      <trkpt lat="46.440734155476093" lon="11.650568637996912">
        <ele>1890.0899999999999</ele>
        <time>2019-03-09T09:25:12Z</time>
      </trkpt>
      <trkpt lat="46.440818728879094" lon="11.650488507002592">
        <ele>1889.6099999999999</ele>
        <time>2019-03-09T09:25:22Z</time>
      </trkpt>
      <trkpt lat="46.44090841524303" lon="11.650416422635317">
        <ele>1890.5699999999999</ele>
        <time>2019-03-09T09:25:32Z</time>
      </trkpt>
      <trkpt lat="46.440965160727501" lon="11.650360012426972">
        <ele>1890.0899999999999</ele>
        <time>2019-03-09T09:25:39Z</time>
      </trkpt>
      <trkpt lat="46.441032802686095" lon="11.65023822337389">
        <ele>1889.6099999999999</ele>
        <time>2019-03-09T09:25:49Z</time>
      </trkpt>
      <trkpt lat="46.441082675009966" lon="11.650139819830656">
        <ele>1890.0899999999999</ele>
        <time>2019-03-09T09:25:58Z</time>
      </trkpt>
      <trkpt lat="46.441131876781583" lon="11.650038817897439">
        <ele>1891.05</ele>
        <time>2019-03-09T09:26:07Z</time>
      </trkpt>
      <trkpt lat="46.44117814488709" lon="11.649990370497108">
        <ele>1889.6099999999999</ele>
        <time>2019-03-09T09:26:13Z</time>
      </trkpt>
      <trkpt lat="46.441243523731828" lon="11.64985173381865">
        <ele>1888.1700000000001</ele>
        <time>2019-03-09T09:26:25Z</time>
      </trkpt>
      <trkpt lat="46.441256767138839" lon="11.649781912565231">
        <ele>1888.1700000000001</ele>
        <time>2019-03-09T09:26:30Z</time>
      </trkpt>
      <trkpt lat="46.441257186233997" lon="11.649734722450376">
        <ele>1887.6900000000001</ele>
        <time>2019-03-09T09:26:33Z</time>
      </trkpt>
      <trkpt lat="46.441303035244346" lon="11.649621734395623">
        <ele>1888.6500000000001</ele>
        <time>2019-03-09T09:26:42Z</time>
      </trkpt>
      <trkpt lat="46.441375035792589" lon="11.649535736069083">
        <ele>1889.6099999999999</ele>
        <time>2019-03-09T09:26:52Z</time>
      </trkpt>
      <trkpt lat="46.441402779892087" lon="11.649448648095131">
        <ele>1891.05</ele>
        <time>2019-03-09T09:27:01Z</time>
      </trkpt>
      <trkpt lat="46.441401354968548" lon="11.649323925375938">
        <ele>1891.53</ele>
        <time>2019-03-09T09:27:10Z</time>
      </trkpt>
      <trkpt lat="46.441381489858031" lon="11.649184953421354">
        <ele>1892.01</ele>
        <time>2019-03-09T09:27:22Z</time>
      </trkpt>
      <trkpt lat="46.441357936710119" lon="11.649024691432714">
        <ele>1890.5699999999999</ele>
        <time>2019-03-09T09:27:33Z</time>
      </trkpt>
      <trkpt lat="46.441375957801938" lon="11.648834925144911">
        <ele>1890.5699999999999</ele>
        <time>2019-03-09T09:27:44Z</time>
      </trkpt>
      <trkpt lat="46.441443348303437" lon="11.648703999817371">
        <ele>1889.6099999999999</ele>
        <time>2019-03-09T09:27:54Z</time>
      </trkpt>
      <trkpt lat="46.441495064646006" lon="11.648591766133904">
        <ele>1890.5699999999999</ele>
        <time>2019-03-09T09:28:03Z</time>
      </trkpt>
      <trkpt lat="46.441534459590912" lon="11.648539379239082">
        <ele>1889.6099999999999</ele>
        <time>2019-03-09T09:28:09Z</time>
      </trkpt>
      <trkpt lat="46.4415627066046" lon="11.648502079769969">
        <ele>1890.0899999999999</ele>
        <time>2019-03-09T09:28:13Z</time>
      </trkpt>
      <trkpt lat="46.441578380763531" lon="11.648377440869808">
        <ele>1891.53</ele>
        <time>2019-03-09T09:28:22Z</time>
      </trkpt>
      <trkpt lat="46.441561449319124" lon="11.64824509061873">
        <ele>1894.4200000000001</ele>
        <time>2019-03-09T09:28:34Z</time>
      </trkpt>
      <trkpt lat="46.441547283902764" lon="11.648156074807048">
        <ele>1895.3800000000001</ele>
        <time>2019-03-09T09:28:43Z</time>
      </trkpt>
      <trkpt lat="46.441529849544168" lon="11.648037470877171">
        <ele>1895.8599999999999</ele>
        <time>2019-03-09T09:28:52Z</time>
      </trkpt>
      <trkpt lat="46.441515516489744" lon="11.647922722622752">
        <ele>1896.3399999999999</ele>
        <time>2019-03-09T09:29:00Z</time>
      </trkpt>
      <trkpt lat="46.441511157900095" lon="11.647780984640121">
        <ele>1895.8599999999999</ele>
        <time>2019-03-09T09:29:11Z</time>
      </trkpt>
      <trkpt lat="46.441518533974886" lon="11.64769297465682">
        <ele>1895.8599999999999</ele>
        <time>2019-03-09T09:29:17Z</time>
      </trkpt>
      <trkpt lat="46.441535549238324" lon="11.647590380162001">
        <ele>1895.8599999999999</ele>
        <time>2019-03-09T09:29:23Z</time>
      </trkpt>
      <trkpt lat="46.441600760444999" lon="11.647471860051155">
        <ele>1897.78</ele>
        <time>2019-03-09T09:29:34Z</time>
      </trkpt>
      <trkpt lat="46.441671587526798" lon="11.647365912795067">
        <ele>1896.3399999999999</ele>
        <time>2019-03-09T09:29:44Z</time>
      </trkpt>
      <trkpt lat="46.441676532849669" lon="11.647356692701578">
        <ele>1896.8199999999999</ele>
        <time>2019-03-09T09:29:45Z</time>
      </trkpt>
      <trkpt lat="46.441769571974874" lon="11.647225935012102">
        <ele>1897.78</ele>
        <time>2019-03-09T09:29:57Z</time>
      </trkpt>
      <trkpt lat="46.441833609715104" lon="11.647131890058517">
        <ele>1898.74</ele>
        <time>2019-03-09T09:30:08Z</time>
      </trkpt>
      <trkpt lat="46.441814247518778" lon="11.647126190364361">
        <ele>1901.6300000000001</ele>
        <time>2019-03-09T09:30:21Z</time>
      </trkpt>
      <trkpt lat="46.441795388236642" lon="11.647123508155346">
        <ele>1903.55</ele>
        <time>2019-03-09T09:30:38Z</time>
      </trkpt>
      <trkpt lat="46.441920781508088" lon="11.64709241129458">
        <ele>1901.1400000000001</ele>
        <time>2019-03-09T09:30:54Z</time>
      </trkpt>
      <trkpt lat="46.441960427910089" lon="11.647022506222129">
        <ele>1897.78</ele>
        <time>2019-03-09T09:31:02Z</time>
      </trkpt>
      <trkpt lat="46.44198783673346" lon="11.646953020244837">
        <ele>1899.22</ele>
        <time>2019-03-09T09:31:12Z</time>
      </trkpt>
      <trkpt lat="46.442039972171187" lon="11.646863417699933">
        <ele>1899.22</ele>
        <time>2019-03-09T09:31:22Z</time>
      </trkpt>
      <trkpt lat="46.442128317430615" lon="11.646747412160039">
        <ele>1900.6600000000001</ele>
        <time>2019-03-09T09:31:34Z</time>
      </trkpt>
      <trkpt lat="46.442198054865003" lon="11.646676585078239">
        <ele>1902.5899999999999</ele>
        <time>2019-03-09T09:31:45Z</time>
      </trkpt>
      <trkpt lat="46.442206352949142" lon="11.646626880392432">
        <ele>1903.0699999999999</ele>
        <time>2019-03-09T09:31:48Z</time>
      </trkpt>
      <trkpt lat="46.442298889160156" lon="11.646521100774407">
        <ele>1901.6300000000001</ele>
        <time>2019-03-09T09:31:59Z</time>
      </trkpt>
      <trkpt lat="46.442347420379519" lon="11.646493440493941">
        <ele>1902.1099999999999</ele>
        <time>2019-03-09T09:32:06Z</time>
      </trkpt>
      <trkpt lat="46.442443896085024" lon="11.646458404138684">
        <ele>1901.6300000000001</ele>
        <time>2019-03-09T09:32:17Z</time>
      </trkpt>
      <trkpt lat="46.442523188889027" lon="11.64644499309361">
        <ele>1901.6300000000001</ele>
        <time>2019-03-09T09:32:27Z</time>
      </trkpt>
      <trkpt lat="46.442607510834932" lon="11.646411465480924">
        <ele>1903.0699999999999</ele>
        <time>2019-03-09T09:32:37Z</time>
      </trkpt>
      <trkpt lat="46.442685127258301" lon="11.646374836564064">
        <ele>1903.0699999999999</ele>
        <time>2019-03-09T09:32:45Z</time>
      </trkpt>
      <trkpt lat="46.442779926583171" lon="11.646356144919991">
        <ele>1902.1099999999999</ele>
        <time>2019-03-09T09:32:57Z</time>
      </trkpt>
      <trkpt lat="46.442833570763469" lon="11.646337537094951">
        <ele>1901.6300000000001</ele>
        <time>2019-03-09T09:33:06Z</time>
      </trkpt>
      <trkpt lat="46.442855279892683" lon="11.646309960633516">
        <ele>1901.1400000000001</ele>
        <time>2019-03-09T09:33:09Z</time>
      </trkpt>
      <trkpt lat="46.44289618358016" lon="11.646225303411484">
        <ele>1901.6300000000001</ele>
        <time>2019-03-09T09:33:19Z</time>
      </trkpt>
      <trkpt lat="46.442905655130744" lon="11.646148692816496">
        <ele>1904.03</ele>
        <time>2019-03-09T09:33:32Z</time>
      </trkpt>
      <trkpt lat="46.442944966256618" lon="11.646023215726018">
        <ele>1904.99</ele>
        <time>2019-03-09T09:33:42Z</time>
      </trkpt>
      <trkpt lat="46.442995425313711" lon="11.64592657238245">
        <ele>1906.9100000000001</ele>
        <time>2019-03-09T09:33:53Z</time>
      </trkpt>
      <trkpt lat="46.443014452233911" lon="11.645892290398479">
        <ele>1906.9100000000001</ele>
        <time>2019-03-09T09:33:56Z</time>
      </trkpt>
      <trkpt lat="46.443057199940085" lon="11.645815512165427">
        <ele>1909.8</ele>
        <time>2019-03-09T09:34:06Z</time>
      </trkpt>
      <trkpt lat="46.443108413368464" lon="11.645709900185466">
        <ele>1908.8299999999999</ele>
        <time>2019-03-09T09:34:17Z</time>
      </trkpt>
      <trkpt lat="46.443153591826558" lon="11.645604204386473">
        <ele>1907.8699999999999</ele>
        <time>2019-03-09T09:34:27Z</time>
      </trkpt>
      <trkpt lat="46.443207571282983" lon="11.645487025380135">
        <ele>1909.8</ele>
        <time>2019-03-09T09:34:38Z</time>
      </trkpt>
      <trkpt lat="46.443277727812529" lon="11.645425921306014">
        <ele>1910.28</ele>
        <time>2019-03-09T09:34:48Z</time>
      </trkpt>
      <trkpt lat="46.443368503823876" lon="11.645324919372797">
        <ele>1910.76</ele>
        <time>2019-03-09T09:35:00Z</time>
      </trkpt>
      <trkpt lat="46.443374790251255" lon="11.645313519984484">
        <ele>1910.76</ele>
        <time>2019-03-09T09:35:01Z</time>
      </trkpt>
      <trkpt lat="46.443437822163105" lon="11.645210925489664">
        <ele>1909.8</ele>
        <time>2019-03-09T09:35:11Z</time>
      </trkpt>
      <trkpt lat="46.443451652303338" lon="11.645170776173472">
        <ele>1908.8299999999999</ele>
        <time>2019-03-09T09:35:15Z</time>
      </trkpt>
      <trkpt lat="46.443461375311017" lon="11.645120652392507">
        <ele>1908.3499999999999</ele>
        <time>2019-03-09T09:35:19Z</time>
      </trkpt>
      <trkpt lat="46.443486353382468" lon="11.64501478895545">
        <ele>1905.47</ele>
        <time>2019-03-09T09:35:30Z</time>
      </trkpt>
      <trkpt lat="46.443501859903336" lon="11.644956115633249">
        <ele>1904.03</ele>
        <time>2019-03-09T09:35:35Z</time>
      </trkpt>
      <trkpt lat="46.443582661449909" lon="11.644822843372822">
        <ele>1902.5899999999999</ele>
        <time>2019-03-09T09:35:47Z</time>
      </trkpt>
      <trkpt lat="46.443602275103331" lon="11.644802894443274">
        <ele>1904.51</ele>
        <time>2019-03-09T09:35:57Z</time>
      </trkpt>
      <trkpt lat="46.443658014759421" lon="11.644830470904708">
        <ele>1903.55</ele>
        <time>2019-03-09T09:36:05Z</time>
      </trkpt>
      <trkpt lat="46.443681484088302" lon="11.644837176427245">
        <ele>1903.0699999999999</ele>
        <time>2019-03-09T09:36:07Z</time>
      </trkpt>
      <trkpt lat="46.443769577890635" lon="11.644838433712721">
        <ele>1903.55</ele>
        <time>2019-03-09T09:36:19Z</time>
      </trkpt>
      <trkpt lat="46.443848451599479" lon="11.644811443984509">
        <ele>1903.55</ele>
        <time>2019-03-09T09:36:28Z</time>
      </trkpt>
      <trkpt lat="46.443914752453566" lon="11.644739611074328">
        <ele>1904.99</ele>
        <time>2019-03-09T09:36:39Z</time>
      </trkpt>
      <trkpt lat="46.443984406068921" lon="11.644593179225922">
        <ele>1907.3900000000001</ele>
        <time>2019-03-09T09:36:53Z</time>
      </trkpt>
      <trkpt lat="46.444001505151391" lon="11.644545989111066">
        <ele>1909.3199999999999</ele>
        <time>2019-03-09T09:37:03Z</time>
      </trkpt>
      <trkpt lat="46.444010557606816" lon="11.644511790946126">
        <ele>1910.28</ele>
        <time>2019-03-09T09:37:15Z</time>
      </trkpt>
      <trkpt lat="46.444018688052893" lon="11.644530482590199">
        <ele>1909.8</ele>
        <time>2019-03-09T09:37:26Z</time>
      </trkpt>
      <trkpt lat="46.444006031379104" lon="11.64453643374145">
        <ele>1910.76</ele>
        <time>2019-03-09T09:37:39Z</time>
      </trkpt>
      <trkpt lat="46.444014078006148" lon="11.644571889191866">
        <ele>1909.8</ele>
        <time>2019-03-09T09:37:48Z</time>
      </trkpt>
      <trkpt lat="46.444004438817501" lon="11.644580941647291">
        <ele>1910.76</ele>
        <time>2019-03-09T09:38:01Z</time>
      </trkpt>
      <trkpt lat="46.443993793800473" lon="11.644581109285355">
        <ele>1912.6800000000001</ele>
        <time>2019-03-09T09:38:16Z</time>
      </trkpt>
      <trkpt lat="46.444019693881273" lon="11.644560908898711">
        <ele>1911.24</ele>
        <time>2019-03-09T09:38:26Z</time>
      </trkpt>
      <trkpt lat="46.44401466473937" lon="11.644574068486691">
        <ele>1907.8699999999999</ele>
        <time>2019-03-09T09:38:30Z</time>
      </trkpt>
      <trkpt lat="46.444019777700305" lon="11.644583623856306">
        <ele>1904.99</ele>
        <time>2019-03-09T09:38:35Z</time>
      </trkpt>
      <trkpt lat="46.44404542632401" lon="11.644575912505388">
        <ele>1904.99</ele>
        <time>2019-03-09T09:39:01Z</time>
      </trkpt>
      <trkpt lat="46.444004941731691" lon="11.644562920555472">
        <ele>1904.51</ele>
        <time>2019-03-09T09:39:17Z</time>
      </trkpt>
      <trkpt lat="46.444005612283945" lon="11.644552443176508">
        <ele>1904.03</ele>
        <time>2019-03-09T09:39:36Z</time>
      </trkpt>
      <trkpt lat="46.444024555385113" lon="11.644546743482351">
        <ele>1903.55</ele>
        <time>2019-03-09T09:39:43Z</time>
      </trkpt>
      <trkpt lat="46.444023633375764" lon="11.644551856443286">
        <ele>1904.51</ele>
        <time>2019-03-09T09:39:52Z</time>
      </trkpt>
      <trkpt lat="46.444024555385113" lon="11.644566608592868">
        <ele>1906.4300000000001</ele>
        <time>2019-03-09T09:40:01Z</time>
      </trkpt>
      <trkpt lat="46.444012401625514" lon="11.644576080143452">
        <ele>1908.8299999999999</ele>
        <time>2019-03-09T09:40:10Z</time>
      </trkpt>
      <trkpt lat="46.444009467959404" lon="11.644567614421248">
        <ele>1910.28</ele>
        <time>2019-03-09T09:40:23Z</time>
      </trkpt>
      <trkpt lat="46.444000415503979" lon="11.644574906677008">
        <ele>1911.24</ele>
        <time>2019-03-09T09:40:34Z</time>
      </trkpt>
      <trkpt lat="46.444007959216833" lon="11.644565351307392">
        <ele>1910.28</ele>
        <time>2019-03-09T09:40:42Z</time>
      </trkpt>
      <trkpt lat="46.444015419110656" lon="11.644572475925088">
        <ele>1909.3199999999999</ele>
        <time>2019-03-09T09:40:49Z</time>
      </trkpt>
      <trkpt lat="46.444030841812491" lon="11.644602566957474">
        <ele>1908.3499999999999</ele>
        <time>2019-03-09T09:40:57Z</time>
      </trkpt>
      <trkpt lat="46.444049868732691" lon="11.64454523473978">
        <ele>1907.8699999999999</ele>
        <time>2019-03-09T09:41:09Z</time>
      </trkpt>
      <trkpt lat="46.444025728851557" lon="11.644540205597878">
        <ele>1909.8</ele>
        <time>2019-03-09T09:41:22Z</time>
      </trkpt>
      <trkpt lat="46.444022208452225" lon="11.64452662691474">
        <ele>1910.28</ele>
        <time>2019-03-09T09:41:36Z</time>
      </trkpt>
      <trkpt lat="46.444023968651891" lon="11.64448413066566">
        <ele>1910.28</ele>
        <time>2019-03-09T09:41:46Z</time>
      </trkpt>
      <trkpt lat="46.444017682224512" lon="11.644487902522087">
        <ele>1909.8</ele>
        <time>2019-03-09T09:42:00Z</time>
      </trkpt>
      <trkpt lat="46.444035954773426" lon="11.644427888095379">
        <ele>1909.3199999999999</ele>
        <time>2019-03-09T09:42:05Z</time>
      </trkpt>
      <trkpt lat="46.444063112139702" lon="11.644305177032948">
        <ele>1908.8299999999999</ele>
        <time>2019-03-09T09:42:15Z</time>
      </trkpt>
      <trkpt lat="46.444049784913659" lon="11.644290424883366">
        <ele>1908.8299999999999</ele>
        <time>2019-03-09T09:42:24Z</time>
      </trkpt>
      <trkpt lat="46.444045174866915" lon="11.644294196739793">
        <ele>1909.3199999999999</ele>
        <time>2019-03-09T09:42:33Z</time>
      </trkpt>
      <trkpt lat="46.443988177925348" lon="11.644179951399565">
        <ele>1910.76</ele>
        <time>2019-03-09T09:42:45Z</time>
      </trkpt>
      <trkpt lat="46.443934198468924" lon="11.644036620855331">
        <ele>1912.2</ele>
        <time>2019-03-09T09:42:58Z</time>
      </trkpt>
      <trkpt lat="46.443909052759409" lon="11.643938133493066">
        <ele>1913.6400000000001</ele>
        <time>2019-03-09T09:43:07Z</time>
      </trkpt>
      <trkpt lat="46.443886337801814" lon="11.643785499036312">
        <ele>1914.5999999999999</ele>
        <time>2019-03-09T09:43:19Z</time>
      </trkpt>
      <trkpt lat="46.443865299224854" lon="11.643629260361195">
        <ele>1915.5599999999999</ele>
        <time>2019-03-09T09:43:30Z</time>
      </trkpt>
      <trkpt lat="46.443847948685288" lon="11.643470842391253">
        <ele>1916.53</ele>
        <time>2019-03-09T09:43:43Z</time>
      </trkpt>
      <trkpt lat="46.443852977827191" lon="11.643306305631995">
        <ele>1916.53</ele>
        <time>2019-03-09T09:43:56Z</time>
      </trkpt>
      <trkpt lat="46.44387443549931" lon="11.643173368647695">
        <ele>1918.45</ele>
        <time>2019-03-09T09:44:09Z</time>
      </trkpt>
      <trkpt lat="46.443883068859577" lon="11.643061051145196">
        <ele>1921.3299999999999</ele>
        <time>2019-03-09T09:44:21Z</time>
      </trkpt>
      <trkpt lat="46.443875189870596" lon="11.642980081960559">
        <ele>1924.7</ele>
        <time>2019-03-09T09:44:33Z</time>
      </trkpt>
      <trkpt lat="46.443920116871595" lon="11.642806576564908">
        <ele>1926.6199999999999</ele>
        <time>2019-03-09T09:44:47Z</time>
      </trkpt>
      <trkpt lat="46.443949202075601" lon="11.642721919342875">
        <ele>1929.02</ele>
        <time>2019-03-09T09:44:57Z</time>
      </trkpt>
      <trkpt lat="46.443998236209154" lon="11.642646314576268">
        <ele>1929.5</ele>
        <time>2019-03-09T09:45:08Z</time>
      </trkpt>
      <trkpt lat="46.444005444645882" lon="11.642639441415668">
        <ele>1929.02</ele>
        <time>2019-03-09T09:45:09Z</time>
      </trkpt>
      <trkpt lat="46.444093286991119" lon="11.642553946003318">
        <ele>1929.98</ele>
        <time>2019-03-09T09:45:21Z</time>
      </trkpt>
      <trkpt lat="46.444174088537693" lon="11.642504995688796">
        <ele>1931.4300000000001</ele>
        <time>2019-03-09T09:45:32Z</time>
      </trkpt>
      <trkpt lat="46.444226978346705" lon="11.64248663932085">
        <ele>1933.8299999999999</ele>
        <time>2019-03-09T09:45:41Z</time>
      </trkpt>
      <trkpt lat="46.444232510402799" lon="11.642485968768597">
        <ele>1933.8299999999999</ele>
        <time>2019-03-09T09:45:42Z</time>
      </trkpt>
      <trkpt lat="46.444321693852544" lon="11.642409022897482">
        <ele>1933.8299999999999</ele>
        <time>2019-03-09T09:45:53Z</time>
      </trkpt>
      <trkpt lat="46.44440702162683" lon="11.642363257706165">
        <ele>1933.3499999999999</ele>
        <time>2019-03-09T09:46:04Z</time>
      </trkpt>
      <trkpt lat="46.444517998024821" lon="11.642325120046735">
        <ele>1932.8699999999999</ele>
        <time>2019-03-09T09:46:15Z</time>
      </trkpt>
      <trkpt lat="46.444592596963048" lon="11.642278600484133">
        <ele>1932.3900000000001</ele>
        <time>2019-03-09T09:46:23Z</time>
      </trkpt>
      <trkpt lat="46.444686139002442" lon="11.642216239124537">
        <ele>1931.9100000000001</ele>
        <time>2019-03-09T09:46:34Z</time>
      </trkpt>
      <trkpt lat="46.444697035476565" lon="11.642201067879796">
        <ele>1932.3900000000001</ele>
        <time>2019-03-09T09:46:36Z</time>
      </trkpt>
      <trkpt lat="46.444744560867548" lon="11.642133258283138">
        <ele>1932.3900000000001</ele>
        <time>2019-03-09T09:46:42Z</time>
      </trkpt>
      <trkpt lat="46.444806754589081" lon="11.641960339620709">
        <ele>1932.3900000000001</ele>
        <time>2019-03-09T09:46:54Z</time>
      </trkpt>
      <trkpt lat="46.444845898076892" lon="11.641831677407026">
        <ele>1933.8299999999999</ele>
        <time>2019-03-09T09:47:06Z</time>
      </trkpt>
      <trkpt lat="46.444875737652183" lon="11.641712486743927">
        <ele>1935.27</ele>
        <time>2019-03-09T09:47:17Z</time>
      </trkpt>
      <trkpt lat="46.444888729602098" lon="11.64160905405879">
        <ele>1936.71</ele>
        <time>2019-03-09T09:47:29Z</time>
      </trkpt>
      <trkpt lat="46.444916138425469" lon="11.641510985791683">
        <ele>1938.6400000000001</ele>
        <time>2019-03-09T09:47:40Z</time>
      </trkpt>
      <trkpt lat="46.444947570562363" lon="11.641409900039434">
        <ele>1939.5999999999999</ele>
        <time>2019-03-09T09:47:52Z</time>
      </trkpt>
      <trkpt lat="46.44498310983181" lon="11.641311747953296">
        <ele>1940.5599999999999</ele>
        <time>2019-03-09T09:48:04Z</time>
      </trkpt>
      <trkpt lat="46.445023426786065" lon="11.641302024945617">
        <ele>1942.48</ele>
        <time>2019-03-09T09:48:15Z</time>
      </trkpt>
      <trkpt lat="46.445032060146332" lon="11.641287440434098">
        <ele>1944.4000000000001</ele>
        <time>2019-03-09T09:48:27Z</time>
      </trkpt>
      <trkpt lat="46.445089224725962" lon="11.641225162893534">
        <ele>1944.8800000000001</ele>
        <time>2019-03-09T09:48:39Z</time>
      </trkpt>
      <trkpt lat="46.445155525580049" lon="11.641265479847789">
        <ele>1946.8099999999999</ele>
        <time>2019-03-09T09:48:51Z</time>
      </trkpt>
      <trkpt lat="46.445208163931966" lon="11.641316190361977">
        <ele>1947.29</ele>
        <time>2019-03-09T09:49:00Z</time>
      </trkpt>
      <trkpt lat="46.445261975750327" lon="11.64137645624578">
        <ele>1947.77</ele>
        <time>2019-03-09T09:49:07Z</time>
      </trkpt>
      <trkpt lat="46.4453065674752" lon="11.64141945540905">
        <ele>1947.77</ele>
        <time>2019-03-09T09:49:17Z</time>
      </trkpt>
      <trkpt lat="46.44539650529623" lon="11.641527581959963">
        <ele>1948.73</ele>
        <time>2019-03-09T09:49:27Z</time>
      </trkpt>
      <trkpt lat="46.445404132828116" lon="11.641533868387341">
        <ele>1948.73</ele>
        <time>2019-03-09T09:49:28Z</time>
      </trkpt>
      <trkpt lat="46.445505218580365" lon="11.641487013548613">
        <ele>1948.73</ele>
        <time>2019-03-09T09:49:38Z</time>
      </trkpt>
      <trkpt lat="46.44555626437068" lon="11.641453066840768">
        <ele>1949.21</ele>
        <time>2019-03-09T09:49:44Z</time>
      </trkpt>
      <trkpt lat="46.445667156949639" lon="11.641395734623075">
        <ele>1950.1700000000001</ele>
        <time>2019-03-09T09:49:55Z</time>
      </trkpt>
      <trkpt lat="46.445741001516581" lon="11.6413529869169">
        <ele>1950.6500000000001</ele>
        <time>2019-03-09T09:50:03Z</time>
      </trkpt>
      <trkpt lat="46.445825826376677" lon="11.6413080599159">
        <ele>1950.6500000000001</ele>
        <time>2019-03-09T09:50:12Z</time>
      </trkpt>
      <trkpt lat="46.445837309584022" lon="11.64130269549787">
        <ele>1951.1300000000001</ele>
        <time>2019-03-09T09:50:13Z</time>
      </trkpt>
      <trkpt lat="46.445960523560643" lon="11.641241172328591">
        <ele>1951.1300000000001</ele>
        <time>2019-03-09T09:50:24Z</time>
      </trkpt>
      <trkpt lat="46.446010395884514" lon="11.641206638887525">
        <ele>1951.1300000000001</ele>
        <time>2019-03-09T09:50:29Z</time>
      </trkpt>
      <trkpt lat="46.446107542142272" lon="11.641156012192369">
        <ele>1952.0899999999999</ele>
        <time>2019-03-09T09:50:39Z</time>
      </trkpt>
      <trkpt lat="46.446176944300532" lon="11.641092393547297">
        <ele>1952.0899999999999</ele>
        <time>2019-03-09T09:50:50Z</time>
      </trkpt>
      <trkpt lat="46.446198234334588" lon="11.641079233959317">
        <ele>1952.5699999999999</ele>
        <time>2019-03-09T09:51:07Z</time>
      </trkpt>
      <trkpt lat="46.44618415273726" lon="11.641058195382357">
        <ele>1953.0599999999999</ele>
        <time>2019-03-09T09:51:18Z</time>
      </trkpt>
      <trkpt lat="46.446179039776325" lon="11.641031540930271">
        <ele>1954.98</ele>
        <time>2019-03-09T09:51:32Z</time>
      </trkpt>
      <trkpt lat="46.446245592087507" lon="11.641009664162993">
        <ele>1954.98</ele>
        <time>2019-03-09T09:51:44Z</time>
      </trkpt>
      <trkpt lat="46.446354640647769" lon="11.640987703576684">
        <ele>1954.5</ele>
        <time>2019-03-09T09:51:55Z</time>
      </trkpt>
      <trkpt lat="46.446431586518884" lon="11.640976807102561">
        <ele>1952.5699999999999</ele>
        <time>2019-03-09T09:52:04Z</time>
      </trkpt>
      <trkpt lat="46.446501743048429" lon="11.640936993062496">
        <ele>1952.0899999999999</ele>
        <time>2019-03-09T09:52:12Z</time>
      </trkpt>
      <trkpt lat="46.446609450504184" lon="11.640910757705569">
        <ele>1952.0899999999999</ele>
        <time>2019-03-09T09:52:24Z</time>
      </trkpt>
      <trkpt lat="46.44667717628181" lon="11.640882007777691">
        <ele>1952.5699999999999</ele>
        <time>2019-03-09T09:52:33Z</time>
      </trkpt>
      <trkpt lat="46.446719840168953" lon="11.640824172645807">
        <ele>1951.6099999999999</ele>
        <time>2019-03-09T09:52:40Z</time>
      </trkpt>
      <trkpt lat="46.446779854595661" lon="11.64072216488421">
        <ele>1952.0899999999999</ele>
        <time>2019-03-09T09:52:52Z</time>
      </trkpt>
      <trkpt lat="46.446808436885476" lon="11.640684194862843">
        <ele>1952.0899999999999</ele>
        <time>2019-03-09T09:53:02Z</time>
      </trkpt>
      <trkpt lat="46.446789745241404" lon="11.640664245933294">
        <ele>1952.5699999999999</ele>
        <time>2019-03-09T09:53:15Z</time>
      </trkpt>
      <trkpt lat="46.44681598059833" lon="11.640596184879541">
        <ele>1954.5</ele>
        <time>2019-03-09T09:53:39Z</time>
      </trkpt>
      <trkpt lat="46.446852860972285" lon="11.64061420597136">
        <ele>1954.98</ele>
        <time>2019-03-09T09:54:15Z</time>
      </trkpt>
      <trkpt lat="46.446887226775289" lon="11.640554694458842">
        <ele>1954.5</ele>
        <time>2019-03-09T09:54:27Z</time>
      </trkpt>
      <trkpt lat="46.446897871792316" lon="11.640520244836807">
        <ele>1954.5</ele>
        <time>2019-03-09T09:54:35Z</time>
      </trkpt>
      <trkpt lat="46.446884293109179" lon="11.640383033081889">
        <ele>1954.5</ele>
        <time>2019-03-09T09:54:46Z</time>
      </trkpt>
      <trkpt lat="46.446897117421031" lon="11.640245737507939">
        <ele>1954.5</ele>
        <time>2019-03-09T09:54:56Z</time>
      </trkpt>
      <trkpt lat="46.446898290887475" lon="11.640203911811113">
        <ele>1955.9400000000001</ele>
        <time>2019-03-09T09:55:40Z</time>
      </trkpt>
      <trkpt lat="46.44689904525876" lon="11.640188572928309">
        <ele>1955.46</ele>
        <time>2019-03-09T09:55:51Z</time>
      </trkpt>
      <trkpt lat="46.44690197892487" lon="11.640001991763711">
        <ele>1953.54</ele>
        <time>2019-03-09T10:07:58Z</time>
      </trkpt>
      <trkpt lat="46.446925783529878" lon="11.639961088076234">
        <ele>1954.5</ele>
        <time>2019-03-09T10:08:04Z</time>
      </trkpt>
      <trkpt lat="46.447031814604998" lon="11.639954131096601">
        <ele>1954.98</ele>
        <time>2019-03-09T10:08:16Z</time>
      </trkpt>
      <trkpt lat="46.447043884545565" lon="11.639943569898605">
        <ele>1952.0899999999999</ele>
        <time>2019-03-09T10:09:01Z</time>
      </trkpt>
      <trkpt lat="46.447086799889803" lon="11.639914149418473">
        <ele>1954.98</ele>
        <time>2019-03-09T10:10:08Z</time>
      </trkpt>
      <trkpt lat="46.447164081037045" lon="11.639871066436172">
        <ele>1955.9400000000001</ele>
        <time>2019-03-09T10:10:18Z</time>
      </trkpt>
      <trkpt lat="46.447262987494469" lon="11.63985631428659">
        <ele>1957.8599999999999</ele>
        <time>2019-03-09T10:10:29Z</time>
      </trkpt>
      <trkpt lat="46.447322331368923" lon="11.639875927940011">
        <ele>1958.3399999999999</ele>
        <time>2019-03-09T10:10:37Z</time>
      </trkpt>
      <trkpt lat="46.44736616872251" lon="11.639861343428493">
        <ele>1959.78</ele>
        <time>2019-03-09T10:10:44Z</time>
      </trkpt>
      <trkpt lat="46.447404306381941" lon="11.6397884208709">
        <ele>1961.71</ele>
        <time>2019-03-09T10:10:55Z</time>
      </trkpt>
      <trkpt lat="46.447449484840035" lon="11.639767298474908">
        <ele>1962.1900000000001</ele>
        <time>2019-03-09T10:11:11Z</time>
      </trkpt>
      <trkpt lat="46.44752249121666" lon="11.63967652246356">
        <ele>1962.1900000000001</ele>
        <time>2019-03-09T10:11:23Z</time>
      </trkpt>
      <trkpt lat="46.447597509250045" lon="11.639558169990778">
        <ele>1962.6700000000001</ele>
        <time>2019-03-09T10:11:36Z</time>
      </trkpt>
      <trkpt lat="46.447638832032681" lon="11.639459598809481">
        <ele>1964.1099999999999</ele>
        <time>2019-03-09T10:11:46Z</time>
      </trkpt>
      <trkpt lat="46.447703707963228" lon="11.639353232458234">
        <ele>1964.5899999999999</ele>
        <time>2019-03-09T10:11:59Z</time>
      </trkpt>
      <trkpt lat="46.447728266939521" lon="11.639358680695295">
        <ele>1962.1900000000001</ele>
        <time>2019-03-09T10:12:13Z</time>
      </trkpt>
      <trkpt lat="46.447763554751873" lon="11.639276370406151">
        <ele>1964.1099999999999</ele>
        <time>2019-03-09T10:12:23Z</time>
      </trkpt>
      <trkpt lat="46.447818959131837" lon="11.639159694314003">
        <ele>1966.03</ele>
        <time>2019-03-09T10:12:34Z</time>
      </trkpt>
      <trkpt lat="46.447876207530499" lon="11.639031618833542">
        <ele>1967.96</ele>
        <time>2019-03-09T10:12:45Z</time>
      </trkpt>
      <trkpt lat="46.44793882034719" lon="11.638931287452579">
        <ele>1968.4400000000001</ele>
        <time>2019-03-09T10:12:55Z</time>
      </trkpt>
      <trkpt lat="46.447986513376236" lon="11.638870183378458">
        <ele>1968.9200000000001</ele>
        <time>2019-03-09T10:13:02Z</time>
      </trkpt>
      <trkpt lat="46.448046779260039" lon="11.638761973008513">
        <ele>1970.3599999999999</ele>
        <time>2019-03-09T10:13:13Z</time>
      </trkpt>
      <trkpt lat="46.448110481724143" lon="11.638647643849254">
        <ele>1972.76</ele>
        <time>2019-03-09T10:13:24Z</time>
      </trkpt>
      <trkpt lat="46.448209639638662" lon="11.638573715463281">
        <ele>1972.76</ele>
        <time>2019-03-09T10:13:37Z</time>
      </trkpt>
      <trkpt lat="46.448310306295753" lon="11.638515377417207">
        <ele>1973.24</ele>
        <time>2019-03-09T10:13:48Z</time>
      </trkpt>
      <trkpt lat="46.448390772566199" lon="11.638452680781484">
        <ele>1975.1700000000001</ele>
        <time>2019-03-09T10:14:00Z</time>
      </trkpt>
      <trkpt lat="46.448473418131471" lon="11.638375734910369">
        <ele>1976.1300000000001</ele>
        <time>2019-03-09T10:14:12Z</time>
      </trkpt>
      <trkpt lat="46.448562350124121" lon="11.638295687735081">
        <ele>1978.53</ele>
        <time>2019-03-09T10:14:24Z</time>
      </trkpt>
      <trkpt lat="46.448636529967189" lon="11.638224693015218">
        <ele>1980.45</ele>
        <time>2019-03-09T10:14:37Z</time>
      </trkpt>
      <trkpt lat="46.448650946840644" lon="11.638208096846938">
        <ele>1981.4100000000001</ele>
        <time>2019-03-09T10:14:46Z</time>
      </trkpt>
      <trkpt lat="46.448650946840644" lon="11.63821111433208">
        <ele>1981.9000000000001</ele>
        <time>2019-03-09T10:14:53Z</time>
      </trkpt>
      <trkpt lat="46.448667794466019" lon="11.638192171230912">
        <ele>1982.3800000000001</ele>
        <time>2019-03-09T10:14:56Z</time>
      </trkpt>
      <trkpt lat="46.448751697316766" lon="11.638093432411551">
        <ele>1984.3</ele>
        <time>2019-03-09T10:15:09Z</time>
      </trkpt>
      <trkpt lat="46.448814477771521" lon="11.638019755482674">
        <ele>1985.26</ele>
        <time>2019-03-09T10:15:20Z</time>
      </trkpt>
      <trkpt lat="46.448875498026609" lon="11.637944737449288">
        <ele>1986.22</ele>
        <time>2019-03-09T10:15:31Z</time>
      </trkpt>
      <trkpt lat="46.448935847729445" lon="11.637854967266321">
        <ele>1985.74</ele>
        <time>2019-03-09T10:15:44Z</time>
      </trkpt>
      <trkpt lat="46.448958059772849" lon="11.63776989094913">
        <ele>1987.1800000000001</ele>
        <time>2019-03-09T10:15:55Z</time>
      </trkpt>
      <trkpt lat="46.448975075036287" lon="11.63769805803895">
        <ele>1989.0999999999999</ele>
        <time>2019-03-09T10:16:05Z</time>
      </trkpt>
      <trkpt lat="46.448982451111078" lon="11.637634858489037">
        <ele>1990.0699999999999</ele>
        <time>2019-03-09T10:16:14Z</time>
      </trkpt>
      <trkpt lat="46.448988486081362" lon="11.637551207095385">
        <ele>1993.4300000000001</ele>
        <time>2019-03-09T10:16:29Z</time>
      </trkpt>
      <trkpt lat="46.44900013692677" lon="11.637434614822268">
        <ele>1995.8299999999999</ele>
        <time>2019-03-09T10:16:45Z</time>
      </trkpt>
      <trkpt lat="46.448977505788207" lon="11.637338390573859">
        <ele>1995.3499999999999</ele>
        <time>2019-03-09T10:16:57Z</time>
      </trkpt>
      <trkpt lat="46.448952862992883" lon="11.637244848534465">
        <ele>1996.3199999999999</ele>
        <time>2019-03-09T10:17:10Z</time>
      </trkpt>
      <trkpt lat="46.448906008154154" lon="11.637185588479042">
        <ele>1998.24</ele>
        <time>2019-03-09T10:17:21Z</time>
      </trkpt>
      <trkpt lat="46.448892932385206" lon="11.63711266592145">
        <ele>1997.76</ele>
        <time>2019-03-09T10:17:33Z</time>
      </trkpt>
      <trkpt lat="46.448978595435619" lon="11.637073773890734">
        <ele>1998.72</ele>
        <time>2019-03-09T10:17:46Z</time>
      </trkpt>
      <trkpt lat="46.449078591540456" lon="11.637072013691068">
        <ele>2000.6400000000001</ele>
        <time>2019-03-09T10:17:58Z</time>
      </trkpt>
      <trkpt lat="46.449173223227262" lon="11.637080982327461">
        <ele>2002.5599999999999</ele>
        <time>2019-03-09T10:18:09Z</time>
      </trkpt>
      <trkpt lat="46.449249414727092" lon="11.637102020904422">
        <ele>2004.49</ele>
        <time>2019-03-09T10:18:19Z</time>
      </trkpt>
      <trkpt lat="46.449292581528425" lon="11.637164382264018">
        <ele>2004.49</ele>
        <time>2019-03-09T10:18:29Z</time>
      </trkpt>
      <trkpt lat="46.449315212666988" lon="11.637256164103746">
        <ele>2005.9300000000001</ele>
        <time>2019-03-09T10:18:39Z</time>
      </trkpt>
      <trkpt lat="46.449304148554802" lon="11.637354400008917">
        <ele>2007.3699999999999</ele>
        <time>2019-03-09T10:18:49Z</time>
      </trkpt>
      <trkpt lat="46.449324265122414" lon="11.63743763230741">
        <ele>2009.29</ele>
        <time>2019-03-09T10:19:00Z</time>
      </trkpt>
      <trkpt lat="46.449354775249958" lon="11.63746939972043">
        <ele>2012.1800000000001</ele>
        <time>2019-03-09T10:19:13Z</time>
      </trkpt>
      <trkpt lat="46.449393918737769" lon="11.637425813823938">
        <ele>2014.0999999999999</ele>
        <time>2019-03-09T10:19:25Z</time>
      </trkpt>
      <trkpt lat="46.449412861838937" lon="11.637358507141471">
        <ele>2016.98</ele>
        <time>2019-03-09T10:19:38Z</time>
      </trkpt>
      <trkpt lat="46.449486706405878" lon="11.637301342561841">
        <ele>2018.9100000000001</ele>
        <time>2019-03-09T10:19:52Z</time>
      </trkpt>
      <trkpt lat="46.449549905955791" lon="11.637246776372194">
        <ele>2021.3099999999999</ele>
        <time>2019-03-09T10:20:04Z</time>
      </trkpt>
      <trkpt lat="46.449586786329746" lon="11.637271838262677">
        <ele>2023.71</ele>
        <time>2019-03-09T10:20:16Z</time>
      </trkpt>
      <trkpt lat="46.449671443551779" lon="11.637218864634633">
        <ele>2025.1500000000001</ele>
        <time>2019-03-09T10:20:28Z</time>
      </trkpt>
      <trkpt lat="46.449720226228237" lon="11.637158431112766">
        <ele>2026.1199999999999</ele>
        <time>2019-03-09T10:20:41Z</time>
      </trkpt>
      <trkpt lat="46.44978828728199" lon="11.637104619294405">
        <ele>2027.0799999999999</ele>
        <time>2019-03-09T10:20:52Z</time>
      </trkpt>
      <trkpt lat="46.449881074950099" lon="11.637058267369866">
        <ele>2029.96</ele>
        <time>2019-03-09T10:21:04Z</time>
      </trkpt>
      <trkpt lat="46.44988551735878" lon="11.637029936537147">
        <ele>2031.4000000000001</ele>
        <time>2019-03-09T10:21:13Z</time>
      </trkpt>
      <trkpt lat="46.449955673888326" lon="11.637009233236313">
        <ele>2032.8399999999999</ele>
        <time>2019-03-09T10:21:25Z</time>
      </trkpt>
      <trkpt lat="46.450030859559774" lon="11.637011999264359">
        <ele>2034.29</ele>
        <time>2019-03-09T10:21:36Z</time>
      </trkpt>
      <trkpt lat="46.450150804594159" lon="11.636972269043326">
        <ele>2033.3299999999999</ele>
        <time>2019-03-09T10:21:46Z</time>
      </trkpt>
      <trkpt lat="46.450264379382133" lon="11.636922396719456">
        <ele>2032.8399999999999</ele>
        <time>2019-03-09T10:21:58Z</time>
      </trkpt>
      <trkpt lat="46.450338810682297" lon="11.636897502467036">
        <ele>2033.8099999999999</ele>
        <time>2019-03-09T10:22:08Z</time>
      </trkpt>
      <trkpt lat="46.450405698269606" lon="11.636872021481395">
        <ele>2036.21</ele>
        <time>2019-03-09T10:22:20Z</time>
      </trkpt>
      <trkpt lat="46.450479794293642" lon="11.636788370087743">
        <ele>2036.6900000000001</ele>
        <time>2019-03-09T10:22:31Z</time>
      </trkpt>
      <trkpt lat="46.450565038248897" lon="11.636748807504773">
        <ele>2038.1300000000001</ele>
        <time>2019-03-09T10:22:42Z</time>
      </trkpt>
      <trkpt lat="46.450665704905987" lon="11.636693151667714">
        <ele>2040.54</ele>
        <time>2019-03-09T10:22:56Z</time>
      </trkpt>
      <trkpt lat="46.45069076679647" lon="11.636688373982906">
        <ele>2041.02</ele>
        <time>2019-03-09T10:23:00Z</time>
      </trkpt>
      <trkpt lat="46.450752960518003" lon="11.63657077588141">
        <ele>2042.46</ele>
        <time>2019-03-09T10:23:12Z</time>
      </trkpt>
      <trkpt lat="46.450816495344043" lon="11.636492991819978">
        <ele>2043.9000000000001</ele>
        <time>2019-03-09T10:23:24Z</time>
      </trkpt>
      <trkpt lat="46.450921017676592" lon="11.636451920494437">
        <ele>2045.3399999999999</ele>
        <time>2019-03-09T10:23:37Z</time>
      </trkpt>
      <trkpt lat="46.451038029044867" lon="11.636415207758546">
        <ele>2045.3399999999999</ele>
        <time>2019-03-09T10:23:50Z</time>
      </trkpt>
      <trkpt lat="46.451104413717985" lon="11.636351086199284">
        <ele>2045.8199999999999</ele>
        <time>2019-03-09T10:23:59Z</time>
      </trkpt>
      <trkpt lat="46.451210444793105" lon="11.636252766475081">
        <ele>2045.8199999999999</ele>
        <time>2019-03-09T10:24:12Z</time>
      </trkpt>
      <trkpt lat="46.451282361522317" lon="11.636238433420658">
        <ele>2046.3</ele>
        <time>2019-03-09T10:24:22Z</time>
      </trkpt>
      <trkpt lat="46.451283115893602" lon="11.636282689869404">
        <ele>2046.3</ele>
        <time>2019-03-09T10:24:33Z</time>
      </trkpt>
      <trkpt lat="46.451265094801784" lon="11.636279169470072">
        <ele>2046.3</ele>
        <time>2019-03-09T10:24:50Z</time>
      </trkpt>
      <trkpt lat="46.451271129772067" lon="11.636232901364565">
        <ele>2046.78</ele>
        <time>2019-03-09T10:25:06Z</time>
      </trkpt>
      <trkpt lat="46.451312871649861" lon="11.636161571368575">
        <ele>2047.26</ele>
        <time>2019-03-09T10:25:11Z</time>
      </trkpt>
      <trkpt lat="46.451355703175068" lon="11.636164337396622">
        <ele>2047.26</ele>
        <time>2019-03-09T10:25:13Z</time>
      </trkpt>
      <trkpt lat="46.451373808085918" lon="11.636179760098457">
        <ele>2047.26</ele>
        <time>2019-03-09T10:25:14Z</time>
      </trkpt>
      <trkpt lat="46.451282864436507" lon="11.636211359873414">
        <ele>2047.75</ele>
        <time>2019-03-09T10:25:25Z</time>
      </trkpt>
      <trkpt lat="46.451219832524657" lon="11.636196859180927">
        <ele>2048.71</ele>
        <time>2019-03-09T10:25:36Z</time>
      </trkpt>
      <trkpt lat="46.451237937435508" lon="11.636217394843698">
        <ele>2047.26</ele>
        <time>2019-03-09T10:25:39Z</time>
      </trkpt>
      <trkpt lat="46.451278254389763" lon="11.636225692927837">
        <ele>2043.9000000000001</ele>
        <time>2019-03-09T10:25:48Z</time>
      </trkpt>
      <trkpt lat="46.451248163357377" lon="11.636266093701124">
        <ele>2044.8599999999999</ele>
        <time>2019-03-09T10:26:16Z</time>
      </trkpt>
      <trkpt lat="46.451212037354708" lon="11.636251341551542">
        <ele>2045.8199999999999</ele>
        <time>2019-03-09T10:26:37Z</time>
      </trkpt>
      <trkpt lat="46.451201979070902" lon="11.636262657120824">
        <ele>2046.3</ele>
        <time>2019-03-09T10:27:00Z</time>
      </trkpt>
      <trkpt lat="46.451211785897613" lon="11.636214209720492">
        <ele>2046.78</ele>
        <time>2019-03-09T10:27:09Z</time>
      </trkpt>
      <trkpt lat="46.451237015426159" lon="11.636214125901461">
        <ele>2050.1500000000001</ele>
        <time>2019-03-09T10:27:12Z</time>
      </trkpt>
      <trkpt lat="46.451235339045525" lon="11.636219406500459">
        <ele>2050.1500000000001</ele>
        <time>2019-03-09T10:27:13Z</time>
      </trkpt>
      <trkpt lat="46.451241625472903" lon="11.636214125901461">
        <ele>2052.5500000000002</ele>
        <time>2019-03-09T10:27:16Z</time>
      </trkpt>
      <trkpt lat="46.451298203319311" lon="11.636174814775586">
        <ele>2052.5500000000002</ele>
        <time>2019-03-09T10:27:29Z</time>
      </trkpt>
      <trkpt lat="46.451352937147021" lon="11.636188225820661">
        <ele>2053.0300000000002</ele>
        <time>2019-03-09T10:27:39Z</time>
      </trkpt>
      <trkpt lat="46.451358469203115" lon="11.636174479499459">
        <ele>2052.5500000000002</ele>
        <time>2019-03-09T10:27:44Z</time>
      </trkpt>
      <trkpt lat="46.451475815847516" lon="11.636088229715824">
        <ele>2052.5500000000002</ele>
        <time>2019-03-09T10:27:54Z</time>
      </trkpt>
      <trkpt lat="46.451510181650519" lon="11.636049002408981">
        <ele>2052.0700000000002</ele>
        <time>2019-03-09T10:28:05Z</time>
      </trkpt>
      <trkpt lat="46.451540356501937" lon="11.636014804244041">
        <ele>2052.0700000000002</ele>
        <time>2019-03-09T10:28:10Z</time>
      </trkpt>
      <trkpt lat="46.451547564938664" lon="11.636005500331521">
        <ele>2052.0700000000002</ele>
        <time>2019-03-09T10:28:11Z</time>
      </trkpt>
      <trkpt lat="46.451617302373052" lon="11.635911455377936">
        <ele>2052.0700000000002</ele>
        <time>2019-03-09T10:28:21Z</time>
      </trkpt>
      <trkpt lat="46.451706569641829" lon="11.635801903903484">
        <ele>2053.0300000000002</ele>
        <time>2019-03-09T10:28:33Z</time>
      </trkpt>
      <trkpt lat="46.451797010377049" lon="11.635715235024691">
        <ele>2053.0300000000002</ele>
        <time>2019-03-09T10:28:44Z</time>
      </trkpt>
      <trkpt lat="46.451881499961019" lon="11.63561699911952">
        <ele>2053.5100000000002</ele>
        <time>2019-03-09T10:28:55Z</time>
      </trkpt>
      <trkpt lat="46.451942101120949" lon="11.635523457080126">
        <ele>2053.9899999999998</ele>
        <time>2019-03-09T10:29:05Z</time>
      </trkpt>
      <trkpt lat="46.452020723372698" lon="11.635400326922536">
        <ele>2054.4699999999998</ele>
        <time>2019-03-09T10:29:18Z</time>
      </trkpt>
      <trkpt lat="46.452032793313265" lon="11.635365961119533">
        <ele>2051.5900000000001</ele>
        <time>2019-03-09T10:29:21Z</time>
      </trkpt>
      <trkpt lat="46.452085180208087" lon="11.635363530367613">
        <ele>2052.5500000000002</ele>
        <time>2019-03-09T10:29:26Z</time>
      </trkpt>
      <trkpt lat="46.452190708369017" lon="11.635204944759607">
        <ele>2052.0700000000002</ele>
        <time>2019-03-09T10:29:39Z</time>
      </trkpt>
      <trkpt lat="46.452274024486542" lon="11.63508340716362">
        <ele>2052.0700000000002</ele>
        <time>2019-03-09T10:29:52Z</time>
      </trkpt>
      <trkpt lat="46.452283160760999" lon="11.635073432698846">
        <ele>2051.5900000000001</ele>
        <time>2019-03-09T10:29:53Z</time>
      </trkpt>
      <trkpt lat="46.45228810608387" lon="11.63506094366312">
        <ele>2051.5900000000001</ele>
        <time>2019-03-09T10:29:54Z</time>
      </trkpt>
      <trkpt lat="46.452359603717923" lon="11.63495197892189">
        <ele>2051.5900000000001</ele>
        <time>2019-03-09T10:30:05Z</time>
      </trkpt>
      <trkpt lat="46.452433113008738" lon="11.634841170161963">
        <ele>2052.5500000000002</ele>
        <time>2019-03-09T10:30:15Z</time>
      </trkpt>
      <trkpt lat="46.452492540702224" lon="11.634747879579663">
        <ele>2053.5100000000002</ele>
        <time>2019-03-09T10:30:25Z</time>
      </trkpt>
      <trkpt lat="46.452550962567329" lon="11.63465341553092">
        <ele>2053.9899999999998</ele>
        <time>2019-03-09T10:30:34Z</time>
      </trkpt>
      <trkpt lat="46.452628830447793" lon="11.634548725560308">
        <ele>2056.4000000000001</ele>
        <time>2019-03-09T10:30:46Z</time>
      </trkpt>
      <trkpt lat="46.452695466578007" lon="11.634444119408727">
        <ele>2057.8400000000001</ele>
        <time>2019-03-09T10:30:58Z</time>
      </trkpt>
      <trkpt lat="46.452779369428754" lon="11.634359126910567">
        <ele>2058.8000000000002</ele>
        <time>2019-03-09T10:31:10Z</time>
      </trkpt>
      <trkpt lat="46.452854555100203" lon="11.634273463860154">
        <ele>2060.2399999999998</ele>
        <time>2019-03-09T10:31:22Z</time>
      </trkpt>
      <trkpt lat="46.452919179573655" lon="11.634224681183696">
        <ele>2061.1999999999998</ele>
        <time>2019-03-09T10:31:33Z</time>
      </trkpt>
      <trkpt lat="46.452982546761632" lon="11.634182939305902">
        <ele>2062.1700000000001</ele>
        <time>2019-03-09T10:31:43Z</time>
      </trkpt>
      <trkpt lat="46.453078268095851" lon="11.634130217134953">
        <ele>2063.6100000000001</ele>
        <time>2019-03-09T10:31:54Z</time>
      </trkpt>
      <trkpt lat="46.453171139582992" lon="11.634091744199395">
        <ele>2064.5700000000002</ele>
        <time>2019-03-09T10:32:06Z</time>
      </trkpt>
      <trkpt lat="46.453242301940918" lon="11.634047739207745">
        <ele>2065.5300000000002</ele>
        <time>2019-03-09T10:32:16Z</time>
      </trkpt>
      <trkpt lat="46.453328635543585" lon="11.633999543264508">
        <ele>2066.4899999999998</ele>
        <time>2019-03-09T10:32:28Z</time>
      </trkpt>
      <trkpt lat="46.453378424048424" lon="11.633987724781036">
        <ele>2067.4499999999998</ele>
        <time>2019-03-09T10:32:39Z</time>
      </trkpt>
      <trkpt lat="46.453313631936908" lon="11.633959813043475">
        <ele>2070.8200000000002</ele>
        <time>2019-03-09T10:32:55Z</time>
      </trkpt>
      <trkpt lat="46.453348752111197" lon="11.633979426696897">
        <ele>2067.4499999999998</ele>
        <time>2019-03-09T10:32:58Z</time>
      </trkpt>
      <trkpt lat="46.453355625271797" lon="11.633995268493891">
        <ele>2066.9699999999998</ele>
        <time>2019-03-09T10:32:59Z</time>
      </trkpt>
      <trkpt lat="46.453391164541245" lon="11.633986886590719">
        <ele>2070.3400000000001</ele>
        <time>2019-03-09T10:33:06Z</time>
      </trkpt>
      <trkpt lat="46.453414466232061" lon="11.633943552151322">
        <ele>2072.2600000000002</ele>
        <time>2019-03-09T10:33:11Z</time>
      </trkpt>
      <trkpt lat="46.453521167859435" lon="11.633882783353329">
        <ele>2072.7399999999998</ele>
        <time>2019-03-09T10:33:21Z</time>
      </trkpt>
      <trkpt lat="46.453615548089147" lon="11.633833413943648">
        <ele>2073.2199999999998</ele>
        <time>2019-03-09T10:33:32Z</time>
      </trkpt>
      <trkpt lat="46.453708671033382" lon="11.633785301819444">
        <ele>2073.6999999999998</ele>
        <time>2019-03-09T10:33:42Z</time>
      </trkpt>
      <trkpt lat="46.453791651874781" lon="11.633760407567024">
        <ele>2074.6599999999999</ele>
        <time>2019-03-09T10:33:52Z</time>
      </trkpt>
      <trkpt lat="46.453881002962589" lon="11.6337357647717">
        <ele>2076.0999999999999</ele>
        <time>2019-03-09T10:34:02Z</time>
      </trkpt>
      <trkpt lat="46.453993152827024" lon="11.63369913585484">
        <ele>2078.0300000000002</ele>
        <time>2019-03-09T10:34:14Z</time>
      </trkpt>
      <trkpt lat="46.454033805057406" lon="11.633685389533639">
        <ele>2078.9899999999998</ele>
        <time>2019-03-09T10:34:19Z</time>
      </trkpt>
      <trkpt lat="46.454131538048387" lon="11.633680528029799">
        <ele>2079.4699999999998</ele>
        <time>2019-03-09T10:34:32Z</time>
      </trkpt>
      <trkpt lat="46.454218793660402" lon="11.633673738688231">
        <ele>2079.4699999999998</ele>
        <time>2019-03-09T10:34:42Z</time>
      </trkpt>
      <trkpt lat="46.45432616584003" lon="11.63373869843781">
        <ele>2079.4699999999998</ele>
        <time>2019-03-09T10:34:54Z</time>
      </trkpt>
      <trkpt lat="46.454402692615986" lon="11.633729813620448">
        <ele>2080.4299999999998</ele>
        <time>2019-03-09T10:35:04Z</time>
      </trkpt>
      <trkpt lat="46.454439572989941" lon="11.633722437545657">
        <ele>2080.9099999999999</ele>
        <time>2019-03-09T10:35:09Z</time>
      </trkpt>
      <trkpt lat="46.454539652913809" lon="11.633716821670532">
        <ele>2082.3499999999999</ele>
        <time>2019-03-09T10:35:21Z</time>
      </trkpt>
      <trkpt lat="46.454606708139181" lon="11.633685221895576">
        <ele>2083.79</ele>
        <time>2019-03-09T10:35:30Z</time>
      </trkpt>
      <trkpt lat="46.454704105854034" lon="11.633644150570035">
        <ele>2085.7199999999998</ele>
        <time>2019-03-09T10:35:44Z</time>
      </trkpt>
      <trkpt lat="46.454792870208621" lon="11.633623028174043">
        <ele>2086.1999999999998</ele>
        <time>2019-03-09T10:35:55Z</time>
      </trkpt>
      <trkpt lat="46.454874593764544" lon="11.633609449490905">
        <ele>2088.1199999999999</ele>
        <time>2019-03-09T10:36:05Z</time>
      </trkpt>
      <trkpt lat="46.454960843548179" lon="11.633617077022791">
        <ele>2089.5599999999999</ele>
        <time>2019-03-09T10:36:16Z</time>
      </trkpt>
      <trkpt lat="46.45504642277956" lon="11.633617244660854">
        <ele>2090.52</ele>
        <time>2019-03-09T10:36:29Z</time>
      </trkpt>
      <trkpt lat="46.455115573480725" lon="11.633618082851171">
        <ele>2091</ele>
        <time>2019-03-09T10:36:39Z</time>
      </trkpt>
      <trkpt lat="46.455166535452008" lon="11.633565276861191">
        <ele>2108.3099999999999</ele>
        <time>2019-03-09T10:39:31Z</time>
      </trkpt>
      <trkpt lat="46.455185478553176" lon="11.633524708449841">
        <ele>2110.71</ele>
        <time>2019-03-09T10:39:42Z</time>
      </trkpt>
      <trkpt lat="46.455303244292736" lon="11.63354373537004">
        <ele>2111.6700000000001</ele>
        <time>2019-03-09T10:39:53Z</time>
      </trkpt>
      <trkpt lat="46.455388069152832" lon="11.633512387052178">
        <ele>2111.1900000000001</ele>
        <time>2019-03-09T10:40:04Z</time>
      </trkpt>
      <trkpt lat="46.455441797152162" lon="11.633478021249175">
        <ele>2111.1900000000001</ele>
        <time>2019-03-09T10:40:13Z</time>
      </trkpt>
      <trkpt lat="46.455510864034295" lon="11.633446756750345">
        <ele>2110.71</ele>
        <time>2019-03-09T10:40:22Z</time>
      </trkpt>
      <trkpt lat="46.455574817955494" lon="11.633401243016124">
        <ele>2110.71</ele>
        <time>2019-03-09T10:40:33Z</time>
      </trkpt>
      <trkpt lat="46.455640951171517" lon="11.633346928283572">
        <ele>2111.6700000000001</ele>
        <time>2019-03-09T10:40:44Z</time>
      </trkpt>
      <trkpt lat="46.455724602565169" lon="11.633313484489918">
        <ele>2114.0799999999999</ele>
        <time>2019-03-09T10:40:56Z</time>
      </trkpt>
      <trkpt lat="46.455805487930775" lon="11.633326392620802">
        <ele>2115.04</ele>
        <time>2019-03-09T10:41:06Z</time>
      </trkpt>
      <trkpt lat="46.455861562862992" lon="11.633324967697263">
        <ele>2116.96</ele>
        <time>2019-03-09T10:41:15Z</time>
      </trkpt>
      <trkpt lat="46.455954099074006" lon="11.633290098980069">
        <ele>2117.9200000000001</ele>
        <time>2019-03-09T10:41:28Z</time>
      </trkpt>
      <trkpt lat="46.456045713275671" lon="11.633234107866883">
        <ele>2116.96</ele>
        <time>2019-03-09T10:41:41Z</time>
      </trkpt>
      <trkpt lat="46.456139925867319" lon="11.633176524192095">
        <ele>2116.96</ele>
        <time>2019-03-09T10:41:53Z</time>
      </trkpt>
      <trkpt lat="46.456198515370488" lon="11.633132435381413">
        <ele>2118.4000000000001</ele>
        <time>2019-03-09T10:42:04Z</time>
      </trkpt>
      <trkpt lat="46.456180159002542" lon="11.633115001022816">
        <ele>2120.3200000000002</ele>
        <time>2019-03-09T10:42:16Z</time>
      </trkpt>
      <trkpt lat="46.456220392137766" lon="11.633082563057542">
        <ele>2121.29</ele>
        <time>2019-03-09T10:42:31Z</time>
      </trkpt>
      <trkpt lat="46.456225756555796" lon="11.633077953010798">
        <ele>2120.8099999999999</ele>
        <time>2019-03-09T10:42:39Z</time>
      </trkpt>
      <trkpt lat="46.456272946670651" lon="11.633010562509298">
        <ele>2121.77</ele>
        <time>2019-03-09T10:42:48Z</time>
      </trkpt>
      <trkpt lat="46.456330362707376" lon="11.632934035733342">
        <ele>2123.21</ele>
        <time>2019-03-09T10:43:02Z</time>
      </trkpt>
      <trkpt lat="46.456307899206877" lon="11.632922720164061">
        <ele>2123.21</ele>
        <time>2019-03-09T10:43:13Z</time>
      </trkpt>
      <trkpt lat="46.456295493990183" lon="11.632878379896283">
        <ele>2123.21</ele>
        <time>2019-03-09T10:43:25Z</time>
      </trkpt>
      <trkpt lat="46.456292392686009" lon="11.632785173133016">
        <ele>2125.1300000000001</ele>
        <time>2019-03-09T10:43:35Z</time>
      </trkpt>
      <trkpt lat="46.456326590850949" lon="11.632694900035858">
        <ele>2127.5300000000002</ele>
        <time>2019-03-09T10:43:48Z</time>
      </trkpt>
      <trkpt lat="46.456360705196857" lon="11.632586773484945">
        <ele>2130.4200000000001</ele>
        <time>2019-03-09T10:44:02Z</time>
      </trkpt>
      <trkpt lat="46.456385012716055" lon="11.632478144019842">
        <ele>2133.3000000000002</ele>
        <time>2019-03-09T10:44:15Z</time>
      </trkpt>
      <trkpt lat="46.456463718786836" lon="11.632433636114001">
        <ele>2134.2600000000002</ele>
        <time>2019-03-09T10:44:26Z</time>
      </trkpt>
      <trkpt lat="46.456522643566132" lon="11.632371442392468">
        <ele>2136.1900000000001</ele>
        <time>2019-03-09T10:44:38Z</time>
      </trkpt>
      <trkpt lat="46.456522643566132" lon="11.632274631410837">
        <ele>2136.6700000000001</ele>
        <time>2019-03-09T10:44:48Z</time>
      </trkpt>
      <trkpt lat="46.456544352695346" lon="11.63221713155508">
        <ele>2138.1100000000001</ele>
        <time>2019-03-09T10:44:57Z</time>
      </trkpt>
      <trkpt lat="46.456570839509368" lon="11.632156362757087">
        <ele>2140.9899999999998</ele>
        <time>2019-03-09T10:45:09Z</time>
      </trkpt>
      <trkpt lat="46.456588860601187" lon="11.632133731618524">
        <ele>2142.9200000000001</ele>
        <time>2019-03-09T10:45:18Z</time>
      </trkpt>
      <trkpt lat="46.456595901399851" lon="11.632099617272615">
        <ele>2144.3600000000001</ele>
        <time>2019-03-09T10:45:23Z</time>
      </trkpt>
      <trkpt lat="46.45660855807364" lon="11.631992748007178">
        <ele>2147.2399999999998</ele>
        <time>2019-03-09T10:45:39Z</time>
      </trkpt>
      <trkpt lat="46.456605205312371" lon="11.63199769333005">
        <ele>2148.1999999999998</ele>
        <time>2019-03-09T10:45:51Z</time>
      </trkpt>
      <trkpt lat="46.45661442540586" lon="11.631941115483642">
        <ele>2149.1599999999999</ele>
        <time>2019-03-09T10:46:00Z</time>
      </trkpt>
      <trkpt lat="46.456655245274305" lon="11.631869534030557">
        <ele>2150.6100000000001</ele>
        <time>2019-03-09T10:46:10Z</time>
      </trkpt>
      <trkpt lat="46.456690700724721" lon="11.631794683635235">
        <ele>2152.5300000000002</ele>
        <time>2019-03-09T10:46:20Z</time>
      </trkpt>
      <trkpt lat="46.456741746515036" lon="11.631720419973135">
        <ele>2154.9299999999998</ele>
        <time>2019-03-09T10:46:33Z</time>
      </trkpt>
      <trkpt lat="46.456752475351095" lon="11.631711618974805">
        <ele>2154.9299999999998</ele>
        <time>2019-03-09T10:46:34Z</time>
      </trkpt>
      <trkpt lat="46.45675465464592" lon="11.631646240130067">
        <ele>2158.3000000000002</ele>
        <time>2019-03-09T10:46:47Z</time>
      </trkpt>
      <trkpt lat="46.45678885281086" lon="11.631592763587832">
        <ele>2159.2600000000002</ele>
        <time>2019-03-09T10:46:57Z</time>
      </trkpt>
      <trkpt lat="46.456810981035233" lon="11.63158630952239">
        <ele>2158.7800000000002</ele>
        <time>2019-03-09T10:47:16Z</time>
      </trkpt>
      <trkpt lat="46.456794384866953" lon="11.631530234590173">
        <ele>2159.7399999999998</ele>
        <time>2019-03-09T10:47:32Z</time>
      </trkpt>
      <trkpt lat="46.456775944679976" lon="11.631452031433582">
        <ele>2161.6599999999999</ele>
        <time>2019-03-09T10:47:44Z</time>
      </trkpt>
      <trkpt lat="46.456802766770124" lon="11.631378019228578">
        <ele>2163.0999999999999</ele>
        <time>2019-03-09T10:47:56Z</time>
      </trkpt>
      <trkpt lat="46.45682405680418" lon="11.63128824904561">
        <ele>2165.0300000000002</ele>
        <time>2019-03-09T10:48:09Z</time>
      </trkpt>
      <trkpt lat="46.45685775205493" lon="11.631217086687684">
        <ele>2166.9499999999998</ele>
        <time>2019-03-09T10:48:19Z</time>
      </trkpt>
      <trkpt lat="46.456902846693993" lon="11.631169309839606">
        <ele>2167.4299999999998</ele>
        <time>2019-03-09T10:48:29Z</time>
      </trkpt>
      <trkpt lat="46.456955904141068" lon="11.631129579618573">
        <ele>2169.8299999999999</ele>
        <time>2019-03-09T10:48:41Z</time>
      </trkpt>
      <trkpt lat="46.45697551779449" lon="11.631101332604885">
        <ele>2172.7199999999998</ele>
        <time>2019-03-09T10:48:51Z</time>
      </trkpt>
      <trkpt lat="46.456973673775792" lon="11.631005946546793">
        <ele>2174.6399999999999</ele>
        <time>2019-03-09T10:49:04Z</time>
      </trkpt>
      <trkpt lat="46.457035196945071" lon="11.630991362035275">
        <ele>2175.5999999999999</ele>
        <time>2019-03-09T10:49:14Z</time>
      </trkpt>
      <trkpt lat="46.457059420645237" lon="11.6309227142483">
        <ele>2177.52</ele>
        <time>2019-03-09T10:49:28Z</time>
      </trkpt>
      <trkpt lat="46.457074340432882" lon="11.63088558241725">
        <ele>2179.4499999999998</ele>
        <time>2019-03-09T10:49:38Z</time>
      </trkpt>
      <trkpt lat="46.457124296575785" lon="11.630841745063663">
        <ele>2180.8899999999999</ele>
        <time>2019-03-09T10:49:49Z</time>
      </trkpt>
      <trkpt lat="46.457180539146066" lon="11.630832022055984">
        <ele>2182.3299999999999</ele>
        <time>2019-03-09T10:50:01Z</time>
      </trkpt>
      <trkpt lat="46.457204259932041" lon="11.630831686779857">
        <ele>2183.29</ele>
        <time>2019-03-09T10:50:06Z</time>
      </trkpt>
      <trkpt lat="46.457234853878617" lon="11.630958085879683">
        <ele>2186.1799999999998</ele>
        <time>2019-03-09T10:50:18Z</time>
      </trkpt>
      <trkpt lat="46.457238961011171" lon="11.630972921848297">
        <ele>2186.6599999999999</ele>
        <time>2019-03-09T10:50:19Z</time>
      </trkpt>
      <trkpt lat="46.457243738695979" lon="11.631073588505387">
        <ele>2190.02</ele>
        <time>2019-03-09T10:50:26Z</time>
      </trkpt>
      <trkpt lat="46.45724767819047" lon="11.63116411305964">
        <ele>2191.46</ele>
        <time>2019-03-09T10:50:38Z</time>
      </trkpt>
      <trkpt lat="46.457294533029199" lon="11.631184229627252">
        <ele>2191.9400000000001</ele>
        <time>2019-03-09T10:50:48Z</time>
      </trkpt>
      <trkpt lat="46.457353457808495" lon="11.631196802482009">
        <ele>2192.9000000000001</ele>
        <time>2019-03-09T10:51:02Z</time>
      </trkpt>
      <trkpt lat="46.457368629053235" lon="11.631197640672326">
        <ele>2195.79</ele>
        <time>2019-03-09T10:51:07Z</time>
      </trkpt>
      <trkpt lat="46.457349015399814" lon="11.631193952634931">
        <ele>2198.1900000000001</ele>
        <time>2019-03-09T10:51:13Z</time>
      </trkpt>
      <trkpt lat="46.457381034269929" lon="11.631188085302711">
        <ele>2198.1900000000001</ele>
        <time>2019-03-09T10:51:23Z</time>
      </trkpt>
      <trkpt lat="46.457448089495301" lon="11.63117241114378">
        <ele>2200.1100000000001</ele>
        <time>2019-03-09T10:51:34Z</time>
      </trkpt>
      <trkpt lat="46.457537356764078" lon="11.631157491356134">
        <ele>2201.5599999999999</ele>
        <time>2019-03-09T10:51:46Z</time>
      </trkpt>
      <trkpt lat="46.45760097540915" lon="11.631195964291692">
        <ele>2202.52</ele>
        <time>2019-03-09T10:51:59Z</time>
      </trkpt>
      <trkpt lat="46.457644812762737" lon="11.631233347579837">
        <ele>2206.3600000000001</ele>
        <time>2019-03-09T10:52:05Z</time>
      </trkpt>
      <trkpt lat="46.457693595439196" lon="11.631323620676994">
        <ele>2208.77</ele>
        <time>2019-03-09T10:52:15Z</time>
      </trkpt>
      <trkpt lat="46.457724357023835" lon="11.631308952346444">
        <ele>2209.73</ele>
        <time>2019-03-09T10:52:25Z</time>
      </trkpt>
      <trkpt lat="46.457785796374083" lon="11.631308365613222">
        <ele>2210.21</ele>
        <time>2019-03-09T10:52:36Z</time>
      </trkpt>
      <trkpt lat="46.457870369777083" lon="11.631302163004875">
        <ele>2208.77</ele>
        <time>2019-03-09T10:52:49Z</time>
      </trkpt>
      <trkpt lat="46.457888390868902" lon="11.631275760009885">
        <ele>2206.8400000000001</ele>
        <time>2019-03-09T10:52:53Z</time>
      </trkpt>
      <trkpt lat="46.457950668409467" lon="11.631295122206211">
        <ele>2206.8400000000001</ele>
        <time>2019-03-09T10:53:05Z</time>
      </trkpt>
      <trkpt lat="46.457988722249866" lon="11.631417917087674">
        <ele>2207.3200000000002</ele>
        <time>2019-03-09T10:53:18Z</time>
      </trkpt>
      <trkpt lat="46.458014035597444" lon="11.631528222933412">
        <ele>2210.6900000000001</ele>
        <time>2019-03-09T10:53:31Z</time>
      </trkpt>
      <trkpt lat="46.45803046412766" lon="11.631596367806196">
        <ele>2214.0500000000002</ele>
        <time>2019-03-09T10:53:41Z</time>
      </trkpt>
      <trkpt lat="46.458035744726658" lon="11.631685048341751">
        <ele>2216.46</ele>
        <time>2019-03-09T10:53:50Z</time>
      </trkpt>
      <trkpt lat="46.45802803337574" lon="11.631748750805855">
        <ele>2218.8600000000001</ele>
        <time>2019-03-09T10:53:58Z</time>
      </trkpt>
      <trkpt lat="46.45804856903851" lon="11.631812453269958">
        <ele>2222.2199999999998</ele>
        <time>2019-03-09T10:54:11Z</time>
      </trkpt>
      <trkpt lat="46.458102213218808" lon="11.631833491846919">
        <ele>2223.6700000000001</ele>
        <time>2019-03-09T10:54:20Z</time>
      </trkpt>
      <trkpt lat="46.458129789680243" lon="11.631797701120377">
        <ele>2224.6300000000001</ele>
        <time>2019-03-09T10:54:30Z</time>
      </trkpt>
      <trkpt lat="46.458173710852861" lon="11.631734250113368">
        <ele>2226.5500000000002</ele>
        <time>2019-03-09T10:54:43Z</time>
      </trkpt>
      <trkpt lat="46.45822056569159" lon="11.631701393052936">
        <ele>2227.5100000000002</ele>
        <time>2019-03-09T10:54:54Z</time>
      </trkpt>
      <trkpt lat="46.458268677815795" lon="11.631649006158113">
        <ele>2230.4000000000001</ele>
        <time>2019-03-09T10:55:06Z</time>
      </trkpt>
      <trkpt lat="46.458311593160033" lon="11.631668033078313">
        <ele>2231.3600000000001</ele>
        <time>2019-03-09T10:55:18Z</time>
      </trkpt>
      <trkpt lat="46.458350317552686" lon="11.631728634238243">
        <ele>2233.2800000000002</ele>
        <time>2019-03-09T10:55:28Z</time>
      </trkpt>
      <trkpt lat="46.458380073308945" lon="11.631789235398173">
        <ele>2236.1599999999999</ele>
        <time>2019-03-09T10:55:38Z</time>
      </trkpt>
      <trkpt lat="46.458412846550345" lon="11.631802478805184">
        <ele>2237.6100000000001</ele>
        <time>2019-03-09T10:55:47Z</time>
      </trkpt>
      <trkpt lat="46.458456432446837" lon="11.631823182106018">
        <ele>2237.1300000000001</ele>
        <time>2019-03-09T10:55:58Z</time>
      </trkpt>
      <trkpt lat="46.458478141576052" lon="11.631811866536736">
        <ele>2239.5300000000002</ele>
        <time>2019-03-09T10:56:08Z</time>
      </trkpt>
      <trkpt lat="46.458509489893913" lon="11.63179736584425">
        <ele>2240.9699999999998</ele>
        <time>2019-03-09T10:56:21Z</time>
      </trkpt>
      <trkpt lat="46.458526840433478" lon="11.631783870980144">
        <ele>2243.3699999999999</ele>
        <time>2019-03-09T10:56:28Z</time>
      </trkpt>
      <trkpt lat="46.45853815600276" lon="11.63181010633707">
        <ele>2244.3299999999999</ele>
        <time>2019-03-09T10:56:37Z</time>
      </trkpt>
      <trkpt lat="46.458527175709605" lon="11.631918232887983">
        <ele>2242.8899999999999</ele>
        <time>2019-03-09T10:56:48Z</time>
      </trkpt>
      <trkpt lat="46.458499012514949" lon="11.63196450099349">
        <ele>2245.3000000000002</ele>
        <time>2019-03-09T10:56:58Z</time>
      </trkpt>
      <trkpt lat="46.458476800471544" lon="11.632008254528046">
        <ele>2247.2199999999998</ele>
        <time>2019-03-09T10:57:15Z</time>
      </trkpt>
      <trkpt lat="46.458443272858858" lon="11.63208813406527">
        <ele>2248.1799999999998</ele>
        <time>2019-03-09T10:57:26Z</time>
      </trkpt>
      <trkpt lat="46.458421060815454" lon="11.63215259090066">
        <ele>2249.6199999999999</ele>
        <time>2019-03-09T10:57:38Z</time>
      </trkpt>
      <trkpt lat="46.45841209217906" lon="11.632216377183795">
        <ele>2249.1399999999999</ele>
        <time>2019-03-09T10:57:49Z</time>
      </trkpt>
      <trkpt lat="46.458416283130646" lon="11.632233140990138">
        <ele>2251.0599999999999</ele>
        <time>2019-03-09T10:57:59Z</time>
      </trkpt>
      <trkpt lat="46.458401950076222" lon="11.632246468216181">
        <ele>2251.0599999999999</ele>
        <time>2019-03-09T10:58:13Z</time>
      </trkpt>
      <trkpt lat="46.458437573164701" lon="11.632283180952072">
        <ele>2252.9899999999998</ele>
        <time>2019-03-09T10:58:21Z</time>
      </trkpt>
      <trkpt lat="46.458503622561693" lon="11.632312266156077">
        <ele>2253.9499999999998</ele>
        <time>2019-03-09T10:58:33Z</time>
      </trkpt>
      <trkpt lat="46.45850638858974" lon="11.632308661937714">
        <ele>2252.9899999999998</ele>
        <time>2019-03-09T10:58:37Z</time>
      </trkpt>
      <trkpt lat="46.458504376932979" lon="11.632314277812839">
        <ele>2251.54</ele>
        <time>2019-03-09T10:58:47Z</time>
      </trkpt>
      <trkpt lat="46.458536814898252" lon="11.63237445987761">
        <ele>2255.3899999999999</ele>
        <time>2019-03-09T11:02:00Z</time>
      </trkpt>
      <trkpt lat="46.458540754392743" lon="11.632383093237877">
        <ele>2255.8699999999999</ele>
        <time>2019-03-09T11:02:01Z</time>
      </trkpt>
      <trkpt lat="46.458552237600088" lon="11.632458698004484">
        <ele>2257.3099999999999</ele>
        <time>2019-03-09T11:02:10Z</time>
      </trkpt>
      <trkpt lat="46.458563217893243" lon="11.632499014958739">
        <ele>2257.79</ele>
        <time>2019-03-09T11:02:17Z</time>
      </trkpt>
      <trkpt lat="46.458471268415451" lon="11.63255131803453">
        <ele>2253.9499999999998</ele>
        <time>2019-03-09T11:02:25Z</time>
      </trkpt>
      <trkpt lat="46.458468250930309" lon="11.632553497329354">
        <ele>2254.4299999999998</ele>
        <time>2019-03-09T11:02:26Z</time>
      </trkpt>
      <trkpt lat="46.458395579829812" lon="11.632527178153396">
        <ele>2251.54</ele>
        <time>2019-03-09T11:45:13Z</time>
      </trkpt>
      <trkpt lat="46.458371942862868" lon="11.632463056594133">
        <ele>2252.0300000000002</ele>
        <time>2019-03-09T11:45:23Z</time>
      </trkpt>
      <trkpt lat="46.458370853215456" lon="11.632456267252564">
        <ele>2252.0300000000002</ele>
        <time>2019-03-09T11:45:32Z</time>
      </trkpt>
      <trkpt lat="46.458370685577393" lon="11.632459620013833">
        <ele>2253.4699999999998</ele>
        <time>2019-03-09T11:47:41Z</time>
      </trkpt>
      <trkpt lat="46.458332296460867" lon="11.632407736033201">
        <ele>2252.9899999999998</ele>
        <time>2019-03-09T11:48:30Z</time>
      </trkpt>
      <trkpt lat="46.458324333652854" lon="11.632390217855573">
        <ele>2258.27</ele>
        <time>2019-03-09T11:50:32Z</time>
      </trkpt>
      <trkpt lat="46.458354592323303" lon="11.632315032184124">
        <ele>2256.8299999999999</ele>
        <time>2019-03-09T11:50:42Z</time>
      </trkpt>
      <trkpt lat="46.458363896235824" lon="11.632306901738048">
        <ele>2254.4299999999998</ele>
        <time>2019-03-09T11:50:53Z</time>
      </trkpt>
      <trkpt lat="46.458385437726974" lon="11.632283180952072">
        <ele>2254.9099999999999</ele>
        <time>2019-03-09T11:51:04Z</time>
      </trkpt>
      <trkpt lat="46.458373283967376" lon="11.632308829575777">
        <ele>2252.9899999999998</ele>
        <time>2019-03-09T11:51:22Z</time>
      </trkpt>
      <trkpt lat="46.458385521546006" lon="11.632283683866262">
        <ele>2252.9899999999998</ele>
        <time>2019-03-09T11:51:30Z</time>
      </trkpt>
      <trkpt lat="46.458376552909613" lon="11.632249318063259">
        <ele>2252.0300000000002</ele>
        <time>2019-03-09T11:51:38Z</time>
      </trkpt>
      <trkpt lat="46.458363393321633" lon="11.63223322480917">
        <ele>2252.5100000000002</ele>
        <time>2019-03-09T11:51:54Z</time>
      </trkpt>
      <trkpt lat="46.458343863487244" lon="11.632242193445563">
        <ele>2250.0999999999999</ele>
        <time>2019-03-09T11:52:00Z</time>
      </trkpt>
      <trkpt lat="46.4583720266819" lon="11.632245210930705">
        <ele>2251.54</ele>
        <time>2019-03-09T11:52:14Z</time>
      </trkpt>
      <trkpt lat="46.458400441333652" lon="11.632183855399489">
        <ele>2251.54</ele>
        <time>2019-03-09T11:52:23Z</time>
      </trkpt>
      <trkpt lat="46.458389963954687" lon="11.632143454626203">
        <ele>2252.0300000000002</ele>
        <time>2019-03-09T11:52:33Z</time>
      </trkpt>
      <trkpt lat="46.458414355292916" lon="11.632089139893651">
        <ele>2251.0599999999999</ele>
        <time>2019-03-09T11:52:41Z</time>
      </trkpt>
      <trkpt lat="46.458467915654182" lon="11.632028790190816">
        <ele>2249.6199999999999</ele>
        <time>2019-03-09T11:52:50Z</time>
      </trkpt>
      <trkpt lat="46.458482081070542" lon="11.631982605904341">
        <ele>2250.5799999999999</ele>
        <time>2019-03-09T11:52:59Z</time>
      </trkpt>
      <trkpt lat="46.458514602854848" lon="11.631932482123375">
        <ele>2251.0599999999999</ele>
        <time>2019-03-09T11:53:08Z</time>
      </trkpt>
      <trkpt lat="46.458535976707935" lon="11.631888812407851">
        <ele>2251.0599999999999</ele>
        <time>2019-03-09T11:53:18Z</time>
      </trkpt>
      <trkpt lat="46.458537569269538" lon="11.631876407191157">
        <ele>2251.0599999999999</ele>
        <time>2019-03-09T11:53:20Z</time>
      </trkpt>
      <trkpt lat="46.458537401631474" lon="11.631850926205516">
        <ele>2251.0599999999999</ele>
        <time>2019-03-09T11:53:22Z</time>
      </trkpt>
      <trkpt lat="46.458509489893913" lon="11.631706338375807">
        <ele>2250.0999999999999</ele>
        <time>2019-03-09T11:53:33Z</time>
      </trkpt>
      <trkpt lat="46.458439668640494" lon="11.631560493260622">
        <ele>2248.1799999999998</ele>
        <time>2019-03-09T11:53:44Z</time>
      </trkpt>
      <trkpt lat="46.458388036116958" lon="11.631434932351112">
        <ele>2245.3000000000002</ele>
        <time>2019-03-09T11:53:55Z</time>
      </trkpt>
      <trkpt lat="46.458355011418462" lon="11.631403248757124">
        <ele>2243.3699999999999</ele>
        <time>2019-03-09T11:54:05Z</time>
      </trkpt>
      <trkpt lat="46.458320142701268" lon="11.631351700052619">
        <ele>2242.8899999999999</ele>
        <time>2019-03-09T11:54:16Z</time>
      </trkpt>
      <trkpt lat="46.458295416086912" lon="11.631385898217559">
        <ele>2243.8499999999999</ele>
        <time>2019-03-09T11:54:22Z</time>
      </trkpt>
      <trkpt lat="46.458289129659534" lon="11.631517661735415">
        <ele>2245.3000000000002</ele>
        <time>2019-03-09T11:54:31Z</time>
      </trkpt>
      <trkpt lat="46.458245795220137" lon="11.631634840741754">
        <ele>2246.7399999999998</ele>
        <time>2019-03-09T11:54:42Z</time>
      </trkpt>
      <trkpt lat="46.458208663389087" lon="11.631750594824553">
        <ele>2247.2199999999998</ele>
        <time>2019-03-09T11:54:53Z</time>
      </trkpt>
      <trkpt lat="46.458194581791759" lon="11.631773812696338">
        <ele>2248.6599999999999</ele>
        <time>2019-03-09T11:55:02Z</time>
      </trkpt>
      <trkpt lat="46.458153426647186" lon="11.631857799366117">
        <ele>2248.6599999999999</ele>
        <time>2019-03-09T11:55:11Z</time>
      </trkpt>
      <trkpt lat="46.458080839365721" lon="11.631906162947416">
        <ele>2248.1799999999998</ele>
        <time>2019-03-09T11:55:21Z</time>
      </trkpt>
      <trkpt lat="46.458043623715639" lon="11.631874311715364">
        <ele>2247.2199999999998</ele>
        <time>2019-03-09T11:55:30Z</time>
      </trkpt>
      <trkpt lat="46.458039935678244" lon="11.631796527653933">
        <ele>2245.7800000000002</ele>
        <time>2019-03-09T11:55:40Z</time>
      </trkpt>
      <trkpt lat="46.458028201013803" lon="11.631686640903354">
        <ele>2242.8899999999999</ele>
        <time>2019-03-09T11:55:50Z</time>
      </trkpt>
      <trkpt lat="46.458026859909296" lon="11.631672643125057">
        <ele>2242.8899999999999</ele>
        <time>2019-03-09T11:55:51Z</time>
      </trkpt>
      <trkpt lat="46.458002552390099" lon="11.631546830758452">
        <ele>2240.9699999999998</ele>
        <time>2019-03-09T11:56:02Z</time>
      </trkpt>
      <trkpt lat="46.457964163273573" lon="11.631453791633248">
        <ele>2238.0900000000001</ele>
        <time>2019-03-09T11:56:11Z</time>
      </trkpt>
      <trkpt lat="46.45795620046556" lon="11.631444068625569">
        <ele>2237.6100000000001</ele>
        <time>2019-03-09T11:56:12Z</time>
      </trkpt>
      <trkpt lat="46.457857126370072" lon="11.631405260413885">
        <ele>2235.6799999999998</ele>
        <time>2019-03-09T11:56:22Z</time>
      </trkpt>
      <trkpt lat="46.457822090014815" lon="11.63138447329402">
        <ele>2233.7600000000002</ele>
        <time>2019-03-09T11:56:26Z</time>
      </trkpt>
      <trkpt lat="46.45773776806891" lon="11.631343569606543">
        <ele>2232.3200000000002</ele>
        <time>2019-03-09T11:56:37Z</time>
      </trkpt>
      <trkpt lat="46.457675909623504" lon="11.631304509937763">
        <ele>2232.8000000000002</ele>
        <time>2019-03-09T11:56:46Z</time>
      </trkpt>
      <trkpt lat="46.457615308463573" lon="11.631265785545111">
        <ele>2232.3200000000002</ele>
        <time>2019-03-09T11:56:53Z</time>
      </trkpt>
      <trkpt lat="46.457507433369756" lon="11.631262684240937">
        <ele>2232.8000000000002</ele>
        <time>2019-03-09T11:57:04Z</time>
      </trkpt>
      <trkpt lat="46.45744364708662" lon="11.631279112771153">
        <ele>2233.2800000000002</ele>
        <time>2019-03-09T11:57:12Z</time>
      </trkpt>
      <trkpt lat="46.457361252978444" lon="11.631336864084005">
        <ele>2233.7600000000002</ele>
        <time>2019-03-09T11:57:22Z</time>
      </trkpt>
      <trkpt lat="46.457265615463257" lon="11.631343234330416">
        <ele>2234.2399999999998</ele>
        <time>2019-03-09T11:57:33Z</time>
      </trkpt>
      <trkpt lat="46.457209540531039" lon="11.631313394755125">
        <ele>2234.7199999999998</ele>
        <time>2019-03-09T11:57:41Z</time>
      </trkpt>
      <trkpt lat="46.457186406478286" lon="11.631200155243278">
        <ele>2234.7199999999998</ele>
        <time>2019-03-09T11:57:52Z</time>
      </trkpt>
      <trkpt lat="46.457165870815516" lon="11.631165202707052">
        <ele>2235.6799999999998</ele>
        <time>2019-03-09T11:58:02Z</time>
      </trkpt>
      <trkpt lat="46.457164362072945" lon="11.631176266819239">
        <ele>2236.1599999999999</ele>
        <time>2019-03-09T11:58:15Z</time>
      </trkpt>
      <trkpt lat="46.457153968513012" lon="11.631129328161478">
        <ele>2237.6100000000001</ele>
        <time>2019-03-09T11:58:24Z</time>
      </trkpt>
      <trkpt lat="46.457120608538389" lon="11.631064284592867">
        <ele>2239.0500000000002</ele>
        <time>2019-03-09T11:58:33Z</time>
      </trkpt>
      <trkpt lat="46.457035196945071" lon="11.631102003157139">
        <ele>2239.0500000000002</ele>
        <time>2019-03-09T11:58:43Z</time>
      </trkpt>
      <trkpt lat="46.457001501694322" lon="11.631121952086687">
        <ele>2239.5300000000002</ele>
        <time>2019-03-09T11:58:52Z</time>
      </trkpt>
      <trkpt lat="46.456999238580465" lon="11.631126813590527">
        <ele>2239.5300000000002</ele>
        <time>2019-03-09T11:58:53Z</time>
      </trkpt>
      <trkpt lat="46.456963112577796" lon="11.631164280697703">
        <ele>2239.5300000000002</ele>
        <time>2019-03-09T11:59:02Z</time>
      </trkpt>
      <trkpt lat="46.456989934667945" lon="11.631222115829587">
        <ele>2240.0100000000002</ele>
        <time>2019-03-09T11:59:14Z</time>
      </trkpt>
      <trkpt lat="46.457004435360432" lon="11.631262013688684">
        <ele>2240.0100000000002</ele>
        <time>2019-03-09T11:59:24Z</time>
      </trkpt>
      <trkpt lat="46.456959508359432" lon="11.631328733637929">
        <ele>2240.4899999999998</ele>
        <time>2019-03-09T11:59:32Z</time>
      </trkpt>
      <trkpt lat="46.456951713189483" lon="11.631428981199861">
        <ele>2240.9699999999998</ele>
        <time>2019-03-09T11:59:41Z</time>
      </trkpt>
      <trkpt lat="46.456875018775463" lon="11.631461838260293">
        <ele>2241.9299999999998</ele>
        <time>2019-03-09T11:59:49Z</time>
      </trkpt>
      <trkpt lat="46.456836126744747" lon="11.631514811888337">
        <ele>2241.9299999999998</ele>
        <time>2019-03-09T11:59:58Z</time>
      </trkpt>
      <trkpt lat="46.456806119531393" lon="11.631566444411874">
        <ele>2242.4099999999999</ele>
        <time>2019-03-09T12:00:06Z</time>
      </trkpt>
      <trkpt lat="46.456782650202513" lon="11.631607515737414">
        <ele>2241.9299999999998</ele>
        <time>2019-03-09T12:00:14Z</time>
      </trkpt>
      <trkpt lat="46.456769993528724" lon="11.631668284535408">
        <ele>2241.9299999999998</ele>
        <time>2019-03-09T12:00:22Z</time>
      </trkpt>
      <trkpt lat="46.456765299662948" lon="11.631737854331732">
        <ele>2241.4499999999998</ele>
        <time>2019-03-09T12:00:29Z</time>
      </trkpt>
      <trkpt lat="46.456752894446254" lon="11.631821841001511">
        <ele>2241.9299999999998</ele>
        <time>2019-03-09T12:00:41Z</time>
      </trkpt>
      <trkpt lat="46.45672095939517" lon="11.631904570385814">
        <ele>2241.4499999999998</ele>
        <time>2019-03-09T12:00:51Z</time>
      </trkpt>
      <trkpt lat="46.45672095939517" lon="11.631913455203176">
        <ele>2241.4499999999998</ele>
        <time>2019-03-09T12:00:52Z</time>
      </trkpt>
      <trkpt lat="46.45673512481153" lon="11.631973218172789">
        <ele>2240.4899999999998</ele>
        <time>2019-03-09T12:01:00Z</time>
      </trkpt>
      <trkpt lat="46.456696651875973" lon="11.632032981142402">
        <ele>2237.1300000000001</ele>
        <time>2019-03-09T12:01:09Z</time>
      </trkpt>
      <trkpt lat="46.456656754016876" lon="11.632080841809511">
        <ele>2235.1999999999998</ele>
        <time>2019-03-09T12:01:17Z</time>
      </trkpt>
      <trkpt lat="46.456626579165459" lon="11.632163068279624">
        <ele>2232.8000000000002</ele>
        <time>2019-03-09T12:01:28Z</time>
      </trkpt>
      <trkpt lat="46.456625824794173" lon="11.632158625870943">
        <ele>2230.8800000000001</ele>
        <time>2019-03-09T12:01:36Z</time>
      </trkpt>
      <trkpt lat="46.456626579165459" lon="11.632169773802161">
        <ele>2147.7199999999998</ele>
        <time>2019-03-09T12:03:31Z</time>
      </trkpt>
      <trkpt lat="46.456562541425228" lon="11.632282510399818">
        <ele>2144.3600000000001</ele>
        <time>2019-03-09T12:03:40Z</time>
      </trkpt>
      <trkpt lat="46.456557847559452" lon="11.632371190935373">
        <ele>2140.9899999999998</ele>
        <time>2019-03-09T12:03:46Z</time>
      </trkpt>
      <trkpt lat="46.456549633294344" lon="11.632427098229527">
        <ele>2140.0300000000002</ele>
        <time>2019-03-09T12:03:49Z</time>
      </trkpt>
      <trkpt lat="46.456495486199856" lon="11.632480239495635">
        <ele>2139.5500000000002</ele>
        <time>2019-03-09T12:03:54Z</time>
      </trkpt>
      <trkpt lat="46.456423653289676" lon="11.632519299164414">
        <ele>2137.6300000000001</ele>
        <time>2019-03-09T12:04:06Z</time>
      </trkpt>
      <trkpt lat="46.456412840634584" lon="11.632497757673264">
        <ele>2134.2600000000002</ele>
        <time>2019-03-09T12:04:15Z</time>
      </trkpt>
      <trkpt lat="46.456414433196187" lon="11.632478814572096">
        <ele>2133.3000000000002</ele>
        <time>2019-03-09T12:04:17Z</time>
      </trkpt>
      <trkpt lat="46.456400267779827" lon="11.632487531751394">
        <ele>2134.7399999999998</ele>
        <time>2019-03-09T12:04:21Z</time>
      </trkpt>
      <trkpt lat="46.45638769492507" lon="11.632526759058237">
        <ele>2134.7399999999998</ele>
        <time>2019-03-09T12:04:24Z</time>
      </trkpt>
      <trkpt lat="46.456363387405872" lon="11.632699845358729">
        <ele>2134.2600000000002</ele>
        <time>2019-03-09T12:04:35Z</time>
      </trkpt>
      <trkpt lat="46.45634712651372" lon="11.632714932784438">
        <ele>2134.2600000000002</ele>
        <time>2019-03-09T12:04:37Z</time>
      </trkpt>
      <trkpt lat="46.456332039088011" lon="11.632757009938359">
        <ele>2134.2600000000002</ele>
        <time>2019-03-09T12:04:40Z</time>
      </trkpt>
      <trkpt lat="46.456316113471985" lon="11.632811408489943">
        <ele>2134.2600000000002</ele>
        <time>2019-03-09T12:04:44Z</time>
      </trkpt>
      <trkpt lat="46.456321561709046" lon="11.633012322708964">
        <ele>2132.3400000000001</ele>
        <time>2019-03-09T12:04:56Z</time>
      </trkpt>
      <trkpt lat="46.456228857859969" lon="11.633167220279574">
        <ele>2129.9400000000001</ele>
        <time>2019-03-09T12:05:07Z</time>
      </trkpt>
      <trkpt lat="46.45613363943994" lon="11.633226228877902">
        <ele>2126.5700000000002</ele>
        <time>2019-03-09T12:05:15Z</time>
      </trkpt>
      <trkpt lat="46.456020483747125" lon="11.633328991010785">
        <ele>2125.6100000000001</ele>
        <time>2019-03-09T12:05:25Z</time>
      </trkpt>
      <trkpt lat="46.455935072153807" lon="11.633369391784072">
        <ele>2121.77</ele>
        <time>2019-03-09T12:05:32Z</time>
      </trkpt>
      <trkpt lat="46.455852594226599" lon="11.633359082043171">
        <ele>2117.4400000000001</ele>
        <time>2019-03-09T12:05:38Z</time>
      </trkpt>
      <trkpt lat="46.45574614405632" lon="11.633339552208781">
        <ele>2114.0799999999999</ele>
        <time>2019-03-09T12:05:47Z</time>
      </trkpt>
      <trkpt lat="46.455705827102065" lon="11.633350951597095">
        <ele>2113.5999999999999</ele>
        <time>2019-03-09T12:05:51Z</time>
      </trkpt>
      <trkpt lat="46.455608261749148" lon="11.633437788113952">
        <ele>2113.1199999999999</ele>
        <time>2019-03-09T12:06:02Z</time>
      </trkpt>
      <trkpt lat="46.455580182373524" lon="11.633455976843834">
        <ele>2112.1500000000001</ele>
        <time>2019-03-09T12:06:05Z</time>
      </trkpt>
      <trkpt lat="46.455496195703745" lon="11.633510710671544">
        <ele>2108.79</ele>
        <time>2019-03-09T12:06:13Z</time>
      </trkpt>
      <trkpt lat="46.455451603978872" lon="11.633533928543329">
        <ele>2107.8299999999999</ele>
        <time>2019-03-09T12:06:17Z</time>
      </trkpt>
      <trkpt lat="46.455394271761179" lon="11.633573407307267">
        <ele>2107.8299999999999</ele>
        <time>2019-03-09T12:06:27Z</time>
      </trkpt>
      <trkpt lat="46.455348674207926" lon="11.633601486682892">
        <ele>2108.3099999999999</ele>
        <time>2019-03-09T12:06:41Z</time>
      </trkpt>
      <trkpt lat="46.455342136323452" lon="11.633575754240155">
        <ele>2106.8699999999999</ele>
        <time>2019-03-09T12:06:48Z</time>
      </trkpt>
      <trkpt lat="46.455291677266359" lon="11.633605845272541">
        <ele>2106.3899999999999</ele>
        <time>2019-03-09T12:06:56Z</time>
      </trkpt>
      <trkpt lat="46.455212719738483" lon="11.633619843050838">
        <ele>2103.98</ele>
        <time>2019-03-09T12:07:05Z</time>
      </trkpt>
      <trkpt lat="46.455164859071374" lon="11.63363509811461">
        <ele>2103.02</ele>
        <time>2019-03-09T12:07:10Z</time>
      </trkpt>
      <trkpt lat="46.455112555995584" lon="11.63364440202713">
        <ele>2102.0599999999999</ele>
        <time>2019-03-09T12:07:15Z</time>
      </trkpt>
      <trkpt lat="46.455078693106771" lon="11.633668206632137">
        <ele>2101.5799999999999</ele>
        <time>2019-03-09T12:07:19Z</time>
      </trkpt>
      <trkpt lat="46.455034017562866" lon="11.633661668747663">
        <ele>2099.6599999999999</ele>
        <time>2019-03-09T12:07:24Z</time>
      </trkpt>
      <trkpt lat="46.455015996471047" lon="11.633670721203089">
        <ele>2098.6999999999998</ele>
        <time>2019-03-09T12:07:26Z</time>
      </trkpt>
      <trkpt lat="46.454963106662035" lon="11.6336615011096">
        <ele>2096.77</ele>
        <time>2019-03-09T12:07:31Z</time>
      </trkpt>
      <trkpt lat="46.454856991767883" lon="11.633662758395076">
        <ele>2094.3699999999999</ele>
        <time>2019-03-09T12:07:41Z</time>
      </trkpt>
      <trkpt lat="46.454839389771223" lon="11.633647754788399">
        <ele>2093.8899999999999</ele>
        <time>2019-03-09T12:07:43Z</time>
      </trkpt>
      <trkpt lat="46.454805443063378" lon="11.633651023730636">
        <ele>2093.8899999999999</ele>
        <time>2019-03-09T12:07:46Z</time>
      </trkpt>
      <trkpt lat="46.454706033691764" lon="11.633679186925292">
        <ele>2092.9299999999998</ele>
        <time>2019-03-09T12:07:56Z</time>
      </trkpt>
      <trkpt lat="46.454586172476411" lon="11.633761748671532">
        <ele>2091.9699999999998</ele>
        <time>2019-03-09T12:08:09Z</time>
      </trkpt>
      <trkpt lat="46.454431694000959" lon="11.633771555498242">
        <ele>2091.4899999999998</ele>
        <time>2019-03-09T12:08:22Z</time>
      </trkpt>
      <trkpt lat="46.454334547743201" lon="11.633785637095571">
        <ele>2090.04</ele>
        <time>2019-03-09T12:08:31Z</time>
      </trkpt>
      <trkpt lat="46.454219128936529" lon="11.63372210226953">
        <ele>2087.1599999999999</ele>
        <time>2019-03-09T12:08:42Z</time>
      </trkpt>
      <trkpt lat="46.454196665436029" lon="11.633730819448829">
        <ele>2087.1599999999999</ele>
        <time>2019-03-09T12:08:45Z</time>
      </trkpt>
      <trkpt lat="46.454094992950559" lon="11.633743559941649">
        <ele>2085.7199999999998</ele>
        <time>2019-03-09T12:08:55Z</time>
      </trkpt>
      <trkpt lat="46.453976556658745" lon="11.633744901046157">
        <ele>2083.3099999999999</ele>
        <time>2019-03-09T12:09:08Z</time>
      </trkpt>
      <trkpt lat="46.453917715698481" lon="11.633797958493233">
        <ele>2082.8299999999999</ele>
        <time>2019-03-09T12:09:18Z</time>
      </trkpt>
      <trkpt lat="46.453850995749235" lon="11.633827965706587">
        <ele>2081.3899999999999</ele>
        <time>2019-03-09T12:09:26Z</time>
      </trkpt>
      <trkpt lat="46.453832052648067" lon="11.63382226601243">
        <ele>2081.3899999999999</ele>
        <time>2019-03-09T12:09:28Z</time>
      </trkpt>
      <trkpt lat="46.453777737915516" lon="11.633828636258841">
        <ele>2080.9099999999999</ele>
        <time>2019-03-09T12:09:38Z</time>
      </trkpt>
      <trkpt lat="46.453764326870441" lon="11.633826037868857">
        <ele>2080.9099999999999</ele>
        <time>2019-03-09T12:09:42Z</time>
      </trkpt>
      <trkpt lat="46.453646728768945" lon="11.633878005668521">
        <ele>2080.9099999999999</ele>
        <time>2019-03-09T12:09:52Z</time>
      </trkpt>
      <trkpt lat="46.453495603054762" lon="11.633955873548985">
        <ele>2078.5100000000002</ele>
        <time>2019-03-09T12:10:05Z</time>
      </trkpt>
      <trkpt lat="46.453386135399342" lon="11.634040949866176">
        <ele>2076.5900000000001</ele>
        <time>2019-03-09T12:10:16Z</time>
      </trkpt>
      <trkpt lat="46.453355457633734" lon="11.634061904624104">
        <ele>2076.5900000000001</ele>
        <time>2019-03-09T12:10:19Z</time>
      </trkpt>
      <trkpt lat="46.453196201473475" lon="11.63415796123445">
        <ele>2074.1799999999998</ele>
        <time>2019-03-09T12:10:33Z</time>
      </trkpt>
      <trkpt lat="46.453058738261461" lon="11.634218897670507">
        <ele>2074.1799999999998</ele>
        <time>2019-03-09T12:10:44Z</time>
      </trkpt>
      <trkpt lat="46.453037280589342" lon="11.634227531030774">
        <ele>2074.1799999999998</ele>
        <time>2019-03-09T12:10:46Z</time>
      </trkpt>
      <trkpt lat="46.453018672764301" lon="11.634241696447134">
        <ele>2073.6999999999998</ele>
        <time>2019-03-09T12:10:48Z</time>
      </trkpt>
      <trkpt lat="46.452886154875159" lon="11.634326437488198">
        <ele>2071.7800000000002</ele>
        <time>2019-03-09T12:11:00Z</time>
      </trkpt>
      <trkpt lat="46.452787416055799" lon="11.63443892262876">
        <ele>2070.3400000000001</ele>
        <time>2019-03-09T12:11:10Z</time>
      </trkpt>
      <trkpt lat="46.452767802402377" lon="11.634456692263484">
        <ele>2070.3400000000001</ele>
        <time>2019-03-09T12:11:12Z</time>
      </trkpt>
      <trkpt lat="46.452663782984018" lon="11.634596167132258">
        <ele>2070.3400000000001</ele>
        <time>2019-03-09T12:11:24Z</time>
      </trkpt>
      <trkpt lat="46.452580634504557" lon="11.634737150743604">
        <ele>2070.3400000000001</ele>
        <time>2019-03-09T12:11:34Z</time>
      </trkpt>
      <trkpt lat="46.452488852664828" lon="11.634882241487503">
        <ele>2069.3800000000001</ele>
        <time>2019-03-09T12:11:45Z</time>
      </trkpt>
      <trkpt lat="46.452392712235451" lon="11.635019537061453">
        <ele>2067.9299999999998</ele>
        <time>2019-03-09T12:11:56Z</time>
      </trkpt>
      <trkpt lat="46.452375864610076" lon="11.635043509304523">
        <ele>2067.4499999999998</ele>
        <time>2019-03-09T12:11:58Z</time>
      </trkpt>
      <trkpt lat="46.452287016436458" lon="11.635174518451095">
        <ele>2066.9699999999998</ele>
        <time>2019-03-09T12:12:08Z</time>
      </trkpt>
      <trkpt lat="46.452192384749651" lon="11.635301085188985">
        <ele>2067.9299999999998</ele>
        <time>2019-03-09T12:12:18Z</time>
      </trkpt>
      <trkpt lat="46.452090963721275" lon="11.635444918647408">
        <ele>2066.0100000000002</ele>
        <time>2019-03-09T12:12:30Z</time>
      </trkpt>
      <trkpt lat="46.452033715322614" lon="11.635526977479458">
        <ele>2063.6100000000001</ele>
        <time>2019-03-09T12:12:38Z</time>
      </trkpt>
      <trkpt lat="46.45194998010993" lon="11.635645413771272">
        <ele>2062.1700000000001</ele>
        <time>2019-03-09T12:12:48Z</time>
      </trkpt>
      <trkpt lat="46.451871609315276" lon="11.635765610262752">
        <ele>2060.7199999999998</ele>
        <time>2019-03-09T12:12:59Z</time>
      </trkpt>
      <trkpt lat="46.451834142208099" lon="11.635804250836372">
        <ele>2059.2800000000002</ele>
        <time>2019-03-09T12:13:03Z</time>
      </trkpt>
      <trkpt lat="46.451741773635149" lon="11.635903408750892">
        <ele>2056.8800000000001</ele>
        <time>2019-03-09T12:13:14Z</time>
      </trkpt>
      <trkpt lat="46.451666252687573" lon="11.635991418734193">
        <ele>2055.4400000000001</ele>
        <time>2019-03-09T12:13:24Z</time>
      </trkpt>
      <trkpt lat="46.451589642092586" lon="11.636096192523837">
        <ele>2055.9200000000001</ele>
        <time>2019-03-09T12:13:35Z</time>
      </trkpt>
      <trkpt lat="46.451488975435495" lon="11.636191997677088">
        <ele>2054.96</ele>
        <time>2019-03-09T12:13:45Z</time>
      </trkpt>
      <trkpt lat="46.451360397040844" lon="11.63624438457191">
        <ele>2053.0300000000002</ele>
        <time>2019-03-09T12:13:58Z</time>
      </trkpt>
      <trkpt lat="46.451338604092598" lon="11.636248826980591">
        <ele>2052.5500000000002</ele>
        <time>2019-03-09T12:14:00Z</time>
      </trkpt>
      <trkpt lat="46.451295604929328" lon="11.636262070387602">
        <ele>2051.1100000000001</ele>
        <time>2019-03-09T12:14:04Z</time>
      </trkpt>
      <trkpt lat="46.451249923557043" lon="11.636274475604296">
        <ele>2050.6300000000001</ele>
        <time>2019-03-09T12:14:08Z</time>
      </trkpt>
      <trkpt lat="46.451233830302954" lon="11.636290401220322">
        <ele>2050.6300000000001</ele>
        <time>2019-03-09T12:14:10Z</time>
      </trkpt>
      <trkpt lat="46.451134840026498" lon="11.636368101462722">
        <ele>2048.23</ele>
        <time>2019-03-09T12:14:21Z</time>
      </trkpt>
      <trkpt lat="46.451065605506301" lon="11.636448232457042">
        <ele>2049.1900000000001</ele>
        <time>2019-03-09T12:14:31Z</time>
      </trkpt>
      <trkpt lat="46.450953958556056" lon="11.636524088680744">
        <ele>2048.23</ele>
        <time>2019-03-09T12:14:42Z</time>
      </trkpt>
      <trkpt lat="46.450850358232856" lon="11.636557532474399">
        <ele>2046.3</ele>
        <time>2019-03-09T12:14:52Z</time>
      </trkpt>
      <trkpt lat="46.450769305229187" lon="11.636630538851023">
        <ele>2044.3800000000001</ele>
        <time>2019-03-09T12:15:01Z</time>
      </trkpt>
      <trkpt lat="46.450749691575766" lon="11.636712765321136">
        <ele>2044.3800000000001</ele>
        <time>2019-03-09T12:15:08Z</time>
      </trkpt>
      <trkpt lat="46.450624633580446" lon="11.636786023154855">
        <ele>2042.9400000000001</ele>
        <time>2019-03-09T12:15:19Z</time>
      </trkpt>
      <trkpt lat="46.4505026768893" lon="11.636848719790578">
        <ele>2042.46</ele>
        <time>2019-03-09T12:15:29Z</time>
      </trkpt>
      <trkpt lat="46.450430257245898" lon="11.636893982067704">
        <ele>2039.0899999999999</ele>
        <time>2019-03-09T12:15:37Z</time>
      </trkpt>
      <trkpt lat="46.450368901714683" lon="11.636929186061025">
        <ele>2036.21</ele>
        <time>2019-03-09T12:15:43Z</time>
      </trkpt>
      <trkpt lat="46.450332356616855" lon="11.636958690360188">
        <ele>2036.21</ele>
        <time>2019-03-09T12:15:46Z</time>
      </trkpt>
      <trkpt lat="46.450223727151752" lon="11.637034714221954">
        <ele>2036.6900000000001</ele>
        <time>2019-03-09T12:15:57Z</time>
      </trkpt>
      <trkpt lat="46.450135046616197" lon="11.637049550190568">
        <ele>2036.21</ele>
        <time>2019-03-09T12:16:06Z</time>
      </trkpt>
      <trkpt lat="46.45004041492939" lon="11.637057596817613">
        <ele>2034.77</ele>
        <time>2019-03-09T12:16:15Z</time>
      </trkpt>
      <trkpt lat="46.449915356934071" lon="11.637094980105758">
        <ele>2033.3299999999999</ele>
        <time>2019-03-09T12:16:26Z</time>
      </trkpt>
      <trkpt lat="46.449838411062956" lon="11.637127585709095">
        <ele>2029.48</ele>
        <time>2019-03-09T12:16:34Z</time>
      </trkpt>
      <trkpt lat="46.449796501547098" lon="11.637151725590229">
        <ele>2027.5599999999999</ele>
        <time>2019-03-09T12:16:38Z</time>
      </trkpt>
      <trkpt lat="46.449716873466969" lon="11.637239987030625">
        <ele>2024.6700000000001</ele>
        <time>2019-03-09T12:16:47Z</time>
      </trkpt>
      <trkpt lat="46.449620733037591" lon="11.637286506593227">
        <ele>2022.75</ele>
        <time>2019-03-09T12:16:56Z</time>
      </trkpt>
      <trkpt lat="46.449545798823237" lon="11.637310897931457">
        <ele>2021.79</ele>
        <time>2019-03-09T12:17:02Z</time>
      </trkpt>
      <trkpt lat="46.449510846287012" lon="11.637329673394561">
        <ele>2019.8699999999999</ele>
        <time>2019-03-09T12:17:06Z</time>
      </trkpt>
      <trkpt lat="46.449464745819569" lon="11.63734476082027">
        <ele>2018.9100000000001</ele>
        <time>2019-03-09T12:17:12Z</time>
      </trkpt>
      <trkpt lat="46.44939886406064" lon="11.637449283152819">
        <ele>2017.9400000000001</ele>
        <time>2019-03-09T12:17:23Z</time>
      </trkpt>
      <trkpt lat="46.449355110526085" lon="11.637510303407907">
        <ele>2017.46</ele>
        <time>2019-03-09T12:17:29Z</time>
      </trkpt>
      <trkpt lat="46.449299873784184" lon="11.63746353238821">
        <ele>2015.54</ele>
        <time>2019-03-09T12:17:34Z</time>
      </trkpt>
      <trkpt lat="46.449281852692366" lon="11.637363703921437">
        <ele>2011.7</ele>
        <time>2019-03-09T12:17:40Z</time>
      </trkpt>
      <trkpt lat="46.449279589578509" lon="11.637348784133792">
        <ele>2011.7</ele>
        <time>2019-03-09T12:17:41Z</time>
      </trkpt>
      <trkpt lat="46.449281265959144" lon="11.637247195467353">
        <ele>2009.77</ele>
        <time>2019-03-09T12:17:47Z</time>
      </trkpt>
      <trkpt lat="46.449239021167159" lon="11.6371497977525">
        <ele>2007.3699999999999</ele>
        <time>2019-03-09T12:17:57Z</time>
      </trkpt>
      <trkpt lat="46.449247319251299" lon="11.637173518538475">
        <ele>2007.3699999999999</ele>
        <time>2019-03-09T12:18:12Z</time>
      </trkpt>
      <trkpt lat="46.449242122471333" lon="11.637176955118775">
        <ele>2009.77</ele>
        <time>2019-03-09T12:18:27Z</time>
      </trkpt>
      <trkpt lat="46.449243798851967" lon="11.637165807187557">
        <ele>2009.29</ele>
        <time>2019-03-09T12:18:38Z</time>
      </trkpt>
      <trkpt lat="46.449261317029595" lon="11.637166477739811">
        <ele>2008.3299999999999</ele>
        <time>2019-03-09T12:18:53Z</time>
      </trkpt>
      <trkpt lat="46.449250588193536" lon="11.637163124978542">
        <ele>2007.8499999999999</ele>
        <time>2019-03-09T12:19:08Z</time>
      </trkpt>
      <trkpt lat="46.449226113036275" lon="11.637164046987891">
        <ele>2007.8499999999999</ele>
        <time>2019-03-09T12:19:22Z</time>
      </trkpt>
      <trkpt lat="46.44922980107367" lon="11.637154323980212">
        <ele>2008.8099999999999</ele>
        <time>2019-03-09T12:19:38Z</time>
      </trkpt>
      <trkpt lat="46.449236925691366" lon="11.637161029502749">
        <ele>2007.3699999999999</ele>
        <time>2019-03-09T12:19:47Z</time>
      </trkpt>
      <trkpt lat="46.449241116642952" lon="11.637152563780546">
        <ele>2007.8499999999999</ele>
        <time>2019-03-09T12:20:04Z</time>
      </trkpt>
      <trkpt lat="46.449233237653971" lon="11.637131022289395">
        <ele>2006.8900000000001</ele>
        <time>2019-03-09T12:20:20Z</time>
      </trkpt>
      <trkpt lat="46.449197698384523" lon="11.637111827731133">
        <ele>2006.8900000000001</ele>
        <time>2019-03-09T12:20:30Z</time>
      </trkpt>
      <trkpt lat="46.449150172993541" lon="11.637121047824621">
        <ele>2006.4100000000001</ele>
        <time>2019-03-09T12:20:43Z</time>
      </trkpt>
      <trkpt lat="46.449124943464994" lon="11.637128675356507">
        <ele>2006.4100000000001</ele>
        <time>2019-03-09T12:20:49Z</time>
      </trkpt>
      <trkpt lat="46.449000556021929" lon="11.637135548517108">
        <ele>2004.97</ele>
        <time>2019-03-09T12:21:01Z</time>
      </trkpt>
      <trkpt lat="46.448925621807575" lon="11.637129345908761">
        <ele>2003.04</ele>
        <time>2019-03-09T12:21:10Z</time>
      </trkpt>
      <trkpt lat="46.4489087741822" lon="11.637122305110097">
        <ele>2004.01</ele>
        <time>2019-03-09T12:21:21Z</time>
      </trkpt>
      <trkpt lat="46.448908606544137" lon="11.637122137472034">
        <ele>2006.4100000000001</ele>
        <time>2019-03-09T12:21:34Z</time>
      </trkpt>
      <trkpt lat="46.448914641514421" lon="11.637112833559513">
        <ele>2007.3699999999999</ele>
        <time>2019-03-09T12:21:49Z</time>
      </trkpt>
      <trkpt lat="46.448911791667342" lon="11.637111492455006">
        <ele>2009.77</ele>
        <time>2019-03-09T12:22:02Z</time>
      </trkpt>
      <trkpt lat="46.44889117218554" lon="11.637137643992901">
        <ele>2008.8099999999999</ele>
        <time>2019-03-09T12:22:12Z</time>
      </trkpt>
      <trkpt lat="46.448907433077693" lon="11.637180978432298">
        <ele>2007.3699999999999</ele>
        <time>2019-03-09T12:22:23Z</time>
      </trkpt>
      <trkpt lat="46.448944984003901" lon="11.637219451367855">
        <ele>2005.45</ele>
        <time>2019-03-09T12:22:30Z</time>
      </trkpt>
      <trkpt lat="46.44899083301425" lon="11.637292960658669">
        <ele>2001.5999999999999</ele>
        <time>2019-03-09T12:22:37Z</time>
      </trkpt>
      <trkpt lat="46.449037604033947" lon="11.637416006997228">
        <ele>1998.72</ele>
        <time>2019-03-09T12:22:47Z</time>
      </trkpt>
      <trkpt lat="46.449029222130775" lon="11.637514410540462">
        <ele>1996.3199999999999</ele>
        <time>2019-03-09T12:22:55Z</time>
      </trkpt>
      <trkpt lat="46.448992760851979" lon="11.637667212635279">
        <ele>1992.95</ele>
        <time>2019-03-09T12:23:05Z</time>
      </trkpt>
      <trkpt lat="46.448974404484034" lon="11.637803167104721">
        <ele>1989.5899999999999</ele>
        <time>2019-03-09T12:23:13Z</time>
      </trkpt>
      <trkpt lat="46.448941044509411" lon="11.637900983914733">
        <ele>1986.7</ele>
        <time>2019-03-09T12:23:20Z</time>
      </trkpt>
      <trkpt lat="46.448855465278029" lon="11.638020677492023">
        <ele>1983.8199999999999</ele>
        <time>2019-03-09T12:23:30Z</time>
      </trkpt>
      <trkpt lat="46.448745410889387" lon="11.638163672760129">
        <ele>1982.3800000000001</ele>
        <time>2019-03-09T12:23:42Z</time>
      </trkpt>
      <trkpt lat="46.448611048981547" lon="11.638294262811542">
        <ele>1979.49</ele>
        <time>2019-03-09T12:23:55Z</time>
      </trkpt>
      <trkpt lat="46.44858137704432" lon="11.638328041881323">
        <ele>1979.01</ele>
        <time>2019-03-09T12:23:58Z</time>
      </trkpt>
      <trkpt lat="46.448442908003926" lon="11.638450752943754">
        <ele>1977.0899999999999</ele>
        <time>2019-03-09T12:24:12Z</time>
      </trkpt>
      <trkpt lat="46.448358334600925" lon="11.638525016605854">
        <ele>1976.6099999999999</ele>
        <time>2019-03-09T12:24:23Z</time>
      </trkpt>
      <trkpt lat="46.448344755917788" lon="11.638535242527723">
        <ele>1977.0899999999999</ele>
        <time>2019-03-09T12:24:25Z</time>
      </trkpt>
      <trkpt lat="46.448239730671048" lon="11.638591149821877">
        <ele>1974.6900000000001</ele>
        <time>2019-03-09T12:24:35Z</time>
      </trkpt>
      <trkpt lat="46.44822078756988" lon="11.638606237247586">
        <ele>1974.2</ele>
        <time>2019-03-09T12:24:37Z</time>
      </trkpt>
      <trkpt lat="46.44818558357656" lon="11.638565920293331">
        <ele>1975.6500000000001</ele>
        <time>2019-03-09T12:24:47Z</time>
      </trkpt>
      <trkpt lat="46.448174938559532" lon="11.63858737796545">
        <ele>1976.1300000000001</ele>
        <time>2019-03-09T12:24:55Z</time>
      </trkpt>
      <trkpt lat="46.448118528351188" lon="11.638698522001505">
        <ele>1974.2</ele>
        <time>2019-03-09T12:25:04Z</time>
      </trkpt>
      <trkpt lat="46.448054322972894" lon="11.638785526156425">
        <ele>1973.24</ele>
        <time>2019-03-09T12:25:14Z</time>
      </trkpt>
      <trkpt lat="46.447989279404283" lon="11.638916283845901">
        <ele>1971.3199999999999</ele>
        <time>2019-03-09T12:25:26Z</time>
      </trkpt>
      <trkpt lat="46.44795248284936" lon="11.638955846428871">
        <ele>1971.3199999999999</ele>
        <time>2019-03-09T12:25:31Z</time>
      </trkpt>
      <trkpt lat="46.44790755584836" lon="11.639022650197148">
        <ele>1970.8399999999999</ele>
        <time>2019-03-09T12:25:39Z</time>
      </trkpt>
      <trkpt lat="46.447847373783588" lon="11.639135973528028">
        <ele>1968.9200000000001</ele>
        <time>2019-03-09T12:25:49Z</time>
      </trkpt>
      <trkpt lat="46.447808649390936" lon="11.63919229991734">
        <ele>1967.48</ele>
        <time>2019-03-09T12:25:58Z</time>
      </trkpt>
      <trkpt lat="46.447766153141856" lon="11.639279052615166">
        <ele>1966.99</ele>
        <time>2019-03-09T12:26:05Z</time>
      </trkpt>
      <trkpt lat="46.447750311344862" lon="11.639312831684947">
        <ele>1966.51</ele>
        <time>2019-03-09T12:26:08Z</time>
      </trkpt>
      <trkpt lat="46.447683172300458" lon="11.63944635540247">
        <ele>1965.0699999999999</ele>
        <time>2019-03-09T12:26:19Z</time>
      </trkpt>
      <trkpt lat="46.447627432644367" lon="11.639519110321999">
        <ele>1963.6300000000001</ele>
        <time>2019-03-09T12:26:26Z</time>
      </trkpt>
      <trkpt lat="46.44761293195188" lon="11.639529336243868">
        <ele>1962.6700000000001</ele>
        <time>2019-03-09T12:26:34Z</time>
      </trkpt>
      <trkpt lat="46.447600107640028" lon="11.639528917148709">
        <ele>1963.6300000000001</ele>
        <time>2019-03-09T12:26:42Z</time>
      </trkpt>
      <trkpt lat="46.447590468451381" lon="11.639534868299961">
        <ele>1965.55</ele>
        <time>2019-03-09T12:26:51Z</time>
      </trkpt>
      <trkpt lat="46.447576386854053" lon="11.639542914927006">
        <ele>1966.51</ele>
        <time>2019-03-09T12:26:53Z</time>
      </trkpt>
      <trkpt lat="46.447576973587275" lon="11.639526570215821">
        <ele>1966.99</ele>
        <time>2019-03-09T12:27:06Z</time>
      </trkpt>
      <trkpt lat="46.447570435702801" lon="11.639535119757056">
        <ele>1966.99</ele>
        <time>2019-03-09T12:27:17Z</time>
      </trkpt>
      <trkpt lat="46.447576051577926" lon="11.639535119757056">
        <ele>1966.51</ele>
        <time>2019-03-09T12:27:33Z</time>
      </trkpt>
      <trkpt lat="46.447582673281431" lon="11.639561858028173">
        <ele>1966.99</ele>
        <time>2019-03-09T12:27:39Z</time>
      </trkpt>
      <trkpt lat="46.447522742673755" lon="11.639733519405127">
        <ele>1965.55</ele>
        <time>2019-03-09T12:27:51Z</time>
      </trkpt>
      <trkpt lat="46.447484437376261" lon="11.639783307909966">
        <ele>1964.1099999999999</ele>
        <time>2019-03-09T12:27:56Z</time>
      </trkpt>
      <trkpt lat="46.447464069351554" lon="11.639799065887928">
        <ele>1963.6300000000001</ele>
        <time>2019-03-09T12:27:58Z</time>
      </trkpt>
      <trkpt lat="46.447387458756566" lon="11.639873748645186">
        <ele>1962.6700000000001</ele>
        <time>2019-03-09T12:28:08Z</time>
      </trkpt>
      <trkpt lat="46.447327109053731" lon="11.639925129711628">
        <ele>1962.6700000000001</ele>
        <time>2019-03-09T12:28:15Z</time>
      </trkpt>
      <trkpt lat="46.447308417409658" lon="11.639921944588423">
        <ele>1961.71</ele>
        <time>2019-03-09T12:28:17Z</time>
      </trkpt>
      <trkpt lat="46.447239685803652" lon="11.639903672039509">
        <ele>1961.23</ele>
        <time>2019-03-09T12:28:24Z</time>
      </trkpt>
      <trkpt lat="46.447223173454404" lon="11.639930075034499">
        <ele>1959.78</ele>
        <time>2019-03-09T12:28:49Z</time>
      </trkpt>
      <trkpt lat="46.447095349431038" lon="11.639986066147685">
        <ele>1960.27</ele>
        <time>2019-03-09T12:29:00Z</time>
      </trkpt>
      <trkpt lat="46.447004657238722" lon="11.640011966228485">
        <ele>1959.78</ele>
        <time>2019-03-09T12:29:09Z</time>
      </trkpt>
      <trkpt lat="46.446996107697487" lon="11.640017163008451">
        <ele>1959.3</ele>
        <time>2019-03-09T12:29:10Z</time>
      </trkpt>
      <trkpt lat="46.446870462968946" lon="11.640024539083242">
        <ele>1959.3</ele>
        <time>2019-03-09T12:29:22Z</time>
      </trkpt>
      <trkpt lat="46.446853028610349" lon="11.640537176281214">
        <ele>1958.3399999999999</ele>
        <time>2019-03-09T13:06:13Z</time>
      </trkpt>
      <trkpt lat="46.446785135194659" lon="11.640699617564678">
        <ele>1954.02</ele>
        <time>2019-03-09T13:10:11Z</time>
      </trkpt>
      <trkpt lat="46.446778764948249" lon="11.640739683061838">
        <ele>1950.6500000000001</ele>
        <time>2019-03-09T13:10:15Z</time>
      </trkpt>
      <trkpt lat="46.446774993091822" lon="11.640763487666845">
        <ele>1949.21</ele>
        <time>2019-03-09T13:10:18Z</time>
      </trkpt>
      <trkpt lat="46.446727383881807" lon="11.6408521682024">
        <ele>1947.29</ele>
        <time>2019-03-09T13:10:48Z</time>
      </trkpt>
      <trkpt lat="46.446688659489155" lon="11.640916625037789">
        <ele>1947.29</ele>
        <time>2019-03-09T13:11:00Z</time>
      </trkpt>
      <trkpt lat="46.446679271757603" lon="11.640901789069176">
        <ele>1947.29</ele>
        <time>2019-03-09T13:11:10Z</time>
      </trkpt>
      <trkpt lat="46.44665814936161" lon="11.640925845131278">
        <ele>1946.3299999999999</ele>
        <time>2019-03-09T13:11:18Z</time>
      </trkpt>
      <trkpt lat="46.446642810478806" lon="11.640939004719257">
        <ele>1945.8499999999999</ele>
        <time>2019-03-09T13:11:20Z</time>
      </trkpt>
      <trkpt lat="46.446511885151267" lon="11.641003796830773">
        <ele>1944.4000000000001</ele>
        <time>2019-03-09T13:11:32Z</time>
      </trkpt>
      <trkpt lat="46.446409709751606" lon="11.64104956202209">
        <ele>1944.4000000000001</ele>
        <time>2019-03-09T13:11:40Z</time>
      </trkpt>
      <trkpt lat="46.446303846314549" lon="11.641110917553306">
        <ele>1944.8800000000001</ele>
        <time>2019-03-09T13:11:50Z</time>
      </trkpt>
      <trkpt lat="46.44620519131422" lon="11.641160203143954">
        <ele>1945.3599999999999</ele>
        <time>2019-03-09T13:12:00Z</time>
      </trkpt>
      <trkpt lat="46.446087760850787" lon="11.641226001083851">
        <ele>1945.8499999999999</ele>
        <time>2019-03-09T13:12:11Z</time>
      </trkpt>
      <trkpt lat="46.446004612371325" lon="11.64125575684011">
        <ele>1946.8099999999999</ele>
        <time>2019-03-09T13:12:20Z</time>
      </trkpt>
      <trkpt lat="46.44592615775764" lon="11.641300097107887">
        <ele>1946.3299999999999</ele>
        <time>2019-03-09T13:12:30Z</time>
      </trkpt>
      <trkpt lat="46.445837393403053" lon="11.641345946118236">
        <ele>1945.3599999999999</ele>
        <time>2019-03-09T13:12:40Z</time>
      </trkpt>
      <trkpt lat="46.44577369093895" lon="11.641373103484511">
        <ele>1944.4000000000001</ele>
        <time>2019-03-09T13:12:50Z</time>
      </trkpt>
      <trkpt lat="46.44570479169488" lon="11.641412666067481">
        <ele>1943.4400000000001</ele>
        <time>2019-03-09T13:13:00Z</time>
      </trkpt>
      <trkpt lat="46.445619883015752" lon="11.641475446522236">
        <ele>1942.96</ele>
        <time>2019-03-09T13:13:09Z</time>
      </trkpt>
      <trkpt lat="46.445537908002734" lon="11.641507213935256">
        <ele>1942.96</ele>
        <time>2019-03-09T13:13:19Z</time>
      </trkpt>
      <trkpt lat="46.445460710674524" lon="11.641549794003367">
        <ele>1942.48</ele>
        <time>2019-03-09T13:13:28Z</time>
      </trkpt>
      <trkpt lat="46.445380998775363" lon="11.641552140936255">
        <ele>1942.48</ele>
        <time>2019-03-09T13:13:36Z</time>
      </trkpt>
      <trkpt lat="46.445357110351324" lon="11.641532359644771">
        <ele>1942.48</ele>
        <time>2019-03-09T13:13:39Z</time>
      </trkpt>
      <trkpt lat="46.445288211107254" lon="11.64143311791122">
        <ele>1942.48</ele>
        <time>2019-03-09T13:13:49Z</time>
      </trkpt>
      <trkpt lat="46.445214785635471" lon="11.641346029937267">
        <ele>1942.96</ele>
        <time>2019-03-09T13:13:59Z</time>
      </trkpt>
      <trkpt lat="46.445179078727961" lon="11.641317280009389">
        <ele>1943.9200000000001</ele>
        <time>2019-03-09T13:14:04Z</time>
      </trkpt>
      <trkpt lat="46.445139935240149" lon="11.641270844265819">
        <ele>1942.48</ele>
        <time>2019-03-09T13:14:13Z</time>
      </trkpt>
      <trkpt lat="46.445097271353006" lon="11.641261791810393">
        <ele>1941.52</ele>
        <time>2019-03-09T13:14:22Z</time>
      </trkpt>
      <trkpt lat="46.445028958842158" lon="11.64128995500505">
        <ele>1940.0799999999999</ele>
        <time>2019-03-09T13:14:30Z</time>
      </trkpt>
      <trkpt lat="46.444987300783396" lon="11.641351394355297">
        <ele>1940.5599999999999</ele>
        <time>2019-03-09T13:14:37Z</time>
      </trkpt>
      <trkpt lat="46.444942457601428" lon="11.641455749049783">
        <ele>1940.0799999999999</ele>
        <time>2019-03-09T13:14:46Z</time>
      </trkpt>
      <trkpt lat="46.444905158132315" lon="11.641530012711883">
        <ele>1939.5999999999999</ele>
        <time>2019-03-09T13:14:55Z</time>
      </trkpt>
      <trkpt lat="46.444866769015789" lon="11.641615927219391">
        <ele>1940.0799999999999</ele>
        <time>2019-03-09T13:15:03Z</time>
      </trkpt>
      <trkpt lat="46.444837683811784" lon="11.641719108447433">
        <ele>1939.5999999999999</ele>
        <time>2019-03-09T13:15:12Z</time>
      </trkpt>
      <trkpt lat="46.444829385727644" lon="11.641747942194343">
        <ele>1939.5999999999999</ele>
        <time>2019-03-09T13:15:16Z</time>
      </trkpt>
      <trkpt lat="46.444794852286577" lon="11.641888087615371">
        <ele>1938.1600000000001</ele>
        <time>2019-03-09T13:15:27Z</time>
      </trkpt>
      <trkpt lat="46.444792924448848" lon="11.641900073736906">
        <ele>1937.6700000000001</ele>
        <time>2019-03-09T13:15:28Z</time>
      </trkpt>
      <trkpt lat="46.444790745154023" lon="11.642002416774631">
        <ele>1934.3099999999999</ele>
        <time>2019-03-09T13:15:39Z</time>
      </trkpt>
      <trkpt lat="46.444782195612788" lon="11.642036531120539">
        <ele>1933.8299999999999</ele>
        <time>2019-03-09T13:15:42Z</time>
      </trkpt>
      <trkpt lat="46.444759480655193" lon="11.642167456448078">
        <ele>1934.3099999999999</ele>
        <time>2019-03-09T13:15:52Z</time>
      </trkpt>
      <trkpt lat="46.444694269448519" lon="11.642263680696487">
        <ele>1934.3099999999999</ele>
        <time>2019-03-09T13:15:59Z</time>
      </trkpt>
      <trkpt lat="46.44459955394268" lon="11.642369208857417">
        <ele>1933.8299999999999</ele>
        <time>2019-03-09T13:16:12Z</time>
      </trkpt>
      <trkpt lat="46.444610869511962" lon="11.642329478636384">
        <ele>1934.3099999999999</ele>
        <time>2019-03-09T13:16:21Z</time>
      </trkpt>
      <trkpt lat="46.444614473730326" lon="11.642326796427369">
        <ele>1935.27</ele>
        <time>2019-03-09T13:16:28Z</time>
      </trkpt>
      <trkpt lat="46.444510789588094" lon="11.64239720441401">
        <ele>1933.8299999999999</ele>
        <time>2019-03-09T13:16:39Z</time>
      </trkpt>
      <trkpt lat="46.444431329146028" lon="11.642445148900151">
        <ele>1932.8699999999999</ele>
        <time>2019-03-09T13:16:49Z</time>
      </trkpt>
      <trkpt lat="46.444337284192443" lon="11.642486555501819">
        <ele>1931.4300000000001</ele>
        <time>2019-03-09T13:16:58Z</time>
      </trkpt>
      <trkpt lat="46.444250950589776" lon="11.64256040006876">
        <ele>1931.4300000000001</ele>
        <time>2019-03-09T13:17:08Z</time>
      </trkpt>
      <trkpt lat="46.444158917292953" lon="11.642591999843717">
        <ele>1929.98</ele>
        <time>2019-03-09T13:17:18Z</time>
      </trkpt>
      <trkpt lat="46.444096555933356" lon="11.642619576305151">
        <ele>1927.0999999999999</ele>
        <time>2019-03-09T13:17:25Z</time>
      </trkpt>
      <trkpt lat="46.444077026098967" lon="11.642625192180276">
        <ele>1926.1400000000001</ele>
        <time>2019-03-09T13:17:27Z</time>
      </trkpt>
      <trkpt lat="46.443986753001809" lon="11.642676321789622">
        <ele>1927.0999999999999</ele>
        <time>2019-03-09T13:17:36Z</time>
      </trkpt>
      <trkpt lat="46.443956242874265" lon="11.642734240740538">
        <ele>1928.0599999999999</ele>
        <time>2019-03-09T13:17:44Z</time>
      </trkpt>
      <trkpt lat="46.443938054144382" lon="11.642779251560569">
        <ele>1928.0599999999999</ele>
        <time>2019-03-09T13:17:48Z</time>
      </trkpt>
      <trkpt lat="46.443900587037206" lon="11.642852006480098">
        <ele>1925.6600000000001</ele>
        <time>2019-03-09T13:18:00Z</time>
      </trkpt>
      <trkpt lat="46.443867646157742" lon="11.642966503277421">
        <ele>1923.74</ele>
        <time>2019-03-09T13:18:08Z</time>
      </trkpt>
      <trkpt lat="46.443845685571432" lon="11.643081167712808">
        <ele>1921.8099999999999</ele>
        <time>2019-03-09T13:18:17Z</time>
      </trkpt>
      <trkpt lat="46.443825485184789" lon="11.643120730295777">
        <ele>1920.8499999999999</ele>
        <time>2019-03-09T13:18:27Z</time>
      </trkpt>
      <trkpt lat="46.443829759955406" lon="11.643216703087091">
        <ele>1917.97</ele>
        <time>2019-03-09T13:18:35Z</time>
      </trkpt>
      <trkpt lat="46.443822719156742" lon="11.643309742212296">
        <ele>1915.0799999999999</ele>
        <time>2019-03-09T13:18:44Z</time>
      </trkpt>
      <trkpt lat="46.443832442164421" lon="11.64334905333817">
        <ele>1915.5599999999999</ele>
        <time>2019-03-09T13:18:53Z</time>
      </trkpt>
      <trkpt lat="46.443843003362417" lon="11.643499173223972">
        <ele>1913.1600000000001</ele>
        <time>2019-03-09T13:19:03Z</time>
      </trkpt>
      <trkpt lat="46.443833028897643" lon="11.643621297553182">
        <ele>1911.72</ele>
        <time>2019-03-09T13:19:12Z</time>
      </trkpt>
      <trkpt lat="46.443846691399813" lon="11.643747026100755">
        <ele>1909.8</ele>
        <time>2019-03-09T13:19:21Z</time>
      </trkpt>
      <trkpt lat="46.443881141021848" lon="11.643882729113102">
        <ele>1908.8299999999999</ele>
        <time>2019-03-09T13:19:32Z</time>
      </trkpt>
      <trkpt lat="46.443915758281946" lon="11.643995381891727">
        <ele>1906.9100000000001</ele>
        <time>2019-03-09T13:19:41Z</time>
      </trkpt>
      <trkpt lat="46.443920200690627" lon="11.644028658047318">
        <ele>1906.9100000000001</ele>
        <time>2019-03-09T13:19:47Z</time>
      </trkpt>
      <trkpt lat="46.443978119641542" lon="11.64420124143362">
        <ele>1904.99</ele>
        <time>2019-03-09T13:20:00Z</time>
      </trkpt>
      <trkpt lat="46.443996643647552" lon="11.64425203576684">
        <ele>1904.51</ele>
        <time>2019-03-09T13:20:10Z</time>
      </trkpt>
      <trkpt lat="46.444024052470922" lon="11.644359910860658">
        <ele>1904.51</ele>
        <time>2019-03-09T13:20:17Z</time>
      </trkpt>
      <trkpt lat="46.443993793800473" lon="11.644530314952135">
        <ele>1904.51</ele>
        <time>2019-03-09T13:20:28Z</time>
      </trkpt>
      <trkpt lat="46.443961523473263" lon="11.644643805921078">
        <ele>1903.0699999999999</ele>
        <time>2019-03-09T13:20:37Z</time>
      </trkpt>
      <trkpt lat="46.443951297551394" lon="11.644681189209223">
        <ele>1902.5899999999999</ele>
        <time>2019-03-09T13:20:47Z</time>
      </trkpt>
      <trkpt lat="46.443866305053234" lon="11.644807085394859">
        <ele>1901.6300000000001</ele>
        <time>2019-03-09T13:20:57Z</time>
      </trkpt>
      <trkpt lat="46.443855576217175" lon="11.644818820059299">
        <ele>1902.1099999999999</ele>
        <time>2019-03-09T13:20:58Z</time>
      </trkpt>
      <trkpt lat="46.443783324211836" lon="11.644874894991517">
        <ele>1903.55</ele>
        <time>2019-03-09T13:21:05Z</time>
      </trkpt>
      <trkpt lat="46.443690368905663" lon="11.644878415390849">
        <ele>1902.5899999999999</ele>
        <time>2019-03-09T13:21:14Z</time>
      </trkpt>
      <trkpt lat="46.443633874878287" lon="11.644849581643939">
        <ele>1900.6600000000001</ele>
        <time>2019-03-09T13:21:23Z</time>
      </trkpt>
      <trkpt lat="46.443528011441231" lon="11.644890066236258">
        <ele>1900.6600000000001</ele>
        <time>2019-03-09T13:21:35Z</time>
      </trkpt>
      <trkpt lat="46.44351770170033" lon="11.644921917468309">
        <ele>1901.1400000000001</ele>
        <time>2019-03-09T13:21:38Z</time>
      </trkpt>
      <trkpt lat="46.443508733063936" lon="11.644947482272983">
        <ele>1901.1400000000001</ele>
        <time>2019-03-09T13:21:40Z</time>
      </trkpt>
      <trkpt lat="46.443493645638227" lon="11.645051836967468">
        <ele>1902.5899999999999</ele>
        <time>2019-03-09T13:21:50Z</time>
      </trkpt>
      <trkpt lat="46.443470092490315" lon="11.645146468654275">
        <ele>1903.55</ele>
        <time>2019-03-09T13:21:59Z</time>
      </trkpt>
      <trkpt lat="46.443428602069616" lon="11.645267335698009">
        <ele>1904.51</ele>
        <time>2019-03-09T13:22:10Z</time>
      </trkpt>
      <trkpt lat="46.443345872685313" lon="11.645409241318703">
        <ele>1906.9100000000001</ele>
        <time>2019-03-09T13:22:23Z</time>
      </trkpt>
      <trkpt lat="46.443262724205852" lon="11.645499346777797">
        <ele>1907.3900000000001</ele>
        <time>2019-03-09T13:22:33Z</time>
      </trkpt>
      <trkpt lat="46.443184604868293" lon="11.645581070333719">
        <ele>1907.3900000000001</ele>
        <time>2019-03-09T13:22:42Z</time>
      </trkpt>
      <trkpt lat="46.443135319277644" lon="11.64568517357111">
        <ele>1907.3900000000001</ele>
        <time>2019-03-09T13:22:51Z</time>
      </trkpt>
      <trkpt lat="46.443077065050602" lon="11.64582104422152">
        <ele>1907.3900000000001</ele>
        <time>2019-03-09T13:23:01Z</time>
      </trkpt>
      <trkpt lat="46.443031886592507" lon="11.645920788869262">
        <ele>1907.8699999999999</ele>
        <time>2019-03-09T13:23:09Z</time>
      </trkpt>
      <trkpt lat="46.443017050623894" lon="11.645941324532032">
        <ele>1907.8699999999999</ele>
        <time>2019-03-09T13:23:11Z</time>
      </trkpt>
      <trkpt lat="46.442996514961123" lon="11.645982144400477">
        <ele>1907.8699999999999</ele>
        <time>2019-03-09T13:23:14Z</time>
      </trkpt>
      <trkpt lat="46.442988887429237" lon="11.646008715033531">
        <ele>1907.8699999999999</ele>
        <time>2019-03-09T13:23:16Z</time>
      </trkpt>
      <trkpt lat="46.442915461957455" lon="11.646172581240535">
        <ele>1907.8699999999999</ele>
        <time>2019-03-09T13:23:28Z</time>
      </trkpt>
      <trkpt lat="46.442854190245271" lon="11.646305685862899">
        <ele>1905.95</ele>
        <time>2019-03-09T13:23:38Z</time>
      </trkpt>
      <trkpt lat="46.442849831655622" lon="11.646318091079593">
        <ele>1905.47</ele>
        <time>2019-03-09T13:23:39Z</time>
      </trkpt>
      <trkpt lat="46.442814879119396" lon="11.646454967558384">
        <ele>1904.99</ele>
        <time>2019-03-09T13:23:49Z</time>
      </trkpt>
      <trkpt lat="46.442792164161801" lon="11.646481705829501">
        <ele>1904.99</ele>
        <time>2019-03-09T13:23:52Z</time>
      </trkpt>
      <trkpt lat="46.442709770053625" lon="11.64651045575738">
        <ele>1904.03</ele>
        <time>2019-03-09T13:23:58Z</time>
      </trkpt>
      <trkpt lat="46.442611953243613" lon="11.646483968943357">
        <ele>1902.5899999999999</ele>
        <time>2019-03-09T13:24:07Z</time>
      </trkpt>
      <trkpt lat="46.442504413425922" lon="11.646593101322651">
        <ele>1900.1800000000001</ele>
        <time>2019-03-09T13:24:18Z</time>
      </trkpt>
      <trkpt lat="46.442418247461319" lon="11.646639704704285">
        <ele>1900.1800000000001</ele>
        <time>2019-03-09T13:24:28Z</time>
      </trkpt>
      <trkpt lat="46.442337865009904" lon="11.646675579249859">
        <ele>1900.1800000000001</ele>
        <time>2019-03-09T13:24:39Z</time>
      </trkpt>
      <trkpt lat="46.442240215837955" lon="11.646736850962043">
        <ele>1899.22</ele>
        <time>2019-03-09T13:24:50Z</time>
      </trkpt>
      <trkpt lat="46.442187242209911" lon="11.646813293918967">
        <ele>1898.74</ele>
        <time>2019-03-09T13:24:59Z</time>
      </trkpt>
      <trkpt lat="46.442106105387211" lon="11.646901136264205">
        <ele>1898.74</ele>
        <time>2019-03-09T13:25:09Z</time>
      </trkpt>
      <trkpt lat="46.441998146474361" lon="11.647026026621461">
        <ele>1896.3399999999999</ele>
        <time>2019-03-09T13:25:20Z</time>
      </trkpt>
      <trkpt lat="46.441950034350157" lon="11.647084783762693">
        <ele>1894.9000000000001</ele>
        <time>2019-03-09T13:25:27Z</time>
      </trkpt>
      <trkpt lat="46.441937629133463" lon="11.647100793197751">
        <ele>1894.9000000000001</ele>
        <time>2019-03-09T13:25:29Z</time>
      </trkpt>
      <trkpt lat="46.44186956807971" lon="11.647192491218448">
        <ele>1894.4200000000001</ele>
        <time>2019-03-09T13:25:40Z</time>
      </trkpt>
      <trkpt lat="46.441795555874705" lon="11.647306401282549">
        <ele>1893.9300000000001</ele>
        <time>2019-03-09T13:25:50Z</time>
      </trkpt>
      <trkpt lat="46.441749455407262" lon="11.647371193394065">
        <ele>1893.45</ele>
        <time>2019-03-09T13:25:57Z</time>
      </trkpt>
      <trkpt lat="46.441703774034977" lon="11.647449983283877">
        <ele>1893.9300000000001</ele>
        <time>2019-03-09T13:26:06Z</time>
      </trkpt>
      <trkpt lat="46.441620960831642" lon="11.6475800704211">
        <ele>1893.45</ele>
        <time>2019-03-09T13:26:16Z</time>
      </trkpt>
      <trkpt lat="46.441603191196918" lon="11.647623404860497">
        <ele>1893.45</ele>
        <time>2019-03-09T13:26:20Z</time>
      </trkpt>
      <trkpt lat="46.441562622785568" lon="11.647768244147301">
        <ele>1893.9300000000001</ele>
        <time>2019-03-09T13:26:31Z</time>
      </trkpt>
      <trkpt lat="46.441566227003932" lon="11.647903276607394">
        <ele>1893.9300000000001</ele>
        <time>2019-03-09T13:26:41Z</time>
      </trkpt>
      <trkpt lat="46.441565388813615" lon="11.647940324619412">
        <ele>1893.9300000000001</ele>
        <time>2019-03-09T13:26:43Z</time>
      </trkpt>
      <trkpt lat="46.441573016345501" lon="11.647978210821748">
        <ele>1893.9300000000001</ele>
        <time>2019-03-09T13:26:46Z</time>
      </trkpt>
      <trkpt lat="46.441588271409273" lon="11.648113746196032">
        <ele>1892.97</ele>
        <time>2019-03-09T13:26:55Z</time>
      </trkpt>
      <trkpt lat="46.441586427390575" lon="11.648157248273492">
        <ele>1893.45</ele>
        <time>2019-03-09T13:26:58Z</time>
      </trkpt>
      <trkpt lat="46.441597072407603" lon="11.648211982101202">
        <ele>1893.45</ele>
        <time>2019-03-09T13:27:02Z</time>
      </trkpt>
      <trkpt lat="46.441601850092411" lon="11.648243833333254">
        <ele>1893.45</ele>
        <time>2019-03-09T13:27:04Z</time>
      </trkpt>
      <trkpt lat="46.441615093499422" lon="11.648308541625738">
        <ele>1894.4200000000001</ele>
        <time>2019-03-09T13:27:09Z</time>
      </trkpt>
      <trkpt lat="46.441616183146834" lon="11.648346846923232">
        <ele>1894.4200000000001</ele>
        <time>2019-03-09T13:27:12Z</time>
      </trkpt>
      <trkpt lat="46.441598413512111" lon="11.648473078384995">
        <ele>1893.45</ele>
        <time>2019-03-09T13:27:20Z</time>
      </trkpt>
      <trkpt lat="46.441597156226635" lon="11.648485567420721">
        <ele>1893.9300000000001</ele>
        <time>2019-03-09T13:27:21Z</time>
      </trkpt>
      <trkpt lat="46.441527921706438" lon="11.648639459162951">
        <ele>1893.45</ele>
        <time>2019-03-09T13:27:33Z</time>
      </trkpt>
      <trkpt lat="46.441463213413954" lon="11.648744735866785">
        <ele>1892.01</ele>
        <time>2019-03-09T13:27:41Z</time>
      </trkpt>
      <trkpt lat="46.441454999148846" lon="11.648756386712193">
        <ele>1891.53</ele>
        <time>2019-03-09T13:27:42Z</time>
      </trkpt>
      <trkpt lat="46.441390123218298" lon="11.648889323696494">
        <ele>1890.0899999999999</ele>
        <time>2019-03-09T13:27:52Z</time>
      </trkpt>
      <trkpt lat="46.441360535100102" lon="11.649042461067438">
        <ele>1889.1300000000001</ele>
        <time>2019-03-09T13:28:03Z</time>
      </trkpt>
      <trkpt lat="46.441368330270052" lon="11.649179756641388">
        <ele>1888.6500000000001</ele>
        <time>2019-03-09T13:28:13Z</time>
      </trkpt>
      <trkpt lat="46.441380735486746" lon="11.649337420240045">
        <ele>1888.1700000000001</ele>
        <time>2019-03-09T13:28:24Z</time>
      </trkpt>
      <trkpt lat="46.441403366625309" lon="11.649477649480104">
        <ele>1888.1700000000001</ele>
        <time>2019-03-09T13:28:34Z</time>
      </trkpt>
      <trkpt lat="46.441367492079735" lon="11.649610586464405">
        <ele>1888.1700000000001</ele>
        <time>2019-03-09T13:28:44Z</time>
      </trkpt>
      <trkpt lat="46.441297503188252" lon="11.649713180959225">
        <ele>1887.6900000000001</ele>
        <time>2019-03-09T13:28:55Z</time>
      </trkpt>
      <trkpt lat="46.441280990839005" lon="11.649751318618655">
        <ele>1887.6900000000001</ele>
        <time>2019-03-09T13:28:58Z</time>
      </trkpt>
      <trkpt lat="46.441265651956201" lon="11.649815356358886">
        <ele>1887.6900000000001</ele>
        <time>2019-03-09T13:29:02Z</time>
      </trkpt>
      <trkpt lat="46.441254671663046" lon="11.649854583665729">
        <ele>1887.6900000000001</ele>
        <time>2019-03-09T13:29:05Z</time>
      </trkpt>
      <trkpt lat="46.441214773803949" lon="11.65000269189477">
        <ele>1886.24</ele>
        <time>2019-03-09T13:29:16Z</time>
      </trkpt>
      <trkpt lat="46.441154675558209" lon="11.650093384087086">
        <ele>1885.76</ele>
        <time>2019-03-09T13:29:24Z</time>
      </trkpt>
      <trkpt lat="46.441150736063719" lon="11.650101095438004">
        <ele>1885.76</ele>
        <time>2019-03-09T13:29:25Z</time>
      </trkpt>
      <trkpt lat="46.441126093268394" lon="11.650167899206281">
        <ele>1886.24</ele>
        <time>2019-03-09T13:29:31Z</time>
      </trkpt>
      <trkpt lat="46.441101366654038" lon="11.650228416547179">
        <ele>1885.76</ele>
        <time>2019-03-09T13:29:36Z</time>
      </trkpt>
      <trkpt lat="46.441024756059051" lon="11.650373255833983">
        <ele>1885.28</ele>
        <time>2019-03-09T13:29:46Z</time>
      </trkpt>
      <trkpt lat="46.440947726368904" lon="11.650468222796917">
        <ele>1885.28</ele>
        <time>2019-03-09T13:29:55Z</time>
      </trkpt>
      <trkpt lat="46.440930292010307" lon="11.650489009916782">
        <ele>1885.28</ele>
        <time>2019-03-09T13:29:57Z</time>
      </trkpt>
      <trkpt lat="46.440825182944536" lon="11.650564027950168">
        <ele>1885.28</ele>
        <time>2019-03-09T13:30:08Z</time>
      </trkpt>
      <trkpt lat="46.440769527107477" lon="11.65061448700726">
        <ele>1885.28</ele>
        <time>2019-03-09T13:30:14Z</time>
      </trkpt>
      <trkpt lat="46.440685372799635" lon="11.650683470070362">
        <ele>1885.76</ele>
        <time>2019-03-09T13:30:23Z</time>
      </trkpt>
      <trkpt lat="46.440589064732194" lon="11.650723619386554">
        <ele>1884.3199999999999</ele>
        <time>2019-03-09T13:30:33Z</time>
      </trkpt>
      <trkpt lat="46.440506000071764" lon="11.650750692933798">
        <ele>1883.8399999999999</ele>
        <time>2019-03-09T13:30:42Z</time>
      </trkpt>
      <trkpt lat="46.440407428890467" lon="11.650815401226282">
        <ele>1883.8399999999999</ele>
        <time>2019-03-09T13:30:52Z</time>
      </trkpt>
      <trkpt lat="46.440385887399316" lon="11.650851191952825">
        <ele>1883.8399999999999</ele>
        <time>2019-03-09T13:30:55Z</time>
      </trkpt>
      <trkpt lat="46.440351018682122" lon="11.650933669880033">
        <ele>1883.8399999999999</ele>
        <time>2019-03-09T13:31:00Z</time>
      </trkpt>
      <trkpt lat="46.440341547131538" lon="11.651077838614583">
        <ele>1882.8800000000001</ele>
        <time>2019-03-09T13:31:09Z</time>
      </trkpt>
      <trkpt lat="46.440344229340553" lon="11.651180936023593">
        <ele>1881.9200000000001</ele>
        <time>2019-03-09T13:31:16Z</time>
      </trkpt>
      <trkpt lat="46.440327297896147" lon="11.651305658742785">
        <ele>1882.4000000000001</ele>
        <time>2019-03-09T13:31:25Z</time>
      </trkpt>
      <trkpt lat="46.440327633172274" lon="11.651320746168494">
        <ele>1882.8800000000001</ele>
        <time>2019-03-09T13:31:26Z</time>
      </trkpt>
      <trkpt lat="46.440329309552908" lon="11.651361649855971">
        <ele>1882.8800000000001</ele>
        <time>2019-03-09T13:31:29Z</time>
      </trkpt>
      <trkpt lat="46.440331991761923" lon="11.651416132226586">
        <ele>1884.3199999999999</ele>
        <time>2019-03-09T13:31:33Z</time>
      </trkpt>
      <trkpt lat="46.440296033397317" lon="11.651589050889015">
        <ele>1885.76</ele>
        <time>2019-03-09T13:31:45Z</time>
      </trkpt>
      <trkpt lat="46.440259991213679" lon="11.651680245995522">
        <ele>1887.6900000000001</ele>
        <time>2019-03-09T13:31:53Z</time>
      </trkpt>
      <trkpt lat="46.440194277092814" lon="11.65176029317081">
        <ele>1886.72</ele>
        <time>2019-03-09T13:32:01Z</time>
      </trkpt>
      <trkpt lat="46.440134681761265" lon="11.651846710592508">
        <ele>1886.24</ele>
        <time>2019-03-09T13:32:14Z</time>
      </trkpt>
      <trkpt lat="46.440062513574958" lon="11.651958022266626">
        <ele>1885.28</ele>
        <time>2019-03-09T13:32:22Z</time>
      </trkpt>
      <trkpt lat="46.440003672614694" lon="11.652077380567789">
        <ele>1885.76</ele>
        <time>2019-03-09T13:32:31Z</time>
      </trkpt>
      <trkpt lat="46.439984310418367" lon="11.652123983949423">
        <ele>1885.28</ele>
        <time>2019-03-09T13:32:36Z</time>
      </trkpt>
      <trkpt lat="46.439938461408019" lon="11.652222890406847">
        <ele>1885.76</ele>
        <time>2019-03-09T13:32:46Z</time>
      </trkpt>
      <trkpt lat="46.439900239929557" lon="11.652321880683303">
        <ele>1886.24</ele>
        <time>2019-03-09T13:32:54Z</time>
      </trkpt>
      <trkpt lat="46.43985154107213" lon="11.652438724413514">
        <ele>1885.76</ele>
        <time>2019-03-09T13:33:03Z</time>
      </trkpt>
      <trkpt lat="46.439788257703185" lon="11.652592029422522">
        <ele>1885.28</ele>
        <time>2019-03-09T13:33:14Z</time>
      </trkpt>
      <trkpt lat="46.439729668200016" lon="11.652687834575772">
        <ele>1885.76</ele>
        <time>2019-03-09T13:33:24Z</time>
      </trkpt>
      <trkpt lat="46.439670827239752" lon="11.652780035510659">
        <ele>1886.24</ele>
        <time>2019-03-09T13:33:32Z</time>
      </trkpt>
      <trkpt lat="46.439626151695848" lon="11.652895454317331">
        <ele>1886.72</ele>
        <time>2019-03-09T13:33:41Z</time>
      </trkpt>
      <trkpt lat="46.439591366797686" lon="11.653062421828508">
        <ele>1887.6900000000001</ele>
        <time>2019-03-09T13:33:51Z</time>
      </trkpt>
      <trkpt lat="46.439545936882496" lon="11.653155796229839">
        <ele>1887.6900000000001</ele>
        <time>2019-03-09T13:34:00Z</time>
      </trkpt>
      <trkpt lat="46.439533531665802" lon="11.653198543936014">
        <ele>1886.72</ele>
        <time>2019-03-09T13:34:04Z</time>
      </trkpt>
      <trkpt lat="46.439526239410043" lon="11.653236011043191">
        <ele>1886.24</ele>
        <time>2019-03-09T13:34:07Z</time>
      </trkpt>
      <trkpt lat="46.439500423148274" lon="11.653312454000115">
        <ele>1885.76</ele>
        <time>2019-03-09T13:34:13Z</time>
      </trkpt>
      <trkpt lat="46.439469745382667" lon="11.653414461761713">
        <ele>1886.24</ele>
        <time>2019-03-09T13:34:20Z</time>
      </trkpt>
      <trkpt lat="46.439452227205038" lon="11.65345435962081">
        <ele>1885.76</ele>
        <time>2019-03-09T13:34:23Z</time>
      </trkpt>
      <trkpt lat="46.439418531954288" lon="11.653513787314296">
        <ele>1886.24</ele>
        <time>2019-03-09T13:34:28Z</time>
      </trkpt>
      <trkpt lat="46.439353739842772" lon="11.653649657964706">
        <ele>1885.76</ele>
        <time>2019-03-09T13:34:39Z</time>
      </trkpt>
      <trkpt lat="46.43928031437099" lon="11.653818637132645">
        <ele>1882.8800000000001</ele>
        <time>2019-03-09T13:34:49Z</time>
      </trkpt>
      <trkpt lat="46.439270507544279" lon="11.653869682922959">
        <ele>1881.9200000000001</ele>
        <time>2019-03-09T13:34:52Z</time>
      </trkpt>
      <trkpt lat="46.439264472573996" lon="11.654036147519946">
        <ele>1880</ele>
        <time>2019-03-09T13:35:02Z</time>
      </trkpt>
      <trkpt lat="46.439248630777001" lon="11.654085433110595">
        <ele>1879.03</ele>
        <time>2019-03-09T13:35:05Z</time>
      </trkpt>
      <trkpt lat="46.439238907769322" lon="11.654185345396399">
        <ele>1878.0699999999999</ele>
        <time>2019-03-09T13:35:11Z</time>
      </trkpt>
      <trkpt lat="46.439224742352962" lon="11.654267907142639">
        <ele>1876.6300000000001</ele>
        <time>2019-03-09T13:35:16Z</time>
      </trkpt>
      <trkpt lat="46.439247289672494" lon="11.65446387603879">
        <ele>1875.6700000000001</ele>
        <time>2019-03-09T13:35:28Z</time>
      </trkpt>
      <trkpt lat="46.439247708767653" lon="11.654498158022761">
        <ele>1875.1900000000001</ele>
        <time>2019-03-09T13:35:30Z</time>
      </trkpt>
      <trkpt lat="46.439237566664815" lon="11.654556496068835">
        <ele>1875.1900000000001</ele>
        <time>2019-03-09T13:35:34Z</time>
      </trkpt>
      <trkpt lat="46.439173528924584" lon="11.654685828834772">
        <ele>1873.75</ele>
        <time>2019-03-09T13:35:43Z</time>
      </trkpt>
      <trkpt lat="46.439151400700212" lon="11.654728073626757">
        <ele>1872.79</ele>
        <time>2019-03-09T13:35:46Z</time>
      </trkpt>
      <trkpt lat="46.439112173393369" lon="11.654884563758969">
        <ele>1871.3399999999999</ele>
        <time>2019-03-09T13:35:56Z</time>
      </trkpt>
      <trkpt lat="46.43910588696599" lon="11.654902752488852">
        <ele>1870.8599999999999</ele>
        <time>2019-03-09T13:35:57Z</time>
      </trkpt>
      <trkpt lat="46.439070431515574" lon="11.65497207082808">
        <ele>1869.9000000000001</ele>
        <time>2019-03-09T13:36:02Z</time>
      </trkpt>
      <trkpt lat="46.439019637182355" lon="11.65513870306313">
        <ele>1868.9400000000001</ele>
        <time>2019-03-09T13:36:11Z</time>
      </trkpt>
      <trkpt lat="46.439011925831437" lon="11.65527549572289">
        <ele>1868.46</ele>
        <time>2019-03-09T13:36:20Z</time>
      </trkpt>
      <trkpt lat="46.439013602212071" lon="11.655322769656777">
        <ele>1867.98</ele>
        <time>2019-03-09T13:36:23Z</time>
      </trkpt>
      <trkpt lat="46.439002202823758" lon="11.655393093824387">
        <ele>1867.5</ele>
        <time>2019-03-09T13:36:27Z</time>
      </trkpt>
      <trkpt lat="46.438983008265495" lon="11.655505327507854">
        <ele>1866.54</ele>
        <time>2019-03-09T13:36:34Z</time>
      </trkpt>
      <trkpt lat="46.43893682397902" lon="11.655690986663103">
        <ele>1865.0899999999999</ele>
        <time>2019-03-09T13:36:45Z</time>
      </trkpt>
      <trkpt lat="46.438930034637451" lon="11.655811099335551">
        <ele>1863.6500000000001</ele>
        <time>2019-03-09T13:36:52Z</time>
      </trkpt>
      <trkpt lat="46.438928358256817" lon="11.655864324420691">
        <ele>1863.6500000000001</ele>
        <time>2019-03-09T13:36:55Z</time>
      </trkpt>
      <trkpt lat="46.438899105414748" lon="11.656045122072101">
        <ele>1861.73</ele>
        <time>2019-03-09T13:37:05Z</time>
      </trkpt>
      <trkpt lat="46.438881335780025" lon="11.656228853389621">
        <ele>1859.8099999999999</ele>
        <time>2019-03-09T13:37:16Z</time>
      </trkpt>
      <trkpt lat="46.438867086544633" lon="11.65636757388711">
        <ele>1858.8499999999999</ele>
        <time>2019-03-09T13:37:25Z</time>
      </trkpt>
      <trkpt lat="46.438841354101896" lon="11.656506042927504">
        <ele>1858.3699999999999</ele>
        <time>2019-03-09T13:37:33Z</time>
      </trkpt>
      <trkpt lat="46.438820986077189" lon="11.656684074550867">
        <ele>1858.8499999999999</ele>
        <time>2019-03-09T13:37:43Z</time>
      </trkpt>
      <trkpt lat="46.438772790133953" lon="11.656908709555864">
        <ele>1858.8499999999999</ele>
        <time>2019-03-09T13:37:56Z</time>
      </trkpt>
      <trkpt lat="46.438760468736291" lon="11.656984398141503">
        <ele>1858.8499999999999</ele>
        <time>2019-03-09T13:38:01Z</time>
      </trkpt>
      <trkpt lat="46.438746387138963" lon="11.657050950452685">
        <ele>1858.3699999999999</ele>
        <time>2019-03-09T13:38:05Z</time>
      </trkpt>
      <trkpt lat="46.438733646646142" lon="11.657077185809612">
        <ele>1858.3699999999999</ele>
        <time>2019-03-09T13:38:07Z</time>
      </trkpt>
      <trkpt lat="46.438719229772687" lon="11.657182965427637">
        <ele>1858.3699999999999</ele>
        <time>2019-03-09T13:38:18Z</time>
      </trkpt>
      <trkpt lat="46.438721660524607" lon="11.657173996791244">
        <ele>1858.8499999999999</ele>
        <time>2019-03-09T13:38:29Z</time>
      </trkpt>
      <trkpt lat="46.438723169267178" lon="11.657151281833649">
        <ele>1857.8900000000001</ele>
        <time>2019-03-09T13:38:49Z</time>
      </trkpt>
      <trkpt lat="46.43872526474297" lon="11.657162765040994">
        <ele>1857.4000000000001</ele>
        <time>2019-03-09T13:39:12Z</time>
      </trkpt>
      <trkpt lat="46.438679583370686" lon="11.657159831374884">
        <ele>1858.3699999999999</ele>
        <time>2019-03-09T13:39:22Z</time>
      </trkpt>
      <trkpt lat="46.438667178153992" lon="11.657263431698084">
        <ele>1857.8900000000001</ele>
        <time>2019-03-09T13:39:30Z</time>
      </trkpt>
      <trkpt lat="46.43866172991693" lon="11.657291762530804">
        <ele>1857.8900000000001</ele>
        <time>2019-03-09T13:39:38Z</time>
      </trkpt>
      <trkpt lat="46.438647732138634" lon="11.65730182081461">
        <ele>1857.4000000000001</ele>
        <time>2019-03-09T13:39:50Z</time>
      </trkpt>
      <trkpt lat="46.43866466358304" lon="11.657311795279384">
        <ele>1857.4000000000001</ele>
        <time>2019-03-09T13:40:05Z</time>
      </trkpt>
      <trkpt lat="46.438659802079201" lon="11.657304586842656">
        <ele>1855.96</ele>
        <time>2019-03-09T13:40:17Z</time>
      </trkpt>
      <trkpt lat="46.438665166497231" lon="11.657322272658348">
        <ele>1856.9200000000001</ele>
        <time>2019-03-09T13:40:27Z</time>
      </trkpt>
      <trkpt lat="46.43867002800107" lon="11.65733216330409">
        <ele>1859.3299999999999</ele>
        <time>2019-03-09T13:40:45Z</time>
      </trkpt>
      <trkpt lat="46.43869542516768" lon="11.657314728945494">
        <ele>1860.77</ele>
        <time>2019-03-09T13:41:03Z</time>
      </trkpt>
      <trkpt lat="46.438687713816762" lon="11.657320261001587">
        <ele>1860.29</ele>
        <time>2019-03-09T13:41:19Z</time>
      </trkpt>
      <trkpt lat="46.4386822655797" lon="11.657343562692404">
        <ele>1860.29</ele>
        <time>2019-03-09T13:41:35Z</time>
      </trkpt>
      <trkpt lat="46.438677320256829" lon="11.657355800271034">
        <ele>1859.8099999999999</ele>
        <time>2019-03-09T13:41:47Z</time>
      </trkpt>
      <trkpt lat="46.438665082678199" lon="11.657347418367863">
        <ele>1860.29</ele>
        <time>2019-03-09T13:42:01Z</time>
      </trkpt>
      <trkpt lat="46.43867488950491" lon="11.657328391447663">
        <ele>1858.8499999999999</ele>
        <time>2019-03-09T13:42:16Z</time>
      </trkpt>
      <trkpt lat="46.438660053536296" lon="11.657310286536813">
        <ele>1857.8900000000001</ele>
        <time>2019-03-09T13:42:26Z</time>
      </trkpt>
      <trkpt lat="46.438651671633124" lon="11.657390668988228">
        <ele>1855.96</ele>
        <time>2019-03-09T13:42:34Z</time>
      </trkpt>
      <trkpt lat="46.438624933362007" lon="11.657470548525453">
        <ele>1854.52</ele>
        <time>2019-03-09T13:42:42Z</time>
      </trkpt>
      <trkpt lat="46.438579503446817" lon="11.657656962051988">
        <ele>1854.52</ele>
        <time>2019-03-09T13:42:54Z</time>
      </trkpt>
      <trkpt lat="46.438530134037137" lon="11.657852176576853">
        <ele>1851.6400000000001</ele>
        <time>2019-03-09T13:43:05Z</time>
      </trkpt>
      <trkpt lat="46.438501635566354" lon="11.658056695014238">
        <ele>1852.1199999999999</ele>
        <time>2019-03-09T13:43:17Z</time>
      </trkpt>
      <trkpt lat="46.438482273370028" lon="11.658226260915399">
        <ele>1852.5999999999999</ele>
        <time>2019-03-09T13:43:28Z</time>
      </trkpt>
      <trkpt lat="46.438457295298576" lon="11.658357018604875">
        <ele>1851.6400000000001</ele>
        <time>2019-03-09T13:43:38Z</time>
      </trkpt>
      <trkpt lat="46.438448075205088" lon="11.65837780572474">
        <ele>1848.27</ele>
        <time>2019-03-09T13:43:43Z</time>
      </trkpt>
      <trkpt lat="46.438434915617108" lon="11.658403873443604">
        <ele>1847.79</ele>
        <time>2019-03-09T13:43:45Z</time>
      </trkpt>
      <trkpt lat="46.43840272910893" lon="11.658533792942762">
        <ele>1846.8299999999999</ele>
        <time>2019-03-09T13:43:53Z</time>
      </trkpt>
      <trkpt lat="46.43839543685317" lon="11.658599087968469">
        <ele>1846.8299999999999</ele>
        <time>2019-03-09T13:43:57Z</time>
      </trkpt>
      <trkpt lat="46.438388982787728" lon="11.658672094345093">
        <ele>1847.79</ele>
        <time>2019-03-09T13:44:01Z</time>
      </trkpt>
      <trkpt lat="46.438370458781719" lon="11.658796481788158">
        <ele>1846.3499999999999</ele>
        <time>2019-03-09T13:44:07Z</time>
      </trkpt>
      <trkpt lat="46.438351515680552" lon="11.658873846754432">
        <ele>1845.8699999999999</ele>
        <time>2019-03-09T13:44:12Z</time>
      </trkpt>
      <trkpt lat="46.438330393284559" lon="11.658922042697668">
        <ele>1844.9100000000001</ele>
        <time>2019-03-09T13:44:15Z</time>
      </trkpt>
      <trkpt lat="46.438322346657515" lon="11.658992283046246">
        <ele>1844.9100000000001</ele>
        <time>2019-03-09T13:44:19Z</time>
      </trkpt>
      <trkpt lat="46.438316898420453" lon="11.659140307456255">
        <ele>1843.95</ele>
        <time>2019-03-09T13:44:28Z</time>
      </trkpt>
      <trkpt lat="46.438339110463858" lon="11.659213649109006">
        <ele>1841.54</ele>
        <time>2019-03-09T13:44:34Z</time>
      </trkpt>
      <trkpt lat="46.438353778794408" lon="11.659236783161759">
        <ele>1840.5799999999999</ele>
        <time>2019-03-09T13:44:36Z</time>
      </trkpt>
      <trkpt lat="46.438389988616109" lon="11.659408779814839">
        <ele>1837.22</ele>
        <time>2019-03-09T13:44:47Z</time>
      </trkpt>
      <trkpt lat="46.438420917838812" lon="11.659519504755735">
        <ele>1835.29</ele>
        <time>2019-03-09T13:44:54Z</time>
      </trkpt>
      <trkpt lat="46.43844673410058" lon="11.659644059836864">
        <ele>1832.4100000000001</ele>
        <time>2019-03-09T13:45:02Z</time>
      </trkpt>
      <trkpt lat="46.438484871760011" lon="11.659842040389776">
        <ele>1829.53</ele>
        <time>2019-03-09T13:45:13Z</time>
      </trkpt>
      <trkpt lat="46.438510688021779" lon="11.660030717030168">
        <ele>1827.1199999999999</ele>
        <time>2019-03-09T13:45:23Z</time>
      </trkpt>
      <trkpt lat="46.438559051603079" lon="11.660232720896602">
        <ele>1824.72</ele>
        <time>2019-03-09T13:45:35Z</time>
      </trkpt>
      <trkpt lat="46.438618060201406" lon="11.66038803756237">
        <ele>1822.8</ele>
        <time>2019-03-09T13:45:44Z</time>
      </trkpt>
      <trkpt lat="46.438644798472524" lon="11.660594567656517">
        <ele>1819.9100000000001</ele>
        <time>2019-03-09T13:45:55Z</time>
      </trkpt>
      <trkpt lat="46.43864756450057" lon="11.660689786076546">
        <ele>1818.95</ele>
        <time>2019-03-09T13:46:00Z</time>
      </trkpt>
      <trkpt lat="46.438671955838799" lon="11.660926323384047">
        <ele>1817.51</ele>
        <time>2019-03-09T13:46:13Z</time>
      </trkpt>
      <trkpt lat="46.438696095719934" lon="11.661121789366007">
        <ele>1816.0699999999999</ele>
        <time>2019-03-09T13:46:24Z</time>
      </trkpt>
      <trkpt lat="46.438709674403071" lon="11.661173924803734">
        <ele>1815.1099999999999</ele>
        <time>2019-03-09T13:46:27Z</time>
      </trkpt>
      <trkpt lat="46.438730461522937" lon="11.661294288933277">
        <ele>1814.1500000000001</ele>
        <time>2019-03-09T13:46:34Z</time>
      </trkpt>
      <trkpt lat="46.438750829547644" lon="11.661478690803051">
        <ele>1812.7</ele>
        <time>2019-03-09T13:46:45Z</time>
      </trkpt>
      <trkpt lat="46.438771029934287" lon="11.661673653870821">
        <ele>1811.74</ele>
        <time>2019-03-09T13:46:57Z</time>
      </trkpt>
      <trkpt lat="46.438789889216423" lon="11.661742720752954">
        <ele>1810.78</ele>
        <time>2019-03-09T13:47:01Z</time>
      </trkpt>
      <trkpt lat="46.438849987462163" lon="11.661918992176652">
        <ele>1809.3399999999999</ele>
        <time>2019-03-09T13:47:11Z</time>
      </trkpt>
      <trkpt lat="46.438857782632113" lon="11.66193600744009">
        <ele>1809.3399999999999</ele>
        <time>2019-03-09T13:47:12Z</time>
      </trkpt>
      <trkpt lat="46.438956102356315" lon="11.662092413753271">
        <ele>1809.8199999999999</ele>
        <time>2019-03-09T13:47:23Z</time>
      </trkpt>
      <trkpt lat="46.438978984951973" lon="11.662210263311863">
        <ele>1810.3</ele>
        <time>2019-03-09T13:47:29Z</time>
      </trkpt>
      <trkpt lat="46.438982421532273" lon="11.662308918312192">
        <ele>1808.3800000000001</ele>
        <time>2019-03-09T13:47:35Z</time>
      </trkpt>
      <trkpt lat="46.438985774293542" lon="11.662420984357595">
        <ele>1808.3800000000001</ele>
        <time>2019-03-09T13:47:44Z</time>
      </trkpt>
      <trkpt lat="46.439001951366663" lon="11.662493152543902">
        <ele>1807.4200000000001</ele>
        <time>2019-03-09T13:47:49Z</time>
      </trkpt>
      <trkpt lat="46.439031036570668" lon="11.662608906626701">
        <ele>1805.97</ele>
        <time>2019-03-09T13:47:56Z</time>
      </trkpt>
      <trkpt lat="46.43902919255197" lon="11.66264159604907">
        <ele>1805.49</ele>
        <time>2019-03-09T13:47:58Z</time>
      </trkpt>
      <trkpt lat="46.43901988863945" lon="11.662815436720848">
        <ele>1803.5699999999999</ele>
        <time>2019-03-09T13:48:08Z</time>
      </trkpt>
      <trkpt lat="46.43899985589087" lon="11.662859441712499">
        <ele>1804.05</ele>
        <time>2019-03-09T13:48:11Z</time>
      </trkpt>
      <trkpt lat="46.438989881426096" lon="11.663029678165913">
        <ele>1804.05</ele>
        <time>2019-03-09T13:48:21Z</time>
      </trkpt>
      <trkpt lat="46.438997676596045" lon="11.66319371201098">
        <ele>1803.5699999999999</ele>
        <time>2019-03-09T13:48:31Z</time>
      </trkpt>
      <trkpt lat="46.438999772071838" lon="11.663208715617657">
        <ele>1803.5699999999999</ele>
        <time>2019-03-09T13:48:32Z</time>
      </trkpt>
      <trkpt lat="46.438996670767665" lon="11.663242913782597">
        <ele>1804.05</ele>
        <time>2019-03-09T13:48:34Z</time>
      </trkpt>
      <trkpt lat="46.438992898911238" lon="11.663331845775247">
        <ele>1803.5699999999999</ele>
        <time>2019-03-09T13:48:40Z</time>
      </trkpt>
      <trkpt lat="46.438905224204063" lon="11.663385322317481">
        <ele>1805.49</ele>
        <time>2019-03-09T13:48:51Z</time>
      </trkpt>
      <trkpt lat="46.438860381022096" lon="11.663286834955215">
        <ele>1802.1300000000001</ele>
        <time>2019-03-09T13:50:17Z</time>
      </trkpt>
      <trkpt lat="46.438860464841127" lon="11.663283901289105">
        <ele>1801.1700000000001</ele>
        <time>2019-03-09T13:50:37Z</time>
      </trkpt>
    </trkseg>
  </trk>

</gpx>